<?xml version="1.0" encoding="UTF-8" standalone="no" ?>
<gpx xmlns="http://www.topografix.com/GPX/1/1" xmlns:xsi="http://www.w3.org/2001/XMLSchema-instance" xsi:schemaLocation="http://www.topografix.com/GPX/1/1 http://www.topografix.com/GPX/1/1/gpx.xsd" version="1.1" creator="VisuGPX - https://www.visugpx.com">
  <metadata>
    <name>Tour du rocher de Roquebrune sur Argens</name>
    <desc><![CDATA[La première partie suit le GR 51 jusqu\'à la Haute Rouquaire. On l\'abandonne en direction d\'une dépression: à noter peu après 2 monolithes \"les Deux Frères\". On poursuit jusqu\'au col du Facteur: présence d\'un ermite et possibilité de grimper au sommet du belvédère.
De retour au col, on poursuit au nord en descendant jusqu\'à la petite route de Notre-Dame de la Roquette: à noter la possibilité de couper par les Hautes Roques (cairn à droite au sortir des bois, au 2/3 de la descente).]]></desc>
  </metadata>
  <trk>
    <name><![CDATA[ROCHER DE ROQUEBRUNE]]></name>
    <trkseg>
      <trkpt lat="43.45051" lon="6.61642">
        <ele>-60.43</ele>
        <time>2012-03-11T10:07:19Z</time>
      </trkpt>
      <trkpt lat="43.45051" lon="6.61641">
        <ele>-59.95</ele>
        <time>2012-03-11T10:07:20Z</time>
      </trkpt>
      <trkpt lat="43.45051" lon="6.61617">
        <ele>-55.14</ele>
        <time>2012-03-11T10:07:39Z</time>
      </trkpt>
      <trkpt lat="43.45051" lon="6.61616">
        <ele>-52.25</ele>
        <time>2012-03-11T10:07:40Z</time>
      </trkpt>
      <trkpt lat="43.45051" lon="6.61616">
        <ele>-46.97</ele>
        <time>2012-03-11T10:07:42Z</time>
      </trkpt>
      <trkpt lat="43.45051" lon="6.61616">
        <ele>-42.16</ele>
        <time>2012-03-11T10:07:44Z</time>
      </trkpt>
      <trkpt lat="43.45051" lon="6.61616">
        <ele>-37.35</ele>
        <time>2012-03-11T10:07:46Z</time>
      </trkpt>
      <trkpt lat="43.45051" lon="6.61616">
        <ele>-34.47</ele>
        <time>2012-03-11T10:07:48Z</time>
      </trkpt>
      <trkpt lat="43.45051" lon="6.61616">
        <ele>-30.14</ele>
        <time>2012-03-11T10:07:50Z</time>
      </trkpt>
      <trkpt lat="43.45051" lon="6.61614">
        <ele>-25.34</ele>
        <time>2012-03-11T10:07:53Z</time>
      </trkpt>
      <trkpt lat="43.45051" lon="6.61615">
        <ele>-21.49</ele>
        <time>2012-03-11T10:07:55Z</time>
      </trkpt>
      <trkpt lat="43.45051" lon="6.61618">
        <ele>-17.65</ele>
        <time>2012-03-11T10:07:58Z</time>
      </trkpt>
      <trkpt lat="43.4505" lon="6.61622">
        <ele>-14.76</ele>
        <time>2012-03-11T10:08:01Z</time>
      </trkpt>
      <trkpt lat="43.4505" lon="6.61623">
        <ele>-10.44</ele>
        <time>2012-03-11T10:08:05Z</time>
      </trkpt>
      <trkpt lat="43.4505" lon="6.61622">
        <ele>-7.07</ele>
        <time>2012-03-11T10:08:09Z</time>
      </trkpt>
      <trkpt lat="43.4505" lon="6.61621">
        <ele>-5.15</ele>
        <time>2012-03-11T10:08:12Z</time>
      </trkpt>
      <trkpt lat="43.45049" lon="6.6162">
        <ele>-1.79</ele>
        <time>2012-03-11T10:08:16Z</time>
      </trkpt>
      <trkpt lat="43.45049" lon="6.6162">
        <ele>-1.79</ele>
        <time>2012-03-11T10:08:17Z</time>
      </trkpt>
      <trkpt lat="43.45052" lon="6.61615">
        <ele>1.58</ele>
        <time>2012-03-11T10:08:23Z</time>
      </trkpt>
      <trkpt lat="43.45057" lon="6.61611">
        <ele>3.98</ele>
        <time>2012-03-11T10:08:58Z</time>
      </trkpt>
      <trkpt lat="43.45057" lon="6.61611">
        <ele>4.46</ele>
        <time>2012-03-11T10:09:29Z</time>
      </trkpt>
      <trkpt lat="43.45056" lon="6.61612">
        <ele>4.46</ele>
        <time>2012-03-11T10:10:09Z</time>
      </trkpt>
      <trkpt lat="43.45056" lon="6.61612">
        <ele>4.94</ele>
        <time>2012-03-11T10:10:47Z</time>
      </trkpt>
      <trkpt lat="43.45056" lon="6.61613">
        <ele>4.94</ele>
        <time>2012-03-11T10:11:27Z</time>
      </trkpt>
      <trkpt lat="43.45055" lon="6.61613">
        <ele>3.5</ele>
        <time>2012-03-11T10:12:03Z</time>
      </trkpt>
      <trkpt lat="43.45055" lon="6.61613">
        <ele>7.35</ele>
        <time>2012-03-11T10:12:05Z</time>
      </trkpt>
      <trkpt lat="43.45055" lon="6.61614">
        <ele>1.1</ele>
        <time>2012-03-11T10:12:18Z</time>
      </trkpt>
      <trkpt lat="43.45055" lon="6.61614">
        <ele>5.91</ele>
        <time>2012-03-11T10:12:19Z</time>
      </trkpt>
      <trkpt lat="43.45055" lon="6.61614">
        <ele>5.91</ele>
        <time>2012-03-11T10:12:47Z</time>
      </trkpt>
      <trkpt lat="43.45054" lon="6.61615">
        <ele>6.39</ele>
        <time>2012-03-11T10:13:06Z</time>
      </trkpt>
      <trkpt lat="43.45054" lon="6.61615">
        <ele>6.87</ele>
        <time>2012-03-11T10:13:32Z</time>
      </trkpt>
      <trkpt lat="43.45054" lon="6.61615">
        <ele>7.83</ele>
        <time>2012-03-11T10:13:56Z</time>
      </trkpt>
      <trkpt lat="43.45054" lon="6.61615">
        <ele>7.35</ele>
        <time>2012-03-11T10:14:26Z</time>
      </trkpt>
      <trkpt lat="43.45055" lon="6.61616">
        <ele>7.35</ele>
        <time>2012-03-11T10:14:55Z</time>
      </trkpt>
      <trkpt lat="43.45055" lon="6.61616">
        <ele>6.87</ele>
        <time>2012-03-11T10:15:24Z</time>
      </trkpt>
      <trkpt lat="43.45055" lon="6.61616">
        <ele>7.35</ele>
        <time>2012-03-11T10:15:54Z</time>
      </trkpt>
      <trkpt lat="43.45054" lon="6.61615">
        <ele>7.83</ele>
        <time>2012-03-11T10:16:21Z</time>
      </trkpt>
      <trkpt lat="43.45054" lon="6.61615">
        <ele>7.83</ele>
        <time>2012-03-11T10:16:50Z</time>
      </trkpt>
      <trkpt lat="43.45054" lon="6.61615">
        <ele>7.35</ele>
        <time>2012-03-11T10:17:15Z</time>
      </trkpt>
      <trkpt lat="43.45054" lon="6.61615">
        <ele>8.31</ele>
        <time>2012-03-11T10:17:42Z</time>
      </trkpt>
      <trkpt lat="43.45054" lon="6.61615">
        <ele>7.83</ele>
        <time>2012-03-11T10:18:05Z</time>
      </trkpt>
      <trkpt lat="43.45054" lon="6.61615">
        <ele>8.31</ele>
        <time>2012-03-11T10:18:34Z</time>
      </trkpt>
      <trkpt lat="43.45054" lon="6.61615">
        <ele>8.31</ele>
        <time>2012-03-11T10:19:04Z</time>
      </trkpt>
      <trkpt lat="43.45054" lon="6.61616">
        <ele>8.31</ele>
        <time>2012-03-11T10:19:33Z</time>
      </trkpt>
      <trkpt lat="43.45054" lon="6.61616">
        <ele>8.31</ele>
        <time>2012-03-11T10:20:06Z</time>
      </trkpt>
      <trkpt lat="43.45054" lon="6.61616">
        <ele>8.31</ele>
        <time>2012-03-11T10:20:38Z</time>
      </trkpt>
      <trkpt lat="43.45054" lon="6.61616">
        <ele>8.31</ele>
        <time>2012-03-11T10:21:06Z</time>
      </trkpt>
      <trkpt lat="43.45054" lon="6.61616">
        <ele>7.35</ele>
        <time>2012-03-11T10:21:23Z</time>
      </trkpt>
      <trkpt lat="43.45054" lon="6.61616">
        <ele>7.35</ele>
        <time>2012-03-11T10:21:52Z</time>
      </trkpt>
      <trkpt lat="43.45054" lon="6.61616">
        <ele>7.35</ele>
        <time>2012-03-11T10:22:08Z</time>
      </trkpt>
      <trkpt lat="43.45054" lon="6.61615">
        <ele>7.35</ele>
        <time>2012-03-11T10:22:43Z</time>
      </trkpt>
      <trkpt lat="43.45054" lon="6.61615">
        <ele>6.87</ele>
        <time>2012-03-11T10:23:12Z</time>
      </trkpt>
      <trkpt lat="43.45054" lon="6.61614">
        <ele>7.83</ele>
        <time>2012-03-11T10:23:35Z</time>
      </trkpt>
      <trkpt lat="43.45053" lon="6.61614">
        <ele>6.87</ele>
        <time>2012-03-11T10:23:55Z</time>
      </trkpt>
      <trkpt lat="43.45053" lon="6.61614">
        <ele>7.35</ele>
        <time>2012-03-11T10:24:21Z</time>
      </trkpt>
      <trkpt lat="43.45053" lon="6.61614">
        <ele>6.87</ele>
        <time>2012-03-11T10:24:53Z</time>
      </trkpt>
      <trkpt lat="43.45053" lon="6.61614">
        <ele>6.87</ele>
        <time>2012-03-11T10:25:29Z</time>
      </trkpt>
      <trkpt lat="43.45053" lon="6.61613">
        <ele>6.87</ele>
        <time>2012-03-11T10:26:01Z</time>
      </trkpt>
      <trkpt lat="43.45053" lon="6.61613">
        <ele>7.35</ele>
        <time>2012-03-11T10:26:37Z</time>
      </trkpt>
      <trkpt lat="43.45053" lon="6.61613">
        <ele>7.35</ele>
        <time>2012-03-11T10:27:06Z</time>
      </trkpt>
      <trkpt lat="43.45053" lon="6.61613">
        <ele>7.35</ele>
        <time>2012-03-11T10:27:19Z</time>
      </trkpt>
      <trkpt lat="43.45051" lon="6.61613">
        <ele>8.31</ele>
        <time>2012-03-11T10:27:31Z</time>
      </trkpt>
      <trkpt lat="43.45052" lon="6.61615">
        <ele>7.35</ele>
        <time>2012-03-11T10:27:59Z</time>
      </trkpt>
      <trkpt lat="43.45054" lon="6.6162">
        <ele>8.31</ele>
        <time>2012-03-11T10:28:05Z</time>
      </trkpt>
      <trkpt lat="43.45061" lon="6.61628">
        <ele>8.31</ele>
        <time>2012-03-11T10:28:15Z</time>
      </trkpt>
      <trkpt lat="43.45072" lon="6.61645">
        <ele>7.83</ele>
        <time>2012-03-11T10:28:30Z</time>
      </trkpt>
      <trkpt lat="43.45075" lon="6.6167">
        <ele>9.27</ele>
        <time>2012-03-11T10:28:45Z</time>
      </trkpt>
      <trkpt lat="43.45065" lon="6.61686">
        <ele>9.75</ele>
        <time>2012-03-11T10:28:58Z</time>
      </trkpt>
      <trkpt lat="43.45055" lon="6.61704">
        <ele>9.27</ele>
        <time>2012-03-11T10:29:12Z</time>
      </trkpt>
      <trkpt lat="43.45048" lon="6.61719">
        <ele>9.27</ele>
        <time>2012-03-11T10:29:25Z</time>
      </trkpt>
      <trkpt lat="43.45038" lon="6.61741">
        <ele>8.31</ele>
        <time>2012-03-11T10:29:40Z</time>
      </trkpt>
      <trkpt lat="43.45032" lon="6.61764">
        <ele>7.35</ele>
        <time>2012-03-11T10:29:55Z</time>
      </trkpt>
      <trkpt lat="43.45031" lon="6.61767">
        <ele>8.31</ele>
        <time>2012-03-11T10:29:57Z</time>
      </trkpt>
      <trkpt lat="43.45019" lon="6.61786">
        <ele>7.35</ele>
        <time>2012-03-11T10:30:12Z</time>
      </trkpt>
      <trkpt lat="43.45005" lon="6.61802">
        <ele>7.83</ele>
        <time>2012-03-11T10:30:26Z</time>
      </trkpt>
      <trkpt lat="43.44993" lon="6.61816">
        <ele>7.35</ele>
        <time>2012-03-11T10:30:38Z</time>
      </trkpt>
      <trkpt lat="43.44975" lon="6.61832">
        <ele>7.35</ele>
        <time>2012-03-11T10:30:53Z</time>
      </trkpt>
      <trkpt lat="43.44971" lon="6.61837">
        <ele>7.35</ele>
        <time>2012-03-11T10:30:58Z</time>
      </trkpt>
      <trkpt lat="43.44968" lon="6.61838">
        <ele>7.83</ele>
        <time>2012-03-11T10:31:00Z</time>
      </trkpt>
      <trkpt lat="43.44949" lon="6.61848">
        <ele>7.83</ele>
        <time>2012-03-11T10:31:16Z</time>
      </trkpt>
      <trkpt lat="43.44933" lon="6.61854">
        <ele>6.87</ele>
        <time>2012-03-11T10:31:29Z</time>
      </trkpt>
      <trkpt lat="43.44925" lon="6.61855">
        <ele>7.83</ele>
        <time>2012-03-11T10:31:42Z</time>
      </trkpt>
      <trkpt lat="43.44915" lon="6.61857">
        <ele>7.35</ele>
        <time>2012-03-11T10:31:52Z</time>
      </trkpt>
      <trkpt lat="43.44898" lon="6.61862">
        <ele>8.31</ele>
        <time>2012-03-11T10:32:05Z</time>
      </trkpt>
      <trkpt lat="43.44891" lon="6.61884">
        <ele>7.35</ele>
        <time>2012-03-11T10:32:19Z</time>
      </trkpt>
      <trkpt lat="43.44888" lon="6.61909">
        <ele>7.35</ele>
        <time>2012-03-11T10:32:31Z</time>
      </trkpt>
      <trkpt lat="43.44878" lon="6.61924">
        <ele>8.31</ele>
        <time>2012-03-11T10:32:45Z</time>
      </trkpt>
      <trkpt lat="43.44865" lon="6.61933">
        <ele>8.79</ele>
        <time>2012-03-11T10:32:56Z</time>
      </trkpt>
      <trkpt lat="43.44856" lon="6.61954">
        <ele>9.75</ele>
        <time>2012-03-11T10:33:10Z</time>
      </trkpt>
      <trkpt lat="43.4485" lon="6.61976">
        <ele>9.75</ele>
        <time>2012-03-11T10:33:23Z</time>
      </trkpt>
      <trkpt lat="43.44845" lon="6.61984">
        <ele>9.27</ele>
        <time>2012-03-11T10:33:30Z</time>
      </trkpt>
      <trkpt lat="43.44834" lon="6.62008">
        <ele>8.79</ele>
        <time>2012-03-11T10:33:46Z</time>
      </trkpt>
      <trkpt lat="43.44829" lon="6.62017">
        <ele>8.31</ele>
        <time>2012-03-11T10:33:53Z</time>
      </trkpt>
      <trkpt lat="43.44819" lon="6.6204">
        <ele>8.31</ele>
        <time>2012-03-11T10:34:08Z</time>
      </trkpt>
      <trkpt lat="43.44813" lon="6.62056">
        <ele>8.79</ele>
        <time>2012-03-11T10:34:18Z</time>
      </trkpt>
      <trkpt lat="43.4481" lon="6.62063">
        <ele>7.83</ele>
        <time>2012-03-11T10:34:22Z</time>
      </trkpt>
      <trkpt lat="43.44805" lon="6.62076">
        <ele>8.31</ele>
        <time>2012-03-11T10:34:30Z</time>
      </trkpt>
      <trkpt lat="43.44802" lon="6.62082">
        <ele>8.79</ele>
        <time>2012-03-11T10:34:34Z</time>
      </trkpt>
      <trkpt lat="43.44798" lon="6.62092">
        <ele>8.31</ele>
        <time>2012-03-11T10:34:40Z</time>
      </trkpt>
      <trkpt lat="43.44796" lon="6.62098">
        <ele>8.31</ele>
        <time>2012-03-11T10:34:44Z</time>
      </trkpt>
      <trkpt lat="43.44783" lon="6.62122">
        <ele>8.79</ele>
        <time>2012-03-11T10:34:59Z</time>
      </trkpt>
      <trkpt lat="43.44772" lon="6.62145">
        <ele>8.31</ele>
        <time>2012-03-11T10:35:13Z</time>
      </trkpt>
      <trkpt lat="43.44762" lon="6.62168">
        <ele>8.79</ele>
        <time>2012-03-11T10:35:27Z</time>
      </trkpt>
      <trkpt lat="43.44757" lon="6.62167">
        <ele>8.31</ele>
        <time>2012-03-11T10:35:37Z</time>
      </trkpt>
      <trkpt lat="43.44743" lon="6.62156">
        <ele>8.31</ele>
        <time>2012-03-11T10:35:50Z</time>
      </trkpt>
      <trkpt lat="43.44726" lon="6.62142">
        <ele>8.79</ele>
        <time>2012-03-11T10:36:04Z</time>
      </trkpt>
      <trkpt lat="43.44718" lon="6.62134">
        <ele>8.79</ele>
        <time>2012-03-11T10:36:12Z</time>
      </trkpt>
      <trkpt lat="43.44713" lon="6.62129">
        <ele>8.31</ele>
        <time>2012-03-11T10:36:17Z</time>
      </trkpt>
      <trkpt lat="43.44711" lon="6.62125">
        <ele>7.83</ele>
        <time>2012-03-11T10:36:20Z</time>
      </trkpt>
      <trkpt lat="43.44698" lon="6.62107">
        <ele>8.79</ele>
        <time>2012-03-11T10:36:34Z</time>
      </trkpt>
      <trkpt lat="43.44687" lon="6.6209">
        <ele>8.79</ele>
        <time>2012-03-11T10:36:45Z</time>
      </trkpt>
      <trkpt lat="43.44681" lon="6.62084">
        <ele>9.27</ele>
        <time>2012-03-11T10:36:51Z</time>
      </trkpt>
      <trkpt lat="43.4467" lon="6.62074">
        <ele>8.79</ele>
        <time>2012-03-11T10:37:01Z</time>
      </trkpt>
      <trkpt lat="43.44656" lon="6.62068">
        <ele>9.27</ele>
        <time>2012-03-11T10:37:14Z</time>
      </trkpt>
      <trkpt lat="43.4464" lon="6.62064">
        <ele>9.27</ele>
        <time>2012-03-11T10:37:26Z</time>
      </trkpt>
      <trkpt lat="43.44621" lon="6.62062">
        <ele>9.27</ele>
        <time>2012-03-11T10:37:39Z</time>
      </trkpt>
      <trkpt lat="43.44614" lon="6.6206">
        <ele>9.27</ele>
        <time>2012-03-11T10:37:45Z</time>
      </trkpt>
      <trkpt lat="43.44589" lon="6.62054">
        <ele>8.79</ele>
        <time>2012-03-11T10:38:03Z</time>
      </trkpt>
      <trkpt lat="43.44585" lon="6.62053">
        <ele>8.79</ele>
        <time>2012-03-11T10:38:06Z</time>
      </trkpt>
      <trkpt lat="43.44582" lon="6.62051">
        <ele>8.79</ele>
        <time>2012-03-11T10:38:20Z</time>
      </trkpt>
      <trkpt lat="43.44579" lon="6.62052">
        <ele>9.27</ele>
        <time>2012-03-11T10:38:26Z</time>
      </trkpt>
      <trkpt lat="43.44557" lon="6.62047">
        <ele>9.27</ele>
        <time>2012-03-11T10:38:43Z</time>
      </trkpt>
      <trkpt lat="43.44535" lon="6.62042">
        <ele>9.27</ele>
        <time>2012-03-11T10:39:00Z</time>
      </trkpt>
      <trkpt lat="43.44533" lon="6.62041">
        <ele>9.27</ele>
        <time>2012-03-11T10:39:02Z</time>
      </trkpt>
      <trkpt lat="43.44527" lon="6.62037">
        <ele>9.27</ele>
        <time>2012-03-11T10:39:08Z</time>
      </trkpt>
      <trkpt lat="43.44518" lon="6.62034">
        <ele>10.23</ele>
        <time>2012-03-11T10:39:16Z</time>
      </trkpt>
      <trkpt lat="43.44499" lon="6.62027">
        <ele>9.27</ele>
        <time>2012-03-11T10:39:32Z</time>
      </trkpt>
      <trkpt lat="43.44479" lon="6.62016">
        <ele>9.27</ele>
        <time>2012-03-11T10:39:48Z</time>
      </trkpt>
      <trkpt lat="43.44459" lon="6.62016">
        <ele>9.75</ele>
        <time>2012-03-11T10:40:03Z</time>
      </trkpt>
      <trkpt lat="43.44442" lon="6.6202">
        <ele>9.75</ele>
        <time>2012-03-11T10:40:16Z</time>
      </trkpt>
      <trkpt lat="43.44424" lon="6.62022">
        <ele>9.75</ele>
        <time>2012-03-11T10:40:30Z</time>
      </trkpt>
      <trkpt lat="43.44415" lon="6.62021">
        <ele>9.75</ele>
        <time>2012-03-11T10:40:47Z</time>
      </trkpt>
      <trkpt lat="43.44407" lon="6.62021">
        <ele>8.79</ele>
        <time>2012-03-11T10:41:03Z</time>
      </trkpt>
      <trkpt lat="43.44396" lon="6.62">
        <ele>8.31</ele>
        <time>2012-03-11T10:41:17Z</time>
      </trkpt>
      <trkpt lat="43.44394" lon="6.61993">
        <ele>8.31</ele>
        <time>2012-03-11T10:41:21Z</time>
      </trkpt>
      <trkpt lat="43.44388" lon="6.61977">
        <ele>8.79</ele>
        <time>2012-03-11T10:41:30Z</time>
      </trkpt>
      <trkpt lat="43.44379" lon="6.61952">
        <ele>9.75</ele>
        <time>2012-03-11T10:41:46Z</time>
      </trkpt>
      <trkpt lat="43.44372" lon="6.61933">
        <ele>9.27</ele>
        <time>2012-03-11T10:42:00Z</time>
      </trkpt>
      <trkpt lat="43.4437" lon="6.61918">
        <ele>10.23</ele>
        <time>2012-03-11T10:42:12Z</time>
      </trkpt>
      <trkpt lat="43.4437" lon="6.61916">
        <ele>10.23</ele>
        <time>2012-03-11T10:42:30Z</time>
      </trkpt>
      <trkpt lat="43.4437" lon="6.61916">
        <ele>10.23</ele>
        <time>2012-03-11T10:42:46Z</time>
      </trkpt>
      <trkpt lat="43.4437" lon="6.61916">
        <ele>9.75</ele>
        <time>2012-03-11T10:43:15Z</time>
      </trkpt>
      <trkpt lat="43.44368" lon="6.61902">
        <ele>10.23</ele>
        <time>2012-03-11T10:43:28Z</time>
      </trkpt>
      <trkpt lat="43.44367" lon="6.61887">
        <ele>10.71</ele>
        <time>2012-03-11T10:43:38Z</time>
      </trkpt>
      <trkpt lat="43.44368" lon="6.61858">
        <ele>11.19</ele>
        <time>2012-03-11T10:43:52Z</time>
      </trkpt>
      <trkpt lat="43.44367" lon="6.61836">
        <ele>12.63</ele>
        <time>2012-03-11T10:44:05Z</time>
      </trkpt>
      <trkpt lat="43.44365" lon="6.61813">
        <ele>11.67</ele>
        <time>2012-03-11T10:44:19Z</time>
      </trkpt>
      <trkpt lat="43.44364" lon="6.61794">
        <ele>11.67</ele>
        <time>2012-03-11T10:44:30Z</time>
      </trkpt>
      <trkpt lat="43.44362" lon="6.61777">
        <ele>10.71</ele>
        <time>2012-03-11T10:44:42Z</time>
      </trkpt>
      <trkpt lat="43.44362" lon="6.61769">
        <ele>11.19</ele>
        <time>2012-03-11T10:44:46Z</time>
      </trkpt>
      <trkpt lat="43.44357" lon="6.61749">
        <ele>11.19</ele>
        <time>2012-03-11T10:44:58Z</time>
      </trkpt>
      <trkpt lat="43.44357" lon="6.61746">
        <ele>11.19</ele>
        <time>2012-03-11T10:44:59Z</time>
      </trkpt>
      <trkpt lat="43.44354" lon="6.61727">
        <ele>11.19</ele>
        <time>2012-03-11T10:45:09Z</time>
      </trkpt>
      <trkpt lat="43.44351" lon="6.61704">
        <ele>11.67</ele>
        <time>2012-03-11T10:45:23Z</time>
      </trkpt>
      <trkpt lat="43.44348" lon="6.61687">
        <ele>12.15</ele>
        <time>2012-03-11T10:45:36Z</time>
      </trkpt>
      <trkpt lat="43.44347" lon="6.61681">
        <ele>12.63</ele>
        <time>2012-03-11T10:45:41Z</time>
      </trkpt>
      <trkpt lat="43.44346" lon="6.61673">
        <ele>13.6</ele>
        <time>2012-03-11T10:45:47Z</time>
      </trkpt>
      <trkpt lat="43.44345" lon="6.61666">
        <ele>14.56</ele>
        <time>2012-03-11T10:45:53Z</time>
      </trkpt>
      <trkpt lat="43.4435" lon="6.61657">
        <ele>16</ele>
        <time>2012-03-11T10:46:05Z</time>
      </trkpt>
      <trkpt lat="43.44345" lon="6.61643">
        <ele>18.88</ele>
        <time>2012-03-11T10:46:18Z</time>
      </trkpt>
      <trkpt lat="43.44343" lon="6.61641">
        <ele>17.92</ele>
        <time>2012-03-11T10:46:20Z</time>
      </trkpt>
      <trkpt lat="43.44346" lon="6.61628">
        <ele>19.84</ele>
        <time>2012-03-11T10:46:34Z</time>
      </trkpt>
      <trkpt lat="43.44351" lon="6.6162">
        <ele>21.29</ele>
        <time>2012-03-11T10:46:49Z</time>
      </trkpt>
      <trkpt lat="43.44352" lon="6.61619">
        <ele>21.29</ele>
        <time>2012-03-11T10:47:06Z</time>
      </trkpt>
      <trkpt lat="43.44352" lon="6.61619">
        <ele>21.29</ele>
        <time>2012-03-11T10:47:27Z</time>
      </trkpt>
      <trkpt lat="43.44353" lon="6.61619">
        <ele>21.29</ele>
        <time>2012-03-11T10:47:46Z</time>
      </trkpt>
      <trkpt lat="43.44356" lon="6.61617">
        <ele>21.77</ele>
        <time>2012-03-11T10:47:59Z</time>
      </trkpt>
      <trkpt lat="43.44363" lon="6.61614">
        <ele>22.73</ele>
        <time>2012-03-11T10:48:06Z</time>
      </trkpt>
      <trkpt lat="43.4437" lon="6.61607">
        <ele>24.17</ele>
        <time>2012-03-11T10:48:15Z</time>
      </trkpt>
      <trkpt lat="43.44377" lon="6.61592">
        <ele>25.13</ele>
        <time>2012-03-11T10:48:27Z</time>
      </trkpt>
      <trkpt lat="43.44377" lon="6.6159">
        <ele>25.13</ele>
        <time>2012-03-11T10:48:28Z</time>
      </trkpt>
      <trkpt lat="43.44377" lon="6.61574">
        <ele>27.05</ele>
        <time>2012-03-11T10:48:39Z</time>
      </trkpt>
      <trkpt lat="43.44378" lon="6.61568">
        <ele>27.53</ele>
        <time>2012-03-11T10:48:45Z</time>
      </trkpt>
      <trkpt lat="43.44379" lon="6.61552">
        <ele>28.98</ele>
        <time>2012-03-11T10:48:58Z</time>
      </trkpt>
      <trkpt lat="43.44379" lon="6.61537">
        <ele>30.9</ele>
        <time>2012-03-11T10:49:09Z</time>
      </trkpt>
      <trkpt lat="43.44381" lon="6.61527">
        <ele>30.9</ele>
        <time>2012-03-11T10:49:16Z</time>
      </trkpt>
      <trkpt lat="43.44385" lon="6.61513">
        <ele>32.82</ele>
        <time>2012-03-11T10:49:29Z</time>
      </trkpt>
      <trkpt lat="43.44395" lon="6.61503">
        <ele>34.26</ele>
        <time>2012-03-11T10:49:42Z</time>
      </trkpt>
      <trkpt lat="43.44405" lon="6.61494">
        <ele>35.71</ele>
        <time>2012-03-11T10:49:56Z</time>
      </trkpt>
      <trkpt lat="43.44414" lon="6.61487">
        <ele>36.67</ele>
        <time>2012-03-11T10:50:07Z</time>
      </trkpt>
      <trkpt lat="43.44421" lon="6.61477">
        <ele>37.63</ele>
        <time>2012-03-11T10:50:17Z</time>
      </trkpt>
      <trkpt lat="43.44428" lon="6.61465">
        <ele>38.59</ele>
        <time>2012-03-11T10:50:29Z</time>
      </trkpt>
      <trkpt lat="43.44434" lon="6.61453">
        <ele>40.03</ele>
        <time>2012-03-11T10:50:41Z</time>
      </trkpt>
      <trkpt lat="43.44438" lon="6.61438">
        <ele>41.47</ele>
        <time>2012-03-11T10:50:55Z</time>
      </trkpt>
      <trkpt lat="43.44436" lon="6.6143">
        <ele>42.92</ele>
        <time>2012-03-11T10:51:03Z</time>
      </trkpt>
      <trkpt lat="43.44426" lon="6.61421">
        <ele>43.88</ele>
        <time>2012-03-11T10:51:17Z</time>
      </trkpt>
      <trkpt lat="43.44413" lon="6.61409">
        <ele>44.84</ele>
        <time>2012-03-11T10:51:31Z</time>
      </trkpt>
      <trkpt lat="43.444" lon="6.61404">
        <ele>45.32</ele>
        <time>2012-03-11T10:51:45Z</time>
      </trkpt>
      <trkpt lat="43.44386" lon="6.61401">
        <ele>46.28</ele>
        <time>2012-03-11T10:51:59Z</time>
      </trkpt>
      <trkpt lat="43.44374" lon="6.61397">
        <ele>46.76</ele>
        <time>2012-03-11T10:52:10Z</time>
      </trkpt>
      <trkpt lat="43.44372" lon="6.61394">
        <ele>47.72</ele>
        <time>2012-03-11T10:52:14Z</time>
      </trkpt>
      <trkpt lat="43.44364" lon="6.61387">
        <ele>48.68</ele>
        <time>2012-03-11T10:52:23Z</time>
      </trkpt>
      <trkpt lat="43.44356" lon="6.61378">
        <ele>49.16</ele>
        <time>2012-03-11T10:52:33Z</time>
      </trkpt>
      <trkpt lat="43.44353" lon="6.61376">
        <ele>49.16</ele>
        <time>2012-03-11T10:52:36Z</time>
      </trkpt>
      <trkpt lat="43.44352" lon="6.61373">
        <ele>49.16</ele>
        <time>2012-03-11T10:52:38Z</time>
      </trkpt>
      <trkpt lat="43.44348" lon="6.61366">
        <ele>50.61</ele>
        <time>2012-03-11T10:52:45Z</time>
      </trkpt>
      <trkpt lat="43.44348" lon="6.61355">
        <ele>50.61</ele>
        <time>2012-03-11T10:52:53Z</time>
      </trkpt>
      <trkpt lat="43.44354" lon="6.61342">
        <ele>51.57</ele>
        <time>2012-03-11T10:53:05Z</time>
      </trkpt>
      <trkpt lat="43.4436" lon="6.61332">
        <ele>52.53</ele>
        <time>2012-03-11T10:53:16Z</time>
      </trkpt>
      <trkpt lat="43.44365" lon="6.61332">
        <ele>53.97</ele>
        <time>2012-03-11T10:53:21Z</time>
      </trkpt>
      <trkpt lat="43.44375" lon="6.61341">
        <ele>55.41</ele>
        <time>2012-03-11T10:53:33Z</time>
      </trkpt>
      <trkpt lat="43.44385" lon="6.61353">
        <ele>56.86</ele>
        <time>2012-03-11T10:53:46Z</time>
      </trkpt>
      <trkpt lat="43.44393" lon="6.61357">
        <ele>57.82</ele>
        <time>2012-03-11T10:53:57Z</time>
      </trkpt>
      <trkpt lat="43.44393" lon="6.61357">
        <ele>57.34</ele>
        <time>2012-03-11T10:54:16Z</time>
      </trkpt>
      <trkpt lat="43.44393" lon="6.61357">
        <ele>57.82</ele>
        <time>2012-03-11T10:54:31Z</time>
      </trkpt>
      <trkpt lat="43.44393" lon="6.61357">
        <ele>57.34</ele>
        <time>2012-03-11T10:54:40Z</time>
      </trkpt>
      <trkpt lat="43.44395" lon="6.61354">
        <ele>57.82</ele>
        <time>2012-03-11T10:54:42Z</time>
      </trkpt>
      <trkpt lat="43.44397" lon="6.61347">
        <ele>57.34</ele>
        <time>2012-03-11T10:54:49Z</time>
      </trkpt>
      <trkpt lat="43.44401" lon="6.61335">
        <ele>58.78</ele>
        <time>2012-03-11T10:54:58Z</time>
      </trkpt>
      <trkpt lat="43.44402" lon="6.6133">
        <ele>59.74</ele>
        <time>2012-03-11T10:55:02Z</time>
      </trkpt>
      <trkpt lat="43.44399" lon="6.61315">
        <ele>60.7</ele>
        <time>2012-03-11T10:55:13Z</time>
      </trkpt>
      <trkpt lat="43.44399" lon="6.6131">
        <ele>61.18</ele>
        <time>2012-03-11T10:55:17Z</time>
      </trkpt>
      <trkpt lat="43.444" lon="6.61304">
        <ele>62.14</ele>
        <time>2012-03-11T10:55:22Z</time>
      </trkpt>
      <trkpt lat="43.4441" lon="6.6129">
        <ele>63.1</ele>
        <time>2012-03-11T10:55:35Z</time>
      </trkpt>
      <trkpt lat="43.44419" lon="6.61282">
        <ele>65.51</ele>
        <time>2012-03-11T10:55:45Z</time>
      </trkpt>
      <trkpt lat="43.44418" lon="6.61272">
        <ele>65.99</ele>
        <time>2012-03-11T10:55:53Z</time>
      </trkpt>
      <trkpt lat="43.44414" lon="6.61265">
        <ele>66.47</ele>
        <time>2012-03-11T10:55:59Z</time>
      </trkpt>
      <trkpt lat="43.44405" lon="6.61261">
        <ele>67.91</ele>
        <time>2012-03-11T10:56:12Z</time>
      </trkpt>
      <trkpt lat="43.44398" lon="6.61253">
        <ele>67.91</ele>
        <time>2012-03-11T10:56:21Z</time>
      </trkpt>
      <trkpt lat="43.44388" lon="6.6124">
        <ele>68.87</ele>
        <time>2012-03-11T10:56:35Z</time>
      </trkpt>
      <trkpt lat="43.44377" lon="6.61235">
        <ele>70.31</ele>
        <time>2012-03-11T10:56:47Z</time>
      </trkpt>
      <trkpt lat="43.44364" lon="6.61232">
        <ele>70.79</ele>
        <time>2012-03-11T10:57:01Z</time>
      </trkpt>
      <trkpt lat="43.4435" lon="6.61232">
        <ele>71.27</ele>
        <time>2012-03-11T10:57:14Z</time>
      </trkpt>
      <trkpt lat="43.44341" lon="6.61227">
        <ele>73.2</ele>
        <time>2012-03-11T10:57:26Z</time>
      </trkpt>
      <trkpt lat="43.44337" lon="6.61224">
        <ele>74.16</ele>
        <time>2012-03-11T10:57:40Z</time>
      </trkpt>
      <trkpt lat="43.44337" lon="6.61224">
        <ele>73.68</ele>
        <time>2012-03-11T10:57:43Z</time>
      </trkpt>
      <trkpt lat="43.44335" lon="6.61225">
        <ele>73.68</ele>
        <time>2012-03-11T10:57:46Z</time>
      </trkpt>
      <trkpt lat="43.44326" lon="6.61219">
        <ele>74.16</ele>
        <time>2012-03-11T10:57:58Z</time>
      </trkpt>
      <trkpt lat="43.44325" lon="6.61217">
        <ele>75.12</ele>
        <time>2012-03-11T10:58:01Z</time>
      </trkpt>
      <trkpt lat="43.44315" lon="6.61203">
        <ele>74.64</ele>
        <time>2012-03-11T10:58:14Z</time>
      </trkpt>
      <trkpt lat="43.44314" lon="6.61185">
        <ele>76.08</ele>
        <time>2012-03-11T10:58:28Z</time>
      </trkpt>
      <trkpt lat="43.44317" lon="6.61172">
        <ele>77.04</ele>
        <time>2012-03-11T10:58:40Z</time>
      </trkpt>
      <trkpt lat="43.44318" lon="6.6117">
        <ele>77.04</ele>
        <time>2012-03-11T10:58:41Z</time>
      </trkpt>
      <trkpt lat="43.44318" lon="6.61165">
        <ele>77.52</ele>
        <time>2012-03-11T10:58:44Z</time>
      </trkpt>
      <trkpt lat="43.44321" lon="6.61161">
        <ele>77.52</ele>
        <time>2012-03-11T10:58:47Z</time>
      </trkpt>
      <trkpt lat="43.44322" lon="6.61158">
        <ele>77.52</ele>
        <time>2012-03-11T10:58:49Z</time>
      </trkpt>
      <trkpt lat="43.44326" lon="6.61142">
        <ele>78</ele>
        <time>2012-03-11T10:58:59Z</time>
      </trkpt>
      <trkpt lat="43.44327" lon="6.61137">
        <ele>78</ele>
        <time>2012-03-11T10:59:03Z</time>
      </trkpt>
      <trkpt lat="43.44327" lon="6.6112">
        <ele>78.97</ele>
        <time>2012-03-11T10:59:15Z</time>
      </trkpt>
      <trkpt lat="43.44319" lon="6.611">
        <ele>79.45</ele>
        <time>2012-03-11T10:59:32Z</time>
      </trkpt>
      <trkpt lat="43.44318" lon="6.61097">
        <ele>79.93</ele>
        <time>2012-03-11T10:59:34Z</time>
      </trkpt>
      <trkpt lat="43.44314" lon="6.61092">
        <ele>79.93</ele>
        <time>2012-03-11T10:59:39Z</time>
      </trkpt>
      <trkpt lat="43.44303" lon="6.61078">
        <ele>80.41</ele>
        <time>2012-03-11T10:59:52Z</time>
      </trkpt>
      <trkpt lat="43.44298" lon="6.61069">
        <ele>81.37</ele>
        <time>2012-03-11T10:59:59Z</time>
      </trkpt>
      <trkpt lat="43.44296" lon="6.61067">
        <ele>81.85</ele>
        <time>2012-03-11T11:00:01Z</time>
      </trkpt>
      <trkpt lat="43.4429" lon="6.61052">
        <ele>82.81</ele>
        <time>2012-03-11T11:00:12Z</time>
      </trkpt>
      <trkpt lat="43.44286" lon="6.6104">
        <ele>82.81</ele>
        <time>2012-03-11T11:00:19Z</time>
      </trkpt>
      <trkpt lat="43.44279" lon="6.61022">
        <ele>84.25</ele>
        <time>2012-03-11T11:00:34Z</time>
      </trkpt>
      <trkpt lat="43.44277" lon="6.61015">
        <ele>85.21</ele>
        <time>2012-03-11T11:00:45Z</time>
      </trkpt>
      <trkpt lat="43.44272" lon="6.61004">
        <ele>85.69</ele>
        <time>2012-03-11T11:00:54Z</time>
      </trkpt>
      <trkpt lat="43.44269" lon="6.60999">
        <ele>86.18</ele>
        <time>2012-03-11T11:00:59Z</time>
      </trkpt>
      <trkpt lat="43.44263" lon="6.60976">
        <ele>88.1</ele>
        <time>2012-03-11T11:01:15Z</time>
      </trkpt>
      <trkpt lat="43.44261" lon="6.60967">
        <ele>88.1</ele>
        <time>2012-03-11T11:01:30Z</time>
      </trkpt>
      <trkpt lat="43.44261" lon="6.60967">
        <ele>82.33</ele>
        <time>2012-03-11T11:01:33Z</time>
      </trkpt>
      <trkpt lat="43.44261" lon="6.60967">
        <ele>88.1</ele>
        <time>2012-03-11T11:01:34Z</time>
      </trkpt>
      <trkpt lat="43.44259" lon="6.60963">
        <ele>87.14</ele>
        <time>2012-03-11T11:01:46Z</time>
      </trkpt>
      <trkpt lat="43.44259" lon="6.60963">
        <ele>88.1</ele>
        <time>2012-03-11T11:02:04Z</time>
      </trkpt>
      <trkpt lat="43.44259" lon="6.60962">
        <ele>87.62</ele>
        <time>2012-03-11T11:02:26Z</time>
      </trkpt>
      <trkpt lat="43.44256" lon="6.60939">
        <ele>88.1</ele>
        <time>2012-03-11T11:02:40Z</time>
      </trkpt>
      <trkpt lat="43.44251" lon="6.60919">
        <ele>88.1</ele>
        <time>2012-03-11T11:02:55Z</time>
      </trkpt>
      <trkpt lat="43.44244" lon="6.60899">
        <ele>86.66</ele>
        <time>2012-03-11T11:03:07Z</time>
      </trkpt>
      <trkpt lat="43.44232" lon="6.60877">
        <ele>85.69</ele>
        <time>2012-03-11T11:03:21Z</time>
      </trkpt>
      <trkpt lat="43.44221" lon="6.6086">
        <ele>86.18</ele>
        <time>2012-03-11T11:03:35Z</time>
      </trkpt>
      <trkpt lat="43.44209" lon="6.60855">
        <ele>85.69</ele>
        <time>2012-03-11T11:03:49Z</time>
      </trkpt>
      <trkpt lat="43.44199" lon="6.60845">
        <ele>87.14</ele>
        <time>2012-03-11T11:04:04Z</time>
      </trkpt>
      <trkpt lat="43.44188" lon="6.60835">
        <ele>86.18</ele>
        <time>2012-03-11T11:04:17Z</time>
      </trkpt>
      <trkpt lat="43.44181" lon="6.60827">
        <ele>85.69</ele>
        <time>2012-03-11T11:04:28Z</time>
      </trkpt>
      <trkpt lat="43.44177" lon="6.60821">
        <ele>86.18</ele>
        <time>2012-03-11T11:04:35Z</time>
      </trkpt>
      <trkpt lat="43.44169" lon="6.60804">
        <ele>85.21</ele>
        <time>2012-03-11T11:04:47Z</time>
      </trkpt>
      <trkpt lat="43.44168" lon="6.6079">
        <ele>85.21</ele>
        <time>2012-03-11T11:05:01Z</time>
      </trkpt>
      <trkpt lat="43.44167" lon="6.6079">
        <ele>85.21</ele>
        <time>2012-03-11T11:05:08Z</time>
      </trkpt>
      <trkpt lat="43.44168" lon="6.6079">
        <ele>85.69</ele>
        <time>2012-03-11T11:05:25Z</time>
      </trkpt>
      <trkpt lat="43.44168" lon="6.60781">
        <ele>85.21</ele>
        <time>2012-03-11T11:05:39Z</time>
      </trkpt>
      <trkpt lat="43.44169" lon="6.60767">
        <ele>85.21</ele>
        <time>2012-03-11T11:05:49Z</time>
      </trkpt>
      <trkpt lat="43.44173" lon="6.60753">
        <ele>85.21</ele>
        <time>2012-03-11T11:06:00Z</time>
      </trkpt>
      <trkpt lat="43.44173" lon="6.60745">
        <ele>85.21</ele>
        <time>2012-03-11T11:06:05Z</time>
      </trkpt>
      <trkpt lat="43.44173" lon="6.6072">
        <ele>85.21</ele>
        <time>2012-03-11T11:06:20Z</time>
      </trkpt>
      <trkpt lat="43.44175" lon="6.60705">
        <ele>85.21</ele>
        <time>2012-03-11T11:06:31Z</time>
      </trkpt>
      <trkpt lat="43.44176" lon="6.60691">
        <ele>84.73</ele>
        <time>2012-03-11T11:06:43Z</time>
      </trkpt>
      <trkpt lat="43.4418" lon="6.60677">
        <ele>84.73</ele>
        <time>2012-03-11T11:06:53Z</time>
      </trkpt>
      <trkpt lat="43.44182" lon="6.60673">
        <ele>85.69</ele>
        <time>2012-03-11T11:06:57Z</time>
      </trkpt>
      <trkpt lat="43.44186" lon="6.60657">
        <ele>85.69</ele>
        <time>2012-03-11T11:07:09Z</time>
      </trkpt>
      <trkpt lat="43.44187" lon="6.60654">
        <ele>85.21</ele>
        <time>2012-03-11T11:07:23Z</time>
      </trkpt>
      <trkpt lat="43.4419" lon="6.60646">
        <ele>84.73</ele>
        <time>2012-03-11T11:07:36Z</time>
      </trkpt>
      <trkpt lat="43.44191" lon="6.6063">
        <ele>85.21</ele>
        <time>2012-03-11T11:07:47Z</time>
      </trkpt>
      <trkpt lat="43.44193" lon="6.60621">
        <ele>86.18</ele>
        <time>2012-03-11T11:07:54Z</time>
      </trkpt>
      <trkpt lat="43.44194" lon="6.60613">
        <ele>85.69</ele>
        <time>2012-03-11T11:07:58Z</time>
      </trkpt>
      <trkpt lat="43.44197" lon="6.60598">
        <ele>86.18</ele>
        <time>2012-03-11T11:08:07Z</time>
      </trkpt>
      <trkpt lat="43.44202" lon="6.60584">
        <ele>86.18</ele>
        <time>2012-03-11T11:08:17Z</time>
      </trkpt>
      <trkpt lat="43.44202" lon="6.60577">
        <ele>86.66</ele>
        <time>2012-03-11T11:08:21Z</time>
      </trkpt>
      <trkpt lat="43.44203" lon="6.60561">
        <ele>87.62</ele>
        <time>2012-03-11T11:08:32Z</time>
      </trkpt>
      <trkpt lat="43.44204" lon="6.6055">
        <ele>87.62</ele>
        <time>2012-03-11T11:08:44Z</time>
      </trkpt>
      <trkpt lat="43.44209" lon="6.60538">
        <ele>88.58</ele>
        <time>2012-03-11T11:08:54Z</time>
      </trkpt>
      <trkpt lat="43.44209" lon="6.60536">
        <ele>89.06</ele>
        <time>2012-03-11T11:08:57Z</time>
      </trkpt>
      <trkpt lat="43.44209" lon="6.60532">
        <ele>88.58</ele>
        <time>2012-03-11T11:09:00Z</time>
      </trkpt>
      <trkpt lat="43.44212" lon="6.60519">
        <ele>89.06</ele>
        <time>2012-03-11T11:09:11Z</time>
      </trkpt>
      <trkpt lat="43.44213" lon="6.60502">
        <ele>90.5</ele>
        <time>2012-03-11T11:09:22Z</time>
      </trkpt>
      <trkpt lat="43.44212" lon="6.60484">
        <ele>91.46</ele>
        <time>2012-03-11T11:09:35Z</time>
      </trkpt>
      <trkpt lat="43.44211" lon="6.60476">
        <ele>91.94</ele>
        <time>2012-03-11T11:09:48Z</time>
      </trkpt>
      <trkpt lat="43.4421" lon="6.60472">
        <ele>92.42</ele>
        <time>2012-03-11T11:10:01Z</time>
      </trkpt>
      <trkpt lat="43.4421" lon="6.60471">
        <ele>91.94</ele>
        <time>2012-03-11T11:10:23Z</time>
      </trkpt>
      <trkpt lat="43.44209" lon="6.6047">
        <ele>91.94</ele>
        <time>2012-03-11T11:10:41Z</time>
      </trkpt>
      <trkpt lat="43.44209" lon="6.6047">
        <ele>91.94</ele>
        <time>2012-03-11T11:11:12Z</time>
      </trkpt>
      <trkpt lat="43.44209" lon="6.6047">
        <ele>91.94</ele>
        <time>2012-03-11T11:11:47Z</time>
      </trkpt>
      <trkpt lat="43.4421" lon="6.60458">
        <ele>92.42</ele>
        <time>2012-03-11T11:12:03Z</time>
      </trkpt>
      <trkpt lat="43.44208" lon="6.60441">
        <ele>93.39</ele>
        <time>2012-03-11T11:12:16Z</time>
      </trkpt>
      <trkpt lat="43.44207" lon="6.60427">
        <ele>93.87</ele>
        <time>2012-03-11T11:12:26Z</time>
      </trkpt>
      <trkpt lat="43.44207" lon="6.60427">
        <ele>94.35</ele>
        <time>2012-03-11T11:12:29Z</time>
      </trkpt>
      <trkpt lat="43.44205" lon="6.60405">
        <ele>95.79</ele>
        <time>2012-03-11T11:12:43Z</time>
      </trkpt>
      <trkpt lat="43.44209" lon="6.60396">
        <ele>97.23</ele>
        <time>2012-03-11T11:12:50Z</time>
      </trkpt>
      <trkpt lat="43.44217" lon="6.60385">
        <ele>97.23</ele>
        <time>2012-03-11T11:13:02Z</time>
      </trkpt>
      <trkpt lat="43.4422" lon="6.60378">
        <ele>97.71</ele>
        <time>2012-03-11T11:13:07Z</time>
      </trkpt>
      <trkpt lat="43.44224" lon="6.60369">
        <ele>97.71</ele>
        <time>2012-03-11T11:13:14Z</time>
      </trkpt>
      <trkpt lat="43.44229" lon="6.60359">
        <ele>98.19</ele>
        <time>2012-03-11T11:13:21Z</time>
      </trkpt>
      <trkpt lat="43.44231" lon="6.60345">
        <ele>99.15</ele>
        <time>2012-03-11T11:13:31Z</time>
      </trkpt>
      <trkpt lat="43.44234" lon="6.60333">
        <ele>99.63</ele>
        <time>2012-03-11T11:13:43Z</time>
      </trkpt>
      <trkpt lat="43.44236" lon="6.6032">
        <ele>100.6</ele>
        <time>2012-03-11T11:13:54Z</time>
      </trkpt>
      <trkpt lat="43.44235" lon="6.60307">
        <ele>101.08</ele>
        <time>2012-03-11T11:14:04Z</time>
      </trkpt>
      <trkpt lat="43.44236" lon="6.60298">
        <ele>101.08</ele>
        <time>2012-03-11T11:14:14Z</time>
      </trkpt>
      <trkpt lat="43.44236" lon="6.6028">
        <ele>101.56</ele>
        <time>2012-03-11T11:14:26Z</time>
      </trkpt>
      <trkpt lat="43.4424" lon="6.60265">
        <ele>103</ele>
        <time>2012-03-11T11:14:37Z</time>
      </trkpt>
      <trkpt lat="43.44243" lon="6.60259">
        <ele>103.96</ele>
        <time>2012-03-11T11:14:44Z</time>
      </trkpt>
      <trkpt lat="43.44246" lon="6.6025">
        <ele>105.4</ele>
        <time>2012-03-11T11:14:53Z</time>
      </trkpt>
      <trkpt lat="43.44246" lon="6.60248">
        <ele>105.88</ele>
        <time>2012-03-11T11:15:06Z</time>
      </trkpt>
      <trkpt lat="43.44246" lon="6.60248">
        <ele>105.4</ele>
        <time>2012-03-11T11:15:26Z</time>
      </trkpt>
      <trkpt lat="43.44248" lon="6.60244">
        <ele>105.4</ele>
        <time>2012-03-11T11:15:52Z</time>
      </trkpt>
      <trkpt lat="43.44248" lon="6.60241">
        <ele>105.88</ele>
        <time>2012-03-11T11:16:04Z</time>
      </trkpt>
      <trkpt lat="43.44251" lon="6.60234">
        <ele>106.36</ele>
        <time>2012-03-11T11:16:11Z</time>
      </trkpt>
      <trkpt lat="43.44251" lon="6.60228">
        <ele>106.84</ele>
        <time>2012-03-11T11:16:15Z</time>
      </trkpt>
      <trkpt lat="43.44256" lon="6.60215">
        <ele>108.77</ele>
        <time>2012-03-11T11:16:26Z</time>
      </trkpt>
      <trkpt lat="43.44259" lon="6.60196">
        <ele>110.21</ele>
        <time>2012-03-11T11:16:39Z</time>
      </trkpt>
      <trkpt lat="43.44259" lon="6.60194">
        <ele>110.21</ele>
        <time>2012-03-11T11:16:41Z</time>
      </trkpt>
      <trkpt lat="43.44261" lon="6.60191">
        <ele>110.21</ele>
        <time>2012-03-11T11:16:44Z</time>
      </trkpt>
      <trkpt lat="43.44265" lon="6.60177">
        <ele>112.13</ele>
        <time>2012-03-11T11:16:55Z</time>
      </trkpt>
      <trkpt lat="43.44272" lon="6.60165">
        <ele>113.09</ele>
        <time>2012-03-11T11:17:05Z</time>
      </trkpt>
      <trkpt lat="43.4428" lon="6.60156">
        <ele>113.09</ele>
        <time>2012-03-11T11:17:17Z</time>
      </trkpt>
      <trkpt lat="43.44283" lon="6.60154">
        <ele>114.53</ele>
        <time>2012-03-11T11:17:31Z</time>
      </trkpt>
      <trkpt lat="43.44289" lon="6.6015">
        <ele>114.05</ele>
        <time>2012-03-11T11:17:47Z</time>
      </trkpt>
      <trkpt lat="43.44292" lon="6.60147">
        <ele>115.01</ele>
        <time>2012-03-11T11:17:55Z</time>
      </trkpt>
      <trkpt lat="43.44292" lon="6.6014">
        <ele>115.5</ele>
        <time>2012-03-11T11:18:01Z</time>
      </trkpt>
      <trkpt lat="43.44291" lon="6.60125">
        <ele>114.53</ele>
        <time>2012-03-11T11:18:16Z</time>
      </trkpt>
      <trkpt lat="43.44291" lon="6.60125">
        <ele>114.53</ele>
        <time>2012-03-11T11:18:33Z</time>
      </trkpt>
      <trkpt lat="43.4429" lon="6.60124">
        <ele>114.05</ele>
        <time>2012-03-11T11:18:43Z</time>
      </trkpt>
      <trkpt lat="43.44288" lon="6.60124">
        <ele>113.09</ele>
        <time>2012-03-11T11:18:56Z</time>
      </trkpt>
      <trkpt lat="43.4429" lon="6.60123">
        <ele>114.53</ele>
        <time>2012-03-11T11:19:13Z</time>
      </trkpt>
      <trkpt lat="43.4429" lon="6.60123">
        <ele>114.53</ele>
        <time>2012-03-11T11:19:29Z</time>
      </trkpt>
      <trkpt lat="43.44292" lon="6.60127">
        <ele>115.01</ele>
        <time>2012-03-11T11:19:40Z</time>
      </trkpt>
      <trkpt lat="43.44294" lon="6.60145">
        <ele>115.5</ele>
        <time>2012-03-11T11:19:53Z</time>
      </trkpt>
      <trkpt lat="43.44297" lon="6.60145">
        <ele>115.5</ele>
        <time>2012-03-11T11:19:56Z</time>
      </trkpt>
      <trkpt lat="43.44301" lon="6.60144">
        <ele>116.46</ele>
        <time>2012-03-11T11:20:00Z</time>
      </trkpt>
      <trkpt lat="43.44303" lon="6.60143">
        <ele>116.94</ele>
        <time>2012-03-11T11:20:03Z</time>
      </trkpt>
      <trkpt lat="43.44309" lon="6.60144">
        <ele>118.38</ele>
        <time>2012-03-11T11:20:08Z</time>
      </trkpt>
      <trkpt lat="43.44319" lon="6.60143">
        <ele>120.78</ele>
        <time>2012-03-11T11:20:21Z</time>
      </trkpt>
      <trkpt lat="43.44324" lon="6.60137">
        <ele>121.74</ele>
        <time>2012-03-11T11:20:30Z</time>
      </trkpt>
      <trkpt lat="43.44332" lon="6.60131">
        <ele>121.74</ele>
        <time>2012-03-11T11:20:40Z</time>
      </trkpt>
      <trkpt lat="43.44336" lon="6.60127">
        <ele>120.3</ele>
        <time>2012-03-11T11:20:46Z</time>
      </trkpt>
      <trkpt lat="43.4435" lon="6.60115">
        <ele>119.34</ele>
        <time>2012-03-11T11:21:01Z</time>
      </trkpt>
      <trkpt lat="43.44355" lon="6.60107">
        <ele>119.34</ele>
        <time>2012-03-11T11:21:09Z</time>
      </trkpt>
      <trkpt lat="43.44357" lon="6.60105">
        <ele>115.98</ele>
        <time>2012-03-11T11:21:20Z</time>
      </trkpt>
      <trkpt lat="43.44357" lon="6.60105">
        <ele>121.26</ele>
        <time>2012-03-11T11:21:21Z</time>
      </trkpt>
      <trkpt lat="43.44357" lon="6.60105">
        <ele>120.3</ele>
        <time>2012-03-11T11:21:37Z</time>
      </trkpt>
      <trkpt lat="43.4436" lon="6.60093">
        <ele>121.74</ele>
        <time>2012-03-11T11:21:51Z</time>
      </trkpt>
      <trkpt lat="43.44367" lon="6.60083">
        <ele>122.22</ele>
        <time>2012-03-11T11:22:05Z</time>
      </trkpt>
      <trkpt lat="43.44368" lon="6.60075">
        <ele>122.71</ele>
        <time>2012-03-11T11:22:11Z</time>
      </trkpt>
      <trkpt lat="43.4437" lon="6.60059">
        <ele>123.67</ele>
        <time>2012-03-11T11:22:23Z</time>
      </trkpt>
      <trkpt lat="43.44372" lon="6.60044">
        <ele>124.63</ele>
        <time>2012-03-11T11:22:36Z</time>
      </trkpt>
      <trkpt lat="43.4437" lon="6.60026">
        <ele>126.55</ele>
        <time>2012-03-11T11:22:49Z</time>
      </trkpt>
      <trkpt lat="43.4437" lon="6.60017">
        <ele>127.51</ele>
        <time>2012-03-11T11:22:56Z</time>
      </trkpt>
      <trkpt lat="43.44376" lon="6.60007">
        <ele>128.95</ele>
        <time>2012-03-11T11:23:07Z</time>
      </trkpt>
      <trkpt lat="43.4438" lon="6.59999">
        <ele>129.92</ele>
        <time>2012-03-11T11:23:14Z</time>
      </trkpt>
      <trkpt lat="43.44385" lon="6.59991">
        <ele>132.32</ele>
        <time>2012-03-11T11:23:25Z</time>
      </trkpt>
      <trkpt lat="43.44386" lon="6.5998">
        <ele>133.76</ele>
        <time>2012-03-11T11:23:38Z</time>
      </trkpt>
      <trkpt lat="43.44386" lon="6.59978">
        <ele>133.28</ele>
        <time>2012-03-11T11:23:44Z</time>
      </trkpt>
      <trkpt lat="43.44387" lon="6.59975">
        <ele>134.72</ele>
        <time>2012-03-11T11:23:55Z</time>
      </trkpt>
      <trkpt lat="43.44387" lon="6.59974">
        <ele>134.72</ele>
        <time>2012-03-11T11:24:14Z</time>
      </trkpt>
      <trkpt lat="43.44386" lon="6.59974">
        <ele>134.24</ele>
        <time>2012-03-11T11:24:25Z</time>
      </trkpt>
      <trkpt lat="43.44386" lon="6.59974">
        <ele>134.24</ele>
        <time>2012-03-11T11:24:43Z</time>
      </trkpt>
      <trkpt lat="43.44386" lon="6.59974">
        <ele>133.76</ele>
        <time>2012-03-11T11:25:16Z</time>
      </trkpt>
      <trkpt lat="43.44386" lon="6.59974">
        <ele>134.24</ele>
        <time>2012-03-11T11:25:41Z</time>
      </trkpt>
      <trkpt lat="43.44386" lon="6.59974">
        <ele>134.72</ele>
        <time>2012-03-11T11:26:11Z</time>
      </trkpt>
      <trkpt lat="43.44386" lon="6.59974">
        <ele>134.24</ele>
        <time>2012-03-11T11:26:22Z</time>
      </trkpt>
      <trkpt lat="43.44386" lon="6.59974">
        <ele>134.72</ele>
        <time>2012-03-11T11:26:31Z</time>
      </trkpt>
      <trkpt lat="43.44386" lon="6.59974">
        <ele>134.72</ele>
        <time>2012-03-11T11:26:47Z</time>
      </trkpt>
      <trkpt lat="43.44387" lon="6.5997">
        <ele>135.2</ele>
        <time>2012-03-11T11:26:51Z</time>
      </trkpt>
      <trkpt lat="43.44395" lon="6.59965">
        <ele>136.64</ele>
        <time>2012-03-11T11:27:03Z</time>
      </trkpt>
      <trkpt lat="43.44396" lon="6.59965">
        <ele>137.13</ele>
        <time>2012-03-11T11:27:21Z</time>
      </trkpt>
      <trkpt lat="43.44396" lon="6.59965">
        <ele>137.13</ele>
        <time>2012-03-11T11:27:42Z</time>
      </trkpt>
      <trkpt lat="43.44396" lon="6.59965">
        <ele>137.13</ele>
        <time>2012-03-11T11:28:03Z</time>
      </trkpt>
      <trkpt lat="43.44397" lon="6.59963">
        <ele>137.61</ele>
        <time>2012-03-11T11:28:35Z</time>
      </trkpt>
      <trkpt lat="43.444" lon="6.59961">
        <ele>137.61</ele>
        <time>2012-03-11T11:28:39Z</time>
      </trkpt>
      <trkpt lat="43.44404" lon="6.59959">
        <ele>139.05</ele>
        <time>2012-03-11T11:28:43Z</time>
      </trkpt>
      <trkpt lat="43.4441" lon="6.59944">
        <ele>138.57</ele>
        <time>2012-03-11T11:28:55Z</time>
      </trkpt>
      <trkpt lat="43.44414" lon="6.59938">
        <ele>139.05</ele>
        <time>2012-03-11T11:29:00Z</time>
      </trkpt>
      <trkpt lat="43.44418" lon="6.59937">
        <ele>139.05</ele>
        <time>2012-03-11T11:29:10Z</time>
      </trkpt>
      <trkpt lat="43.44424" lon="6.59921">
        <ele>140.01</ele>
        <time>2012-03-11T11:29:23Z</time>
      </trkpt>
      <trkpt lat="43.44431" lon="6.59903">
        <ele>140.49</ele>
        <time>2012-03-11T11:29:35Z</time>
      </trkpt>
      <trkpt lat="43.44431" lon="6.599">
        <ele>140.49</ele>
        <time>2012-03-11T11:29:37Z</time>
      </trkpt>
      <trkpt lat="43.44437" lon="6.59891">
        <ele>140.49</ele>
        <time>2012-03-11T11:29:48Z</time>
      </trkpt>
      <trkpt lat="43.44444" lon="6.59884">
        <ele>141.45</ele>
        <time>2012-03-11T11:29:57Z</time>
      </trkpt>
      <trkpt lat="43.44449" lon="6.59867">
        <ele>141.93</ele>
        <time>2012-03-11T11:30:11Z</time>
      </trkpt>
      <trkpt lat="43.44449" lon="6.59857">
        <ele>142.89</ele>
        <time>2012-03-11T11:30:17Z</time>
      </trkpt>
      <trkpt lat="43.44459" lon="6.59844">
        <ele>143.37</ele>
        <time>2012-03-11T11:30:30Z</time>
      </trkpt>
      <trkpt lat="43.4447" lon="6.59838">
        <ele>146.26</ele>
        <time>2012-03-11T11:30:43Z</time>
      </trkpt>
      <trkpt lat="43.44473" lon="6.59838">
        <ele>146.74</ele>
        <time>2012-03-11T11:30:47Z</time>
      </trkpt>
      <trkpt lat="43.44478" lon="6.59837">
        <ele>147.22</ele>
        <time>2012-03-11T11:31:01Z</time>
      </trkpt>
      <trkpt lat="43.44489" lon="6.59835">
        <ele>148.66</ele>
        <time>2012-03-11T11:31:13Z</time>
      </trkpt>
      <trkpt lat="43.44502" lon="6.59834">
        <ele>150.1</ele>
        <time>2012-03-11T11:31:26Z</time>
      </trkpt>
      <trkpt lat="43.44509" lon="6.59833">
        <ele>150.58</ele>
        <time>2012-03-11T11:31:38Z</time>
      </trkpt>
      <trkpt lat="43.4451" lon="6.59833">
        <ele>151.06</ele>
        <time>2012-03-11T11:31:39Z</time>
      </trkpt>
      <trkpt lat="43.44512" lon="6.59831">
        <ele>151.54</ele>
        <time>2012-03-11T11:31:42Z</time>
      </trkpt>
      <trkpt lat="43.44518" lon="6.59823">
        <ele>151.54</ele>
        <time>2012-03-11T11:31:51Z</time>
      </trkpt>
      <trkpt lat="43.44525" lon="6.59818">
        <ele>152.51</ele>
        <time>2012-03-11T11:32:04Z</time>
      </trkpt>
      <trkpt lat="43.44526" lon="6.59818">
        <ele>152.03</ele>
        <time>2012-03-11T11:32:17Z</time>
      </trkpt>
      <trkpt lat="43.44527" lon="6.59816">
        <ele>152.51</ele>
        <time>2012-03-11T11:32:30Z</time>
      </trkpt>
      <trkpt lat="43.44531" lon="6.59813">
        <ele>152.51</ele>
        <time>2012-03-11T11:32:36Z</time>
      </trkpt>
      <trkpt lat="43.44534" lon="6.59813">
        <ele>153.95</ele>
        <time>2012-03-11T11:32:38Z</time>
      </trkpt>
      <trkpt lat="43.44543" lon="6.59806">
        <ele>153.95</ele>
        <time>2012-03-11T11:32:49Z</time>
      </trkpt>
      <trkpt lat="43.44546" lon="6.59806">
        <ele>153.95</ele>
        <time>2012-03-11T11:32:51Z</time>
      </trkpt>
      <trkpt lat="43.44549" lon="6.59806">
        <ele>154.43</ele>
        <time>2012-03-11T11:32:55Z</time>
      </trkpt>
      <trkpt lat="43.44561" lon="6.59812">
        <ele>157.31</ele>
        <time>2012-03-11T11:33:07Z</time>
      </trkpt>
      <trkpt lat="43.4457" lon="6.59815">
        <ele>159.72</ele>
        <time>2012-03-11T11:33:19Z</time>
      </trkpt>
      <trkpt lat="43.44581" lon="6.59821">
        <ele>161.64</ele>
        <time>2012-03-11T11:33:31Z</time>
      </trkpt>
      <trkpt lat="43.44583" lon="6.59822">
        <ele>162.12</ele>
        <time>2012-03-11T11:33:33Z</time>
      </trkpt>
      <trkpt lat="43.44592" lon="6.59827">
        <ele>163.56</ele>
        <time>2012-03-11T11:33:45Z</time>
      </trkpt>
      <trkpt lat="43.44604" lon="6.59831">
        <ele>165</ele>
        <time>2012-03-11T11:33:57Z</time>
      </trkpt>
      <trkpt lat="43.44611" lon="6.59827">
        <ele>166.45</ele>
        <time>2012-03-11T11:34:08Z</time>
      </trkpt>
      <trkpt lat="43.44611" lon="6.59827">
        <ele>165.96</ele>
        <time>2012-03-11T11:34:27Z</time>
      </trkpt>
      <trkpt lat="43.44617" lon="6.59824">
        <ele>167.41</ele>
        <time>2012-03-11T11:34:34Z</time>
      </trkpt>
      <trkpt lat="43.4463" lon="6.59819">
        <ele>168.37</ele>
        <time>2012-03-11T11:34:46Z</time>
      </trkpt>
      <trkpt lat="43.44634" lon="6.59819">
        <ele>168.85</ele>
        <time>2012-03-11T11:34:59Z</time>
      </trkpt>
      <trkpt lat="43.44634" lon="6.59819">
        <ele>168.85</ele>
        <time>2012-03-11T11:35:21Z</time>
      </trkpt>
      <trkpt lat="43.44635" lon="6.59819">
        <ele>168.85</ele>
        <time>2012-03-11T11:35:31Z</time>
      </trkpt>
      <trkpt lat="43.44648" lon="6.59811">
        <ele>166.93</ele>
        <time>2012-03-11T11:35:43Z</time>
      </trkpt>
      <trkpt lat="43.44649" lon="6.59811">
        <ele>166.45</ele>
        <time>2012-03-11T11:35:44Z</time>
      </trkpt>
      <trkpt lat="43.44664" lon="6.59796">
        <ele>166.93</ele>
        <time>2012-03-11T11:35:59Z</time>
      </trkpt>
      <trkpt lat="43.44677" lon="6.59784">
        <ele>167.41</ele>
        <time>2012-03-11T11:36:11Z</time>
      </trkpt>
      <trkpt lat="43.44685" lon="6.59779">
        <ele>168.85</ele>
        <time>2012-03-11T11:36:22Z</time>
      </trkpt>
      <trkpt lat="43.44696" lon="6.5978">
        <ele>169.81</ele>
        <time>2012-03-11T11:36:30Z</time>
      </trkpt>
      <trkpt lat="43.44708" lon="6.59792">
        <ele>170.77</ele>
        <time>2012-03-11T11:36:43Z</time>
      </trkpt>
      <trkpt lat="43.44708" lon="6.59793">
        <ele>171.73</ele>
        <time>2012-03-11T11:36:44Z</time>
      </trkpt>
      <trkpt lat="43.44712" lon="6.59809">
        <ele>172.21</ele>
        <time>2012-03-11T11:36:56Z</time>
      </trkpt>
      <trkpt lat="43.44713" lon="6.5981">
        <ele>172.21</ele>
        <time>2012-03-11T11:36:57Z</time>
      </trkpt>
      <trkpt lat="43.44721" lon="6.5982">
        <ele>172.69</ele>
        <time>2012-03-11T11:37:09Z</time>
      </trkpt>
      <trkpt lat="43.44722" lon="6.5982">
        <ele>173.17</ele>
        <time>2012-03-11T11:37:22Z</time>
      </trkpt>
      <trkpt lat="43.44722" lon="6.5982">
        <ele>173.17</ele>
        <time>2012-03-11T11:37:44Z</time>
      </trkpt>
      <trkpt lat="43.44729" lon="6.59818">
        <ele>173.17</ele>
        <time>2012-03-11T11:37:55Z</time>
      </trkpt>
      <trkpt lat="43.44737" lon="6.598">
        <ele>173.66</ele>
        <time>2012-03-11T11:38:08Z</time>
      </trkpt>
      <trkpt lat="43.44738" lon="6.59777">
        <ele>174.14</ele>
        <time>2012-03-11T11:38:22Z</time>
      </trkpt>
      <trkpt lat="43.44738" lon="6.59758">
        <ele>174.62</ele>
        <time>2012-03-11T11:38:34Z</time>
      </trkpt>
      <trkpt lat="43.44738" lon="6.59735">
        <ele>175.58</ele>
        <time>2012-03-11T11:38:47Z</time>
      </trkpt>
      <trkpt lat="43.4474" lon="6.59719">
        <ele>175.58</ele>
        <time>2012-03-11T11:38:59Z</time>
      </trkpt>
      <trkpt lat="43.44738" lon="6.59714">
        <ele>175.58</ele>
        <time>2012-03-11T11:39:10Z</time>
      </trkpt>
      <trkpt lat="43.44731" lon="6.59698">
        <ele>176.06</ele>
        <time>2012-03-11T11:39:22Z</time>
      </trkpt>
      <trkpt lat="43.44729" lon="6.59689">
        <ele>176.06</ele>
        <time>2012-03-11T11:39:28Z</time>
      </trkpt>
      <trkpt lat="43.44725" lon="6.59671">
        <ele>175.1</ele>
        <time>2012-03-11T11:39:37Z</time>
      </trkpt>
      <trkpt lat="43.44724" lon="6.59662">
        <ele>175.1</ele>
        <time>2012-03-11T11:39:42Z</time>
      </trkpt>
      <trkpt lat="43.44723" lon="6.59654">
        <ele>174.62</ele>
        <time>2012-03-11T11:39:47Z</time>
      </trkpt>
      <trkpt lat="43.44717" lon="6.59653">
        <ele>174.14</ele>
        <time>2012-03-11T11:39:55Z</time>
      </trkpt>
      <trkpt lat="43.44714" lon="6.59654">
        <ele>174.14</ele>
        <time>2012-03-11T11:39:57Z</time>
      </trkpt>
      <trkpt lat="43.44709" lon="6.59657">
        <ele>174.14</ele>
        <time>2012-03-11T11:40:10Z</time>
      </trkpt>
      <trkpt lat="43.44703" lon="6.59657">
        <ele>176.06</ele>
        <time>2012-03-11T11:40:22Z</time>
      </trkpt>
      <trkpt lat="43.44693" lon="6.59656">
        <ele>177.02</ele>
        <time>2012-03-11T11:40:32Z</time>
      </trkpt>
      <trkpt lat="43.44691" lon="6.59652">
        <ele>177.5</ele>
        <time>2012-03-11T11:40:35Z</time>
      </trkpt>
      <trkpt lat="43.44688" lon="6.59642">
        <ele>177.98</ele>
        <time>2012-03-11T11:40:43Z</time>
      </trkpt>
      <trkpt lat="43.44684" lon="6.59625">
        <ele>180.38</ele>
        <time>2012-03-11T11:40:54Z</time>
      </trkpt>
      <trkpt lat="43.44684" lon="6.59623">
        <ele>179.9</ele>
        <time>2012-03-11T11:40:55Z</time>
      </trkpt>
      <trkpt lat="43.44681" lon="6.59604">
        <ele>181.35</ele>
        <time>2012-03-11T11:41:07Z</time>
      </trkpt>
      <trkpt lat="43.44683" lon="6.59587">
        <ele>182.31</ele>
        <time>2012-03-11T11:41:20Z</time>
      </trkpt>
      <trkpt lat="43.44686" lon="6.59571">
        <ele>182.79</ele>
        <time>2012-03-11T11:41:32Z</time>
      </trkpt>
      <trkpt lat="43.44687" lon="6.5957">
        <ele>182.31</ele>
        <time>2012-03-11T11:41:33Z</time>
      </trkpt>
      <trkpt lat="43.44694" lon="6.59548">
        <ele>182.31</ele>
        <time>2012-03-11T11:41:48Z</time>
      </trkpt>
      <trkpt lat="43.44703" lon="6.59533">
        <ele>182.79</ele>
        <time>2012-03-11T11:42:00Z</time>
      </trkpt>
      <trkpt lat="43.44709" lon="6.59518">
        <ele>183.75</ele>
        <time>2012-03-11T11:42:12Z</time>
      </trkpt>
      <trkpt lat="43.44714" lon="6.59508">
        <ele>183.75</ele>
        <time>2012-03-11T11:42:22Z</time>
      </trkpt>
      <trkpt lat="43.44719" lon="6.595">
        <ele>184.23</ele>
        <time>2012-03-11T11:42:30Z</time>
      </trkpt>
      <trkpt lat="43.44725" lon="6.5949">
        <ele>184.71</ele>
        <time>2012-03-11T11:42:40Z</time>
      </trkpt>
      <trkpt lat="43.44736" lon="6.59481">
        <ele>185.67</ele>
        <time>2012-03-11T11:42:51Z</time>
      </trkpt>
      <trkpt lat="43.4475" lon="6.59473">
        <ele>186.63</ele>
        <time>2012-03-11T11:43:06Z</time>
      </trkpt>
      <trkpt lat="43.44756" lon="6.59473">
        <ele>187.11</ele>
        <time>2012-03-11T11:43:10Z</time>
      </trkpt>
      <trkpt lat="43.44768" lon="6.59471">
        <ele>187.11</ele>
        <time>2012-03-11T11:43:19Z</time>
      </trkpt>
      <trkpt lat="43.44771" lon="6.59469">
        <ele>188.08</ele>
        <time>2012-03-11T11:43:23Z</time>
      </trkpt>
      <trkpt lat="43.44782" lon="6.59459">
        <ele>188.56</ele>
        <time>2012-03-11T11:43:36Z</time>
      </trkpt>
      <trkpt lat="43.44794" lon="6.59444">
        <ele>190.48</ele>
        <time>2012-03-11T11:43:51Z</time>
      </trkpt>
      <trkpt lat="43.44802" lon="6.59434">
        <ele>190.96</ele>
        <time>2012-03-11T11:44:04Z</time>
      </trkpt>
      <trkpt lat="43.44803" lon="6.59434">
        <ele>191.44</ele>
        <time>2012-03-11T11:44:05Z</time>
      </trkpt>
      <trkpt lat="43.44813" lon="6.59433">
        <ele>191.92</ele>
        <time>2012-03-11T11:44:14Z</time>
      </trkpt>
      <trkpt lat="43.44817" lon="6.59432">
        <ele>192.4</ele>
        <time>2012-03-11T11:44:27Z</time>
      </trkpt>
      <trkpt lat="43.44817" lon="6.59432">
        <ele>192.88</ele>
        <time>2012-03-11T11:44:50Z</time>
      </trkpt>
      <trkpt lat="43.44817" lon="6.59432">
        <ele>192.4</ele>
        <time>2012-03-11T11:45:17Z</time>
      </trkpt>
      <trkpt lat="43.44817" lon="6.59432">
        <ele>192.4</ele>
        <time>2012-03-11T11:45:44Z</time>
      </trkpt>
      <trkpt lat="43.44818" lon="6.59431">
        <ele>191.92</ele>
        <time>2012-03-11T11:45:48Z</time>
      </trkpt>
      <trkpt lat="43.44819" lon="6.59424">
        <ele>191.44</ele>
        <time>2012-03-11T11:45:52Z</time>
      </trkpt>
      <trkpt lat="43.44823" lon="6.59415">
        <ele>190.96</ele>
        <time>2012-03-11T11:45:58Z</time>
      </trkpt>
      <trkpt lat="43.44828" lon="6.59412">
        <ele>190.96</ele>
        <time>2012-03-11T11:46:03Z</time>
      </trkpt>
      <trkpt lat="43.44833" lon="6.59404">
        <ele>191.92</ele>
        <time>2012-03-11T11:46:10Z</time>
      </trkpt>
      <trkpt lat="43.44841" lon="6.5939">
        <ele>192.4</ele>
        <time>2012-03-11T11:46:23Z</time>
      </trkpt>
      <trkpt lat="43.44841" lon="6.5939">
        <ele>192.4</ele>
        <time>2012-03-11T11:46:36Z</time>
      </trkpt>
      <trkpt lat="43.44855" lon="6.59386">
        <ele>192.4</ele>
        <time>2012-03-11T11:46:50Z</time>
      </trkpt>
      <trkpt lat="43.44859" lon="6.59385">
        <ele>192.4</ele>
        <time>2012-03-11T11:46:53Z</time>
      </trkpt>
      <trkpt lat="43.4487" lon="6.59375">
        <ele>191.44</ele>
        <time>2012-03-11T11:47:08Z</time>
      </trkpt>
      <trkpt lat="43.44882" lon="6.59357">
        <ele>189.52</ele>
        <time>2012-03-11T11:47:22Z</time>
      </trkpt>
      <trkpt lat="43.44884" lon="6.59354">
        <ele>189.04</ele>
        <time>2012-03-11T11:47:25Z</time>
      </trkpt>
      <trkpt lat="43.44889" lon="6.59348">
        <ele>188.56</ele>
        <time>2012-03-11T11:47:31Z</time>
      </trkpt>
      <trkpt lat="43.44898" lon="6.59338">
        <ele>189.52</ele>
        <time>2012-03-11T11:47:43Z</time>
      </trkpt>
      <trkpt lat="43.44902" lon="6.59334">
        <ele>189.04</ele>
        <time>2012-03-11T11:47:48Z</time>
      </trkpt>
      <trkpt lat="43.44905" lon="6.59328">
        <ele>189.52</ele>
        <time>2012-03-11T11:47:53Z</time>
      </trkpt>
      <trkpt lat="43.44907" lon="6.59325">
        <ele>190</ele>
        <time>2012-03-11T11:47:56Z</time>
      </trkpt>
      <trkpt lat="43.44912" lon="6.59313">
        <ele>190</ele>
        <time>2012-03-11T11:48:06Z</time>
      </trkpt>
      <trkpt lat="43.44915" lon="6.5931">
        <ele>190.96</ele>
        <time>2012-03-11T11:48:10Z</time>
      </trkpt>
      <trkpt lat="43.44918" lon="6.59309">
        <ele>190.96</ele>
        <time>2012-03-11T11:48:23Z</time>
      </trkpt>
      <trkpt lat="43.44918" lon="6.59309">
        <ele>190.96</ele>
        <time>2012-03-11T11:48:38Z</time>
      </trkpt>
      <trkpt lat="43.44926" lon="6.5931">
        <ele>192.4</ele>
        <time>2012-03-11T11:48:50Z</time>
      </trkpt>
      <trkpt lat="43.44927" lon="6.5931">
        <ele>192.4</ele>
        <time>2012-03-11T11:48:51Z</time>
      </trkpt>
      <trkpt lat="43.44939" lon="6.59307">
        <ele>193.84</ele>
        <time>2012-03-11T11:49:03Z</time>
      </trkpt>
      <trkpt lat="43.44943" lon="6.59309">
        <ele>194.8</ele>
        <time>2012-03-11T11:49:11Z</time>
      </trkpt>
      <trkpt lat="43.44944" lon="6.59305">
        <ele>194.8</ele>
        <time>2012-03-11T11:49:14Z</time>
      </trkpt>
      <trkpt lat="43.44945" lon="6.59302">
        <ele>194.8</ele>
        <time>2012-03-11T11:49:16Z</time>
      </trkpt>
      <trkpt lat="43.44946" lon="6.59296">
        <ele>194.8</ele>
        <time>2012-03-11T11:49:20Z</time>
      </trkpt>
      <trkpt lat="43.44947" lon="6.5929">
        <ele>195.28</ele>
        <time>2012-03-11T11:49:24Z</time>
      </trkpt>
      <trkpt lat="43.44949" lon="6.59285">
        <ele>195.77</ele>
        <time>2012-03-11T11:49:28Z</time>
      </trkpt>
      <trkpt lat="43.44952" lon="6.5928">
        <ele>196.73</ele>
        <time>2012-03-11T11:49:33Z</time>
      </trkpt>
      <trkpt lat="43.44952" lon="6.59264">
        <ele>198.17</ele>
        <time>2012-03-11T11:49:44Z</time>
      </trkpt>
      <trkpt lat="43.44952" lon="6.59262">
        <ele>198.17</ele>
        <time>2012-03-11T11:49:45Z</time>
      </trkpt>
      <trkpt lat="43.44956" lon="6.59251">
        <ele>198.17</ele>
        <time>2012-03-11T11:49:54Z</time>
      </trkpt>
      <trkpt lat="43.44959" lon="6.59234">
        <ele>199.13</ele>
        <time>2012-03-11T11:50:06Z</time>
      </trkpt>
      <trkpt lat="43.44959" lon="6.59233">
        <ele>199.13</ele>
        <time>2012-03-11T11:50:07Z</time>
      </trkpt>
      <trkpt lat="43.44953" lon="6.59221">
        <ele>200.57</ele>
        <time>2012-03-11T11:50:18Z</time>
      </trkpt>
      <trkpt lat="43.44953" lon="6.59221">
        <ele>200.57</ele>
        <time>2012-03-11T11:50:34Z</time>
      </trkpt>
      <trkpt lat="43.44953" lon="6.5922">
        <ele>200.57</ele>
        <time>2012-03-11T11:50:36Z</time>
      </trkpt>
      <trkpt lat="43.44949" lon="6.59217">
        <ele>200.09</ele>
        <time>2012-03-11T11:50:40Z</time>
      </trkpt>
      <trkpt lat="43.44946" lon="6.59212">
        <ele>200.57</ele>
        <time>2012-03-11T11:50:44Z</time>
      </trkpt>
      <trkpt lat="43.44944" lon="6.59204">
        <ele>200.09</ele>
        <time>2012-03-11T11:50:57Z</time>
      </trkpt>
      <trkpt lat="43.44945" lon="6.59205">
        <ele>200.57</ele>
        <time>2012-03-11T11:51:14Z</time>
      </trkpt>
      <trkpt lat="43.44945" lon="6.5921">
        <ele>201.53</ele>
        <time>2012-03-11T11:51:31Z</time>
      </trkpt>
      <trkpt lat="43.44951" lon="6.59222">
        <ele>201.05</ele>
        <time>2012-03-11T11:51:41Z</time>
      </trkpt>
      <trkpt lat="43.44951" lon="6.59222">
        <ele>200.09</ele>
        <time>2012-03-11T11:52:06Z</time>
      </trkpt>
      <trkpt lat="43.44953" lon="6.59223">
        <ele>200.57</ele>
        <time>2012-03-11T11:52:09Z</time>
      </trkpt>
      <trkpt lat="43.44954" lon="6.59226">
        <ele>201.05</ele>
        <time>2012-03-11T11:52:11Z</time>
      </trkpt>
      <trkpt lat="43.44959" lon="6.59229">
        <ele>200.09</ele>
        <time>2012-03-11T11:52:16Z</time>
      </trkpt>
      <trkpt lat="43.44965" lon="6.59228">
        <ele>201.53</ele>
        <time>2012-03-11T11:52:28Z</time>
      </trkpt>
      <trkpt lat="43.4497" lon="6.59228">
        <ele>202.98</ele>
        <time>2012-03-11T11:52:40Z</time>
      </trkpt>
      <trkpt lat="43.4497" lon="6.59228">
        <ele>202.98</ele>
        <time>2012-03-11T11:52:41Z</time>
      </trkpt>
      <trkpt lat="43.44972" lon="6.59233">
        <ele>205.38</ele>
        <time>2012-03-11T11:52:50Z</time>
      </trkpt>
      <trkpt lat="43.44974" lon="6.59237">
        <ele>206.82</ele>
        <time>2012-03-11T11:53:00Z</time>
      </trkpt>
      <trkpt lat="43.44974" lon="6.59235">
        <ele>207.3</ele>
        <time>2012-03-11T11:53:02Z</time>
      </trkpt>
      <trkpt lat="43.44975" lon="6.59229">
        <ele>209.22</ele>
        <time>2012-03-11T11:53:10Z</time>
      </trkpt>
      <trkpt lat="43.44975" lon="6.59229">
        <ele>207.78</ele>
        <time>2012-03-11T11:53:23Z</time>
      </trkpt>
      <trkpt lat="43.44976" lon="6.59227">
        <ele>205.86</ele>
        <time>2012-03-11T11:53:37Z</time>
      </trkpt>
      <trkpt lat="43.44976" lon="6.59227">
        <ele>206.34</ele>
        <time>2012-03-11T11:53:47Z</time>
      </trkpt>
      <trkpt lat="43.44976" lon="6.59227">
        <ele>206.34</ele>
        <time>2012-03-11T11:54:06Z</time>
      </trkpt>
      <trkpt lat="43.44976" lon="6.59227">
        <ele>204.9</ele>
        <time>2012-03-11T11:54:25Z</time>
      </trkpt>
      <trkpt lat="43.44976" lon="6.59223">
        <ele>204.9</ele>
        <time>2012-03-11T11:54:36Z</time>
      </trkpt>
      <trkpt lat="43.44976" lon="6.59223">
        <ele>203.94</ele>
        <time>2012-03-11T11:54:47Z</time>
      </trkpt>
      <trkpt lat="43.44979" lon="6.5922">
        <ele>202.98</ele>
        <time>2012-03-11T11:55:05Z</time>
      </trkpt>
      <trkpt lat="43.44976" lon="6.59214">
        <ele>202.01</ele>
        <time>2012-03-11T11:55:13Z</time>
      </trkpt>
      <trkpt lat="43.44976" lon="6.59214">
        <ele>200.57</ele>
        <time>2012-03-11T11:55:19Z</time>
      </trkpt>
      <trkpt lat="43.44975" lon="6.59215">
        <ele>200.09</ele>
        <time>2012-03-11T11:55:37Z</time>
      </trkpt>
      <trkpt lat="43.44967" lon="6.59216">
        <ele>201.05</ele>
        <time>2012-03-11T11:55:46Z</time>
      </trkpt>
      <trkpt lat="43.44962" lon="6.59217">
        <ele>201.05</ele>
        <time>2012-03-11T11:55:50Z</time>
      </trkpt>
      <trkpt lat="43.44954" lon="6.59222">
        <ele>201.53</ele>
        <time>2012-03-11T11:56:01Z</time>
      </trkpt>
      <trkpt lat="43.44954" lon="6.59222">
        <ele>201.53</ele>
        <time>2012-03-11T11:56:12Z</time>
      </trkpt>
      <trkpt lat="43.44947" lon="6.59215">
        <ele>202.01</ele>
        <time>2012-03-11T11:56:18Z</time>
      </trkpt>
      <trkpt lat="43.44946" lon="6.59212">
        <ele>202.01</ele>
        <time>2012-03-11T11:56:20Z</time>
      </trkpt>
      <trkpt lat="43.44943" lon="6.59206">
        <ele>202.01</ele>
        <time>2012-03-11T11:56:31Z</time>
      </trkpt>
      <trkpt lat="43.44945" lon="6.59205">
        <ele>201.05</ele>
        <time>2012-03-11T11:56:41Z</time>
      </trkpt>
      <trkpt lat="43.44945" lon="6.59205">
        <ele>200.57</ele>
        <time>2012-03-11T11:56:54Z</time>
      </trkpt>
      <trkpt lat="43.44944" lon="6.5921">
        <ele>201.53</ele>
        <time>2012-03-11T11:57:13Z</time>
      </trkpt>
      <trkpt lat="43.44944" lon="6.5921">
        <ele>201.53</ele>
        <time>2012-03-11T11:57:35Z</time>
      </trkpt>
      <trkpt lat="43.44944" lon="6.5921">
        <ele>202.01</ele>
        <time>2012-03-11T11:58:09Z</time>
      </trkpt>
      <trkpt lat="43.44944" lon="6.5921">
        <ele>202.01</ele>
        <time>2012-03-11T11:58:42Z</time>
      </trkpt>
      <trkpt lat="43.44944" lon="6.5921">
        <ele>202.01</ele>
        <time>2012-03-11T11:59:10Z</time>
      </trkpt>
      <trkpt lat="43.44943" lon="6.5921">
        <ele>201.05</ele>
        <time>2012-03-11T11:59:46Z</time>
      </trkpt>
      <trkpt lat="43.44943" lon="6.5921">
        <ele>201.53</ele>
        <time>2012-03-11T12:00:17Z</time>
      </trkpt>
      <trkpt lat="43.44943" lon="6.59211">
        <ele>201.53</ele>
        <time>2012-03-11T12:00:44Z</time>
      </trkpt>
      <trkpt lat="43.44943" lon="6.59211">
        <ele>201.53</ele>
        <time>2012-03-11T12:01:23Z</time>
      </trkpt>
      <trkpt lat="43.44943" lon="6.59211">
        <ele>201.05</ele>
        <time>2012-03-11T12:01:52Z</time>
      </trkpt>
      <trkpt lat="43.44943" lon="6.5921">
        <ele>202.01</ele>
        <time>2012-03-11T12:02:21Z</time>
      </trkpt>
      <trkpt lat="43.44943" lon="6.59211">
        <ele>202.01</ele>
        <time>2012-03-11T12:02:51Z</time>
      </trkpt>
      <trkpt lat="43.44943" lon="6.5921">
        <ele>202.01</ele>
        <time>2012-03-11T12:03:21Z</time>
      </trkpt>
      <trkpt lat="43.44943" lon="6.5921">
        <ele>202.01</ele>
        <time>2012-03-11T12:03:53Z</time>
      </trkpt>
      <trkpt lat="43.44943" lon="6.5921">
        <ele>202.01</ele>
        <time>2012-03-11T12:04:23Z</time>
      </trkpt>
      <trkpt lat="43.44943" lon="6.5921">
        <ele>202.49</ele>
        <time>2012-03-11T12:04:52Z</time>
      </trkpt>
      <trkpt lat="43.44943" lon="6.5921">
        <ele>201.53</ele>
        <time>2012-03-11T12:05:22Z</time>
      </trkpt>
      <trkpt lat="43.44943" lon="6.5921">
        <ele>202.01</ele>
        <time>2012-03-11T12:05:55Z</time>
      </trkpt>
      <trkpt lat="43.44943" lon="6.5921">
        <ele>202.01</ele>
        <time>2012-03-11T12:06:27Z</time>
      </trkpt>
      <trkpt lat="43.44943" lon="6.5921">
        <ele>201.53</ele>
        <time>2012-03-11T12:06:58Z</time>
      </trkpt>
      <trkpt lat="43.44943" lon="6.5921">
        <ele>202.01</ele>
        <time>2012-03-11T12:07:33Z</time>
      </trkpt>
      <trkpt lat="43.44943" lon="6.5921">
        <ele>202.01</ele>
        <time>2012-03-11T12:08:06Z</time>
      </trkpt>
      <trkpt lat="43.44942" lon="6.5921">
        <ele>202.01</ele>
        <time>2012-03-11T12:08:45Z</time>
      </trkpt>
      <trkpt lat="43.44942" lon="6.5921">
        <ele>201.53</ele>
        <time>2012-03-11T12:09:22Z</time>
      </trkpt>
      <trkpt lat="43.44942" lon="6.5921">
        <ele>201.53</ele>
        <time>2012-03-11T12:10:00Z</time>
      </trkpt>
      <trkpt lat="43.44942" lon="6.5921">
        <ele>201.53</ele>
        <time>2012-03-11T12:10:37Z</time>
      </trkpt>
      <trkpt lat="43.44942" lon="6.5921">
        <ele>202.01</ele>
        <time>2012-03-11T12:11:12Z</time>
      </trkpt>
      <trkpt lat="43.44942" lon="6.5921">
        <ele>202.49</ele>
        <time>2012-03-11T12:11:46Z</time>
      </trkpt>
      <trkpt lat="43.44942" lon="6.5921">
        <ele>202.01</ele>
        <time>2012-03-11T12:12:16Z</time>
      </trkpt>
      <trkpt lat="43.44942" lon="6.5921">
        <ele>202.49</ele>
        <time>2012-03-11T12:12:46Z</time>
      </trkpt>
      <trkpt lat="43.44943" lon="6.5921">
        <ele>202.01</ele>
        <time>2012-03-11T12:13:21Z</time>
      </trkpt>
      <trkpt lat="43.44943" lon="6.5921">
        <ele>202.49</ele>
        <time>2012-03-11T12:13:56Z</time>
      </trkpt>
      <trkpt lat="43.44943" lon="6.5921">
        <ele>202.01</ele>
        <time>2012-03-11T12:14:24Z</time>
      </trkpt>
      <trkpt lat="43.44943" lon="6.5921">
        <ele>202.01</ele>
        <time>2012-03-11T12:15:00Z</time>
      </trkpt>
      <trkpt lat="43.44943" lon="6.5921">
        <ele>202.01</ele>
        <time>2012-03-11T12:15:33Z</time>
      </trkpt>
      <trkpt lat="43.44943" lon="6.5921">
        <ele>201.53</ele>
        <time>2012-03-11T12:16:07Z</time>
      </trkpt>
      <trkpt lat="43.44943" lon="6.5921">
        <ele>201.53</ele>
        <time>2012-03-11T12:16:43Z</time>
      </trkpt>
      <trkpt lat="43.44943" lon="6.5921">
        <ele>202.49</ele>
        <time>2012-03-11T12:17:01Z</time>
      </trkpt>
      <trkpt lat="43.44943" lon="6.5921">
        <ele>202.49</ele>
        <time>2012-03-11T12:17:12Z</time>
      </trkpt>
      <trkpt lat="43.44943" lon="6.5921">
        <ele>202.49</ele>
        <time>2012-03-11T12:17:36Z</time>
      </trkpt>
      <trkpt lat="43.44944" lon="6.5921">
        <ele>202.98</ele>
        <time>2012-03-11T12:17:59Z</time>
      </trkpt>
      <trkpt lat="43.44947" lon="6.59215">
        <ele>202.98</ele>
        <time>2012-03-11T12:18:05Z</time>
      </trkpt>
      <trkpt lat="43.4495" lon="6.59221">
        <ele>202.01</ele>
        <time>2012-03-11T12:18:11Z</time>
      </trkpt>
      <trkpt lat="43.44952" lon="6.59223">
        <ele>202.01</ele>
        <time>2012-03-11T12:18:13Z</time>
      </trkpt>
      <trkpt lat="43.44954" lon="6.59225">
        <ele>202.01</ele>
        <time>2012-03-11T12:18:16Z</time>
      </trkpt>
      <trkpt lat="43.44956" lon="6.59227">
        <ele>202.49</ele>
        <time>2012-03-11T12:18:18Z</time>
      </trkpt>
      <trkpt lat="43.44958" lon="6.59233">
        <ele>202.49</ele>
        <time>2012-03-11T12:18:24Z</time>
      </trkpt>
      <trkpt lat="43.44958" lon="6.59239">
        <ele>202.01</ele>
        <time>2012-03-11T12:18:28Z</time>
      </trkpt>
      <trkpt lat="43.44956" lon="6.59256">
        <ele>200.09</ele>
        <time>2012-03-11T12:18:40Z</time>
      </trkpt>
      <trkpt lat="43.44955" lon="6.59258">
        <ele>197.21</ele>
        <time>2012-03-11T12:18:42Z</time>
      </trkpt>
      <trkpt lat="43.44955" lon="6.59259">
        <ele>200.57</ele>
        <time>2012-03-11T12:18:43Z</time>
      </trkpt>
      <trkpt lat="43.44953" lon="6.59279">
        <ele>199.61</ele>
        <time>2012-03-11T12:18:57Z</time>
      </trkpt>
      <trkpt lat="43.44952" lon="6.59284">
        <ele>199.13</ele>
        <time>2012-03-11T12:19:01Z</time>
      </trkpt>
      <trkpt lat="43.4495" lon="6.59288">
        <ele>197.69</ele>
        <time>2012-03-11T12:19:05Z</time>
      </trkpt>
      <trkpt lat="43.44949" lon="6.59293">
        <ele>197.21</ele>
        <time>2012-03-11T12:19:09Z</time>
      </trkpt>
      <trkpt lat="43.44954" lon="6.59314">
        <ele>198.65</ele>
        <time>2012-03-11T12:19:23Z</time>
      </trkpt>
      <trkpt lat="43.44963" lon="6.59328">
        <ele>200.09</ele>
        <time>2012-03-11T12:19:36Z</time>
      </trkpt>
      <trkpt lat="43.4497" lon="6.59332">
        <ele>202.01</ele>
        <time>2012-03-11T12:19:48Z</time>
      </trkpt>
      <trkpt lat="43.44976" lon="6.59325">
        <ele>204.42</ele>
        <time>2012-03-11T12:20:02Z</time>
      </trkpt>
      <trkpt lat="43.44978" lon="6.59323">
        <ele>203.94</ele>
        <time>2012-03-11T12:20:16Z</time>
      </trkpt>
      <trkpt lat="43.4498" lon="6.59321">
        <ele>203.94</ele>
        <time>2012-03-11T12:20:18Z</time>
      </trkpt>
      <trkpt lat="43.44986" lon="6.5932">
        <ele>205.86</ele>
        <time>2012-03-11T12:20:30Z</time>
      </trkpt>
      <trkpt lat="43.44989" lon="6.59325">
        <ele>205.86</ele>
        <time>2012-03-11T12:20:35Z</time>
      </trkpt>
      <trkpt lat="43.44988" lon="6.59327">
        <ele>205.86</ele>
        <time>2012-03-11T12:20:37Z</time>
      </trkpt>
      <trkpt lat="43.44991" lon="6.59342">
        <ele>206.82</ele>
        <time>2012-03-11T12:20:50Z</time>
      </trkpt>
      <trkpt lat="43.44993" lon="6.59342">
        <ele>207.3</ele>
        <time>2012-03-11T12:21:06Z</time>
      </trkpt>
      <trkpt lat="43.45" lon="6.59347">
        <ele>208.74</ele>
        <time>2012-03-11T12:21:15Z</time>
      </trkpt>
      <trkpt lat="43.45004" lon="6.59358">
        <ele>210.67</ele>
        <time>2012-03-11T12:21:28Z</time>
      </trkpt>
      <trkpt lat="43.45007" lon="6.59359">
        <ele>211.63</ele>
        <time>2012-03-11T12:21:37Z</time>
      </trkpt>
      <trkpt lat="43.45015" lon="6.59358">
        <ele>213.55</ele>
        <time>2012-03-11T12:21:48Z</time>
      </trkpt>
      <trkpt lat="43.45022" lon="6.59356">
        <ele>215.47</ele>
        <time>2012-03-11T12:21:58Z</time>
      </trkpt>
      <trkpt lat="43.45031" lon="6.59342">
        <ele>217.88</ele>
        <time>2012-03-11T12:22:11Z</time>
      </trkpt>
      <trkpt lat="43.45036" lon="6.59332">
        <ele>220.76</ele>
        <time>2012-03-11T12:22:22Z</time>
      </trkpt>
      <trkpt lat="43.45039" lon="6.59317">
        <ele>222.2</ele>
        <time>2012-03-11T12:22:34Z</time>
      </trkpt>
      <trkpt lat="43.45041" lon="6.59314">
        <ele>222.2</ele>
        <time>2012-03-11T12:22:50Z</time>
      </trkpt>
      <trkpt lat="43.45041" lon="6.59314">
        <ele>222.2</ele>
        <time>2012-03-11T12:23:07Z</time>
      </trkpt>
      <trkpt lat="43.45041" lon="6.59314">
        <ele>222.2</ele>
        <time>2012-03-11T12:23:27Z</time>
      </trkpt>
      <trkpt lat="43.4504" lon="6.59313">
        <ele>222.2</ele>
        <time>2012-03-11T12:23:46Z</time>
      </trkpt>
      <trkpt lat="43.4504" lon="6.59311">
        <ele>222.2</ele>
        <time>2012-03-11T12:24:01Z</time>
      </trkpt>
      <trkpt lat="43.45039" lon="6.59316">
        <ele>222.68</ele>
        <time>2012-03-11T12:24:17Z</time>
      </trkpt>
      <trkpt lat="43.45039" lon="6.5932">
        <ele>222.68</ele>
        <time>2012-03-11T12:24:20Z</time>
      </trkpt>
      <trkpt lat="43.45037" lon="6.59328">
        <ele>222.2</ele>
        <time>2012-03-11T12:24:33Z</time>
      </trkpt>
      <trkpt lat="43.45043" lon="6.59333">
        <ele>221.72</ele>
        <time>2012-03-11T12:24:44Z</time>
      </trkpt>
      <trkpt lat="43.45049" lon="6.59346">
        <ele>220.76</ele>
        <time>2012-03-11T12:24:53Z</time>
      </trkpt>
      <trkpt lat="43.45052" lon="6.59349">
        <ele>221.24</ele>
        <time>2012-03-11T12:24:57Z</time>
      </trkpt>
      <trkpt lat="43.45053" lon="6.59357">
        <ele>222.68</ele>
        <time>2012-03-11T12:25:09Z</time>
      </trkpt>
      <trkpt lat="43.45054" lon="6.59359">
        <ele>222.68</ele>
        <time>2012-03-11T12:25:16Z</time>
      </trkpt>
      <trkpt lat="43.45064" lon="6.5936">
        <ele>223.64</ele>
        <time>2012-03-11T12:25:27Z</time>
      </trkpt>
      <trkpt lat="43.45065" lon="6.5936">
        <ele>223.64</ele>
        <time>2012-03-11T12:25:28Z</time>
      </trkpt>
      <trkpt lat="43.45074" lon="6.59359">
        <ele>224.61</ele>
        <time>2012-03-11T12:25:36Z</time>
      </trkpt>
      <trkpt lat="43.45076" lon="6.5936">
        <ele>224.61</ele>
        <time>2012-03-11T12:25:38Z</time>
      </trkpt>
      <trkpt lat="43.45091" lon="6.5936">
        <ele>224.12</ele>
        <time>2012-03-11T12:25:52Z</time>
      </trkpt>
      <trkpt lat="43.45099" lon="6.59362">
        <ele>223.16</ele>
        <time>2012-03-11T12:25:59Z</time>
      </trkpt>
      <trkpt lat="43.45113" lon="6.59366">
        <ele>222.68</ele>
        <time>2012-03-11T12:26:12Z</time>
      </trkpt>
      <trkpt lat="43.45121" lon="6.59374">
        <ele>222.68</ele>
        <time>2012-03-11T12:26:23Z</time>
      </trkpt>
      <trkpt lat="43.45123" lon="6.59377">
        <ele>223.64</ele>
        <time>2012-03-11T12:26:27Z</time>
      </trkpt>
      <trkpt lat="43.45135" lon="6.59379">
        <ele>223.16</ele>
        <time>2012-03-11T12:26:39Z</time>
      </trkpt>
      <trkpt lat="43.45147" lon="6.59376">
        <ele>221.72</ele>
        <time>2012-03-11T12:26:53Z</time>
      </trkpt>
      <trkpt lat="43.45148" lon="6.59376">
        <ele>220.76</ele>
        <time>2012-03-11T12:27:14Z</time>
      </trkpt>
      <trkpt lat="43.45155" lon="6.59373">
        <ele>219.8</ele>
        <time>2012-03-11T12:27:32Z</time>
      </trkpt>
      <trkpt lat="43.45157" lon="6.59372">
        <ele>219.8</ele>
        <time>2012-03-11T12:27:54Z</time>
      </trkpt>
      <trkpt lat="43.45164" lon="6.59372">
        <ele>219.32</ele>
        <time>2012-03-11T12:28:01Z</time>
      </trkpt>
      <trkpt lat="43.45171" lon="6.59373">
        <ele>219.32</ele>
        <time>2012-03-11T12:28:07Z</time>
      </trkpt>
      <trkpt lat="43.45181" lon="6.59376">
        <ele>219.8</ele>
        <time>2012-03-11T12:28:17Z</time>
      </trkpt>
      <trkpt lat="43.45195" lon="6.5938">
        <ele>220.28</ele>
        <time>2012-03-11T12:28:30Z</time>
      </trkpt>
      <trkpt lat="43.45205" lon="6.59388">
        <ele>221.24</ele>
        <time>2012-03-11T12:28:42Z</time>
      </trkpt>
      <trkpt lat="43.45207" lon="6.59389">
        <ele>221.24</ele>
        <time>2012-03-11T12:28:44Z</time>
      </trkpt>
      <trkpt lat="43.45213" lon="6.59393">
        <ele>222.2</ele>
        <time>2012-03-11T12:28:54Z</time>
      </trkpt>
      <trkpt lat="43.45225" lon="6.59401">
        <ele>220.76</ele>
        <time>2012-03-11T12:29:06Z</time>
      </trkpt>
      <trkpt lat="43.45238" lon="6.59401">
        <ele>220.28</ele>
        <time>2012-03-11T12:29:19Z</time>
      </trkpt>
      <trkpt lat="43.45249" lon="6.59401">
        <ele>220.76</ele>
        <time>2012-03-11T12:29:30Z</time>
      </trkpt>
      <trkpt lat="43.4525" lon="6.59401">
        <ele>220.28</ele>
        <time>2012-03-11T12:29:33Z</time>
      </trkpt>
      <trkpt lat="43.45259" lon="6.594">
        <ele>219.32</ele>
        <time>2012-03-11T12:29:39Z</time>
      </trkpt>
      <trkpt lat="43.4527" lon="6.59406">
        <ele>219.32</ele>
        <time>2012-03-11T12:29:53Z</time>
      </trkpt>
      <trkpt lat="43.45287" lon="6.59419">
        <ele>218.84</ele>
        <time>2012-03-11T12:30:08Z</time>
      </trkpt>
      <trkpt lat="43.453" lon="6.59423">
        <ele>218.36</ele>
        <time>2012-03-11T12:30:21Z</time>
      </trkpt>
      <trkpt lat="43.45305" lon="6.59424">
        <ele>216.91</ele>
        <time>2012-03-11T12:30:39Z</time>
      </trkpt>
      <trkpt lat="43.45324" lon="6.59422">
        <ele>216.43</ele>
        <time>2012-03-11T12:30:51Z</time>
      </trkpt>
      <trkpt lat="43.45332" lon="6.59421">
        <ele>216.91</ele>
        <time>2012-03-11T12:31:04Z</time>
      </trkpt>
      <trkpt lat="43.45342" lon="6.59419">
        <ele>216.91</ele>
        <time>2012-03-11T12:31:18Z</time>
      </trkpt>
      <trkpt lat="43.45353" lon="6.59413">
        <ele>218.84</ele>
        <time>2012-03-11T12:31:29Z</time>
      </trkpt>
      <trkpt lat="43.45355" lon="6.59413">
        <ele>218.84</ele>
        <time>2012-03-11T12:31:42Z</time>
      </trkpt>
      <trkpt lat="43.45357" lon="6.59415">
        <ele>218.36</ele>
        <time>2012-03-11T12:31:52Z</time>
      </trkpt>
      <trkpt lat="43.4536" lon="6.59417">
        <ele>218.84</ele>
        <time>2012-03-11T12:32:04Z</time>
      </trkpt>
      <trkpt lat="43.4536" lon="6.59417">
        <ele>218.36</ele>
        <time>2012-03-11T12:32:26Z</time>
      </trkpt>
      <trkpt lat="43.4536" lon="6.59417">
        <ele>218.36</ele>
        <time>2012-03-11T12:32:49Z</time>
      </trkpt>
      <trkpt lat="43.45361" lon="6.59418">
        <ele>217.4</ele>
        <time>2012-03-11T12:33:17Z</time>
      </trkpt>
      <trkpt lat="43.45365" lon="6.59426">
        <ele>216.91</ele>
        <time>2012-03-11T12:33:24Z</time>
      </trkpt>
      <trkpt lat="43.4537" lon="6.59432">
        <ele>216.91</ele>
        <time>2012-03-11T12:33:30Z</time>
      </trkpt>
      <trkpt lat="43.45381" lon="6.59443">
        <ele>214.51</ele>
        <time>2012-03-11T12:33:43Z</time>
      </trkpt>
      <trkpt lat="43.45393" lon="6.59453">
        <ele>213.55</ele>
        <time>2012-03-11T12:33:57Z</time>
      </trkpt>
      <trkpt lat="43.45395" lon="6.59453">
        <ele>214.03</ele>
        <time>2012-03-11T12:34:16Z</time>
      </trkpt>
      <trkpt lat="43.45397" lon="6.59453">
        <ele>214.51</ele>
        <time>2012-03-11T12:34:18Z</time>
      </trkpt>
      <trkpt lat="43.45404" lon="6.59462">
        <ele>215.95</ele>
        <time>2012-03-11T12:34:31Z</time>
      </trkpt>
      <trkpt lat="43.45404" lon="6.59462">
        <ele>215.47</ele>
        <time>2012-03-11T12:34:46Z</time>
      </trkpt>
      <trkpt lat="43.45406" lon="6.59463">
        <ele>214.99</ele>
        <time>2012-03-11T12:34:50Z</time>
      </trkpt>
      <trkpt lat="43.45412" lon="6.5947">
        <ele>213.55</ele>
        <time>2012-03-11T12:34:56Z</time>
      </trkpt>
      <trkpt lat="43.45418" lon="6.59472">
        <ele>214.99</ele>
        <time>2012-03-11T12:35:03Z</time>
      </trkpt>
      <trkpt lat="43.45421" lon="6.59472">
        <ele>215.47</ele>
        <time>2012-03-11T12:35:06Z</time>
      </trkpt>
      <trkpt lat="43.45431" lon="6.59482">
        <ele>214.99</ele>
        <time>2012-03-11T12:35:19Z</time>
      </trkpt>
      <trkpt lat="43.45439" lon="6.59487">
        <ele>214.03</ele>
        <time>2012-03-11T12:35:27Z</time>
      </trkpt>
      <trkpt lat="43.45441" lon="6.59494">
        <ele>214.03</ele>
        <time>2012-03-11T12:35:33Z</time>
      </trkpt>
      <trkpt lat="43.45444" lon="6.59495">
        <ele>214.03</ele>
        <time>2012-03-11T12:35:49Z</time>
      </trkpt>
      <trkpt lat="43.45444" lon="6.59496">
        <ele>214.03</ele>
        <time>2012-03-11T12:36:07Z</time>
      </trkpt>
      <trkpt lat="43.45447" lon="6.59496">
        <ele>214.03</ele>
        <time>2012-03-11T12:36:26Z</time>
      </trkpt>
      <trkpt lat="43.45454" lon="6.595">
        <ele>214.03</ele>
        <time>2012-03-11T12:36:41Z</time>
      </trkpt>
      <trkpt lat="43.45457" lon="6.59503">
        <ele>213.55</ele>
        <time>2012-03-11T12:36:47Z</time>
      </trkpt>
      <trkpt lat="43.45467" lon="6.59513">
        <ele>210.67</ele>
        <time>2012-03-11T12:37:00Z</time>
      </trkpt>
      <trkpt lat="43.45468" lon="6.59514">
        <ele>210.67</ele>
        <time>2012-03-11T12:37:02Z</time>
      </trkpt>
      <trkpt lat="43.45471" lon="6.59517">
        <ele>209.7</ele>
        <time>2012-03-11T12:37:06Z</time>
      </trkpt>
      <trkpt lat="43.45473" lon="6.59518">
        <ele>209.22</ele>
        <time>2012-03-11T12:37:08Z</time>
      </trkpt>
      <trkpt lat="43.45474" lon="6.5952">
        <ele>208.26</ele>
        <time>2012-03-11T12:37:14Z</time>
      </trkpt>
      <trkpt lat="43.45479" lon="6.59521">
        <ele>208.26</ele>
        <time>2012-03-11T12:37:18Z</time>
      </trkpt>
      <trkpt lat="43.45482" lon="6.59523">
        <ele>208.26</ele>
        <time>2012-03-11T12:37:28Z</time>
      </trkpt>
      <trkpt lat="43.45483" lon="6.59526">
        <ele>206.82</ele>
        <time>2012-03-11T12:37:31Z</time>
      </trkpt>
      <trkpt lat="43.45484" lon="6.59528">
        <ele>207.3</ele>
        <time>2012-03-11T12:37:47Z</time>
      </trkpt>
      <trkpt lat="43.45482" lon="6.59525">
        <ele>208.26</ele>
        <time>2012-03-11T12:37:58Z</time>
      </trkpt>
      <trkpt lat="43.45478" lon="6.5952">
        <ele>207.3</ele>
        <time>2012-03-11T12:38:04Z</time>
      </trkpt>
      <trkpt lat="43.45476" lon="6.59518">
        <ele>208.26</ele>
        <time>2012-03-11T12:38:07Z</time>
      </trkpt>
      <trkpt lat="43.45472" lon="6.59514">
        <ele>209.22</ele>
        <time>2012-03-11T12:38:12Z</time>
      </trkpt>
      <trkpt lat="43.45464" lon="6.59506">
        <ele>211.63</ele>
        <time>2012-03-11T12:38:22Z</time>
      </trkpt>
      <trkpt lat="43.4546" lon="6.59503">
        <ele>212.11</ele>
        <time>2012-03-11T12:38:27Z</time>
      </trkpt>
      <trkpt lat="43.45457" lon="6.59497">
        <ele>213.55</ele>
        <time>2012-03-11T12:38:34Z</time>
      </trkpt>
      <trkpt lat="43.45452" lon="6.59497">
        <ele>214.03</ele>
        <time>2012-03-11T12:38:40Z</time>
      </trkpt>
      <trkpt lat="43.4545" lon="6.59493">
        <ele>214.51</ele>
        <time>2012-03-11T12:38:53Z</time>
      </trkpt>
      <trkpt lat="43.45449" lon="6.59493">
        <ele>214.51</ele>
        <time>2012-03-11T12:38:57Z</time>
      </trkpt>
      <trkpt lat="43.45446" lon="6.59494">
        <ele>214.51</ele>
        <time>2012-03-11T12:39:00Z</time>
      </trkpt>
      <trkpt lat="43.45442" lon="6.59491">
        <ele>214.03</ele>
        <time>2012-03-11T12:39:06Z</time>
      </trkpt>
      <trkpt lat="43.45434" lon="6.59477">
        <ele>216.43</ele>
        <time>2012-03-11T12:39:19Z</time>
      </trkpt>
      <trkpt lat="43.45434" lon="6.59475">
        <ele>216.91</ele>
        <time>2012-03-11T12:39:21Z</time>
      </trkpt>
      <trkpt lat="43.45429" lon="6.59466">
        <ele>218.84</ele>
        <time>2012-03-11T12:39:34Z</time>
      </trkpt>
      <trkpt lat="43.45426" lon="6.59462">
        <ele>219.8</ele>
        <time>2012-03-11T12:39:40Z</time>
      </trkpt>
      <trkpt lat="43.4542" lon="6.59451">
        <ele>221.72</ele>
        <time>2012-03-11T12:39:54Z</time>
      </trkpt>
      <trkpt lat="43.4542" lon="6.59451">
        <ele>222.68</ele>
        <time>2012-03-11T12:39:56Z</time>
      </trkpt>
      <trkpt lat="43.45422" lon="6.59449">
        <ele>224.12</ele>
        <time>2012-03-11T12:40:05Z</time>
      </trkpt>
      <trkpt lat="43.45422" lon="6.59449">
        <ele>224.12</ele>
        <time>2012-03-11T12:40:16Z</time>
      </trkpt>
      <trkpt lat="43.45427" lon="6.59453">
        <ele>226.05</ele>
        <time>2012-03-11T12:40:27Z</time>
      </trkpt>
      <trkpt lat="43.45432" lon="6.59454">
        <ele>227.49</ele>
        <time>2012-03-11T12:40:34Z</time>
      </trkpt>
      <trkpt lat="43.45437" lon="6.59456">
        <ele>228.45</ele>
        <time>2012-03-11T12:40:47Z</time>
      </trkpt>
      <trkpt lat="43.45449" lon="6.59459">
        <ele>231.33</ele>
        <time>2012-03-11T12:41:02Z</time>
      </trkpt>
      <trkpt lat="43.45452" lon="6.59459">
        <ele>232.78</ele>
        <time>2012-03-11T12:41:14Z</time>
      </trkpt>
      <trkpt lat="43.45456" lon="6.5946">
        <ele>234.22</ele>
        <time>2012-03-11T12:41:20Z</time>
      </trkpt>
      <trkpt lat="43.45459" lon="6.59461">
        <ele>235.18</ele>
        <time>2012-03-11T12:41:35Z</time>
      </trkpt>
      <trkpt lat="43.45464" lon="6.59461">
        <ele>236.62</ele>
        <time>2012-03-11T12:41:47Z</time>
      </trkpt>
      <trkpt lat="43.45471" lon="6.59462">
        <ele>237.58</ele>
        <time>2012-03-11T12:41:58Z</time>
      </trkpt>
      <trkpt lat="43.45472" lon="6.59462">
        <ele>237.58</ele>
        <time>2012-03-11T12:42:08Z</time>
      </trkpt>
      <trkpt lat="43.45472" lon="6.59461">
        <ele>237.58</ele>
        <time>2012-03-11T12:42:20Z</time>
      </trkpt>
      <trkpt lat="43.45471" lon="6.59457">
        <ele>239.51</ele>
        <time>2012-03-11T12:42:28Z</time>
      </trkpt>
      <trkpt lat="43.4547" lon="6.59456">
        <ele>239.99</ele>
        <time>2012-03-11T12:42:33Z</time>
      </trkpt>
      <trkpt lat="43.45468" lon="6.59451">
        <ele>240.95</ele>
        <time>2012-03-11T12:42:39Z</time>
      </trkpt>
      <trkpt lat="43.45466" lon="6.59447">
        <ele>242.39</ele>
        <time>2012-03-11T12:42:43Z</time>
      </trkpt>
      <trkpt lat="43.45465" lon="6.59445">
        <ele>242.87</ele>
        <time>2012-03-11T12:42:47Z</time>
      </trkpt>
      <trkpt lat="43.4547" lon="6.59445">
        <ele>245.27</ele>
        <time>2012-03-11T12:42:57Z</time>
      </trkpt>
      <trkpt lat="43.45474" lon="6.59447">
        <ele>245.27</ele>
        <time>2012-03-11T12:43:09Z</time>
      </trkpt>
      <trkpt lat="43.45475" lon="6.59446">
        <ele>246.23</ele>
        <time>2012-03-11T12:43:16Z</time>
      </trkpt>
      <trkpt lat="43.45476" lon="6.59444">
        <ele>247.68</ele>
        <time>2012-03-11T12:43:21Z</time>
      </trkpt>
      <trkpt lat="43.45477" lon="6.59443">
        <ele>247.68</ele>
        <time>2012-03-11T12:43:34Z</time>
      </trkpt>
      <trkpt lat="43.45477" lon="6.59443">
        <ele>248.64</ele>
        <time>2012-03-11T12:43:49Z</time>
      </trkpt>
      <trkpt lat="43.45476" lon="6.59443">
        <ele>247.2</ele>
        <time>2012-03-11T12:43:59Z</time>
      </trkpt>
      <trkpt lat="43.45476" lon="6.59444">
        <ele>246.72</ele>
        <time>2012-03-11T12:44:06Z</time>
      </trkpt>
      <trkpt lat="43.45473" lon="6.59447">
        <ele>245.27</ele>
        <time>2012-03-11T12:44:15Z</time>
      </trkpt>
      <trkpt lat="43.45472" lon="6.59445">
        <ele>245.27</ele>
        <time>2012-03-11T12:44:18Z</time>
      </trkpt>
      <trkpt lat="43.45467" lon="6.59438">
        <ele>246.72</ele>
        <time>2012-03-11T12:44:26Z</time>
      </trkpt>
      <trkpt lat="43.45464" lon="6.59435">
        <ele>246.72</ele>
        <time>2012-03-11T12:44:31Z</time>
      </trkpt>
      <trkpt lat="43.4546" lon="6.59432">
        <ele>247.68</ele>
        <time>2012-03-11T12:44:35Z</time>
      </trkpt>
      <trkpt lat="43.45457" lon="6.59428">
        <ele>247.68</ele>
        <time>2012-03-11T12:44:41Z</time>
      </trkpt>
      <trkpt lat="43.45459" lon="6.59427">
        <ele>249.6</ele>
        <time>2012-03-11T12:44:49Z</time>
      </trkpt>
      <trkpt lat="43.45462" lon="6.59425">
        <ele>252.48</ele>
        <time>2012-03-11T12:44:57Z</time>
      </trkpt>
      <trkpt lat="43.45464" lon="6.59424">
        <ele>253.44</ele>
        <time>2012-03-11T12:45:05Z</time>
      </trkpt>
      <trkpt lat="43.45465" lon="6.59427">
        <ele>252.96</ele>
        <time>2012-03-11T12:45:16Z</time>
      </trkpt>
      <trkpt lat="43.45468" lon="6.5943">
        <ele>253.93</ele>
        <time>2012-03-11T12:45:32Z</time>
      </trkpt>
      <trkpt lat="43.45468" lon="6.5943">
        <ele>254.89</ele>
        <time>2012-03-11T12:45:39Z</time>
      </trkpt>
      <trkpt lat="43.45467" lon="6.5943">
        <ele>254.41</ele>
        <time>2012-03-11T12:45:51Z</time>
      </trkpt>
      <trkpt lat="43.45466" lon="6.59425">
        <ele>254.89</ele>
        <time>2012-03-11T12:46:08Z</time>
      </trkpt>
      <trkpt lat="43.45464" lon="6.59422">
        <ele>254.41</ele>
        <time>2012-03-11T12:46:19Z</time>
      </trkpt>
      <trkpt lat="43.45462" lon="6.59416">
        <ele>254.89</ele>
        <time>2012-03-11T12:46:25Z</time>
      </trkpt>
      <trkpt lat="43.45462" lon="6.59412">
        <ele>255.85</ele>
        <time>2012-03-11T12:46:29Z</time>
      </trkpt>
      <trkpt lat="43.45458" lon="6.59404">
        <ele>257.77</ele>
        <time>2012-03-11T12:46:40Z</time>
      </trkpt>
      <trkpt lat="43.45457" lon="6.59401">
        <ele>258.73</ele>
        <time>2012-03-11T12:46:53Z</time>
      </trkpt>
      <trkpt lat="43.45453" lon="6.59398">
        <ele>260.65</ele>
        <time>2012-03-11T12:47:03Z</time>
      </trkpt>
      <trkpt lat="43.45451" lon="6.59393">
        <ele>262.58</ele>
        <time>2012-03-11T12:47:14Z</time>
      </trkpt>
      <trkpt lat="43.45448" lon="6.5939">
        <ele>262.1</ele>
        <time>2012-03-11T12:47:24Z</time>
      </trkpt>
      <trkpt lat="43.45448" lon="6.5939">
        <ele>263.06</ele>
        <time>2012-03-11T12:47:40Z</time>
      </trkpt>
      <trkpt lat="43.45445" lon="6.59387">
        <ele>263.54</ele>
        <time>2012-03-11T12:47:45Z</time>
      </trkpt>
      <trkpt lat="43.45444" lon="6.5938">
        <ele>265.94</ele>
        <time>2012-03-11T12:47:54Z</time>
      </trkpt>
      <trkpt lat="43.45443" lon="6.59377">
        <ele>267.86</ele>
        <time>2012-03-11T12:48:03Z</time>
      </trkpt>
      <trkpt lat="43.45441" lon="6.59371">
        <ele>267.38</ele>
        <time>2012-03-11T12:48:16Z</time>
      </trkpt>
      <trkpt lat="43.45441" lon="6.59369">
        <ele>267.86</ele>
        <time>2012-03-11T12:48:19Z</time>
      </trkpt>
      <trkpt lat="43.45441" lon="6.59363">
        <ele>270.27</ele>
        <time>2012-03-11T12:48:31Z</time>
      </trkpt>
      <trkpt lat="43.45441" lon="6.59363">
        <ele>271.23</ele>
        <time>2012-03-11T12:48:42Z</time>
      </trkpt>
      <trkpt lat="43.4544" lon="6.59361">
        <ele>272.19</ele>
        <time>2012-03-11T12:48:54Z</time>
      </trkpt>
      <trkpt lat="43.4544" lon="6.59361">
        <ele>273.15</ele>
        <time>2012-03-11T12:49:05Z</time>
      </trkpt>
      <trkpt lat="43.45436" lon="6.59355">
        <ele>274.11</ele>
        <time>2012-03-11T12:49:21Z</time>
      </trkpt>
      <trkpt lat="43.45434" lon="6.59349">
        <ele>275.07</ele>
        <time>2012-03-11T12:49:33Z</time>
      </trkpt>
      <trkpt lat="43.45434" lon="6.59348">
        <ele>277</ele>
        <time>2012-03-11T12:49:46Z</time>
      </trkpt>
      <trkpt lat="43.45434" lon="6.59348">
        <ele>278.44</ele>
        <time>2012-03-11T12:49:57Z</time>
      </trkpt>
      <trkpt lat="43.45434" lon="6.59347">
        <ele>280.84</ele>
        <time>2012-03-11T12:50:11Z</time>
      </trkpt>
      <trkpt lat="43.45433" lon="6.59344">
        <ele>282.28</ele>
        <time>2012-03-11T12:50:22Z</time>
      </trkpt>
      <trkpt lat="43.45433" lon="6.59344">
        <ele>281.8</ele>
        <time>2012-03-11T12:50:24Z</time>
      </trkpt>
      <trkpt lat="43.45428" lon="6.59337">
        <ele>283.25</ele>
        <time>2012-03-11T12:50:32Z</time>
      </trkpt>
      <trkpt lat="43.45426" lon="6.59334">
        <ele>285.65</ele>
        <time>2012-03-11T12:50:43Z</time>
      </trkpt>
      <trkpt lat="43.45426" lon="6.59334">
        <ele>285.65</ele>
        <time>2012-03-11T12:51:02Z</time>
      </trkpt>
      <trkpt lat="43.45425" lon="6.59333">
        <ele>284.69</ele>
        <time>2012-03-11T12:51:16Z</time>
      </trkpt>
      <trkpt lat="43.45425" lon="6.59333">
        <ele>285.65</ele>
        <time>2012-03-11T12:51:24Z</time>
      </trkpt>
      <trkpt lat="43.45426" lon="6.59333">
        <ele>283.73</ele>
        <time>2012-03-11T12:51:37Z</time>
      </trkpt>
      <trkpt lat="43.45426" lon="6.59333">
        <ele>283.73</ele>
        <time>2012-03-11T12:51:42Z</time>
      </trkpt>
      <trkpt lat="43.45425" lon="6.59332">
        <ele>284.69</ele>
        <time>2012-03-11T12:51:45Z</time>
      </trkpt>
      <trkpt lat="43.45424" lon="6.59325">
        <ele>285.65</ele>
        <time>2012-03-11T12:51:53Z</time>
      </trkpt>
      <trkpt lat="43.45425" lon="6.59318">
        <ele>285.65</ele>
        <time>2012-03-11T12:52:05Z</time>
      </trkpt>
      <trkpt lat="43.45424" lon="6.59316">
        <ele>286.13</ele>
        <time>2012-03-11T12:52:07Z</time>
      </trkpt>
      <trkpt lat="43.45419" lon="6.59316">
        <ele>288.05</ele>
        <time>2012-03-11T12:52:16Z</time>
      </trkpt>
      <trkpt lat="43.4542" lon="6.59317">
        <ele>289.49</ele>
        <time>2012-03-11T12:52:25Z</time>
      </trkpt>
      <trkpt lat="43.4542" lon="6.59315">
        <ele>289.49</ele>
        <time>2012-03-11T12:52:39Z</time>
      </trkpt>
      <trkpt lat="43.4542" lon="6.59313">
        <ele>291.42</ele>
        <time>2012-03-11T12:52:51Z</time>
      </trkpt>
      <trkpt lat="43.45419" lon="6.59311">
        <ele>291.9</ele>
        <time>2012-03-11T12:53:03Z</time>
      </trkpt>
      <trkpt lat="43.45418" lon="6.5931">
        <ele>293.82</ele>
        <time>2012-03-11T12:53:20Z</time>
      </trkpt>
      <trkpt lat="43.45418" lon="6.59309">
        <ele>294.3</ele>
        <time>2012-03-11T12:53:35Z</time>
      </trkpt>
      <trkpt lat="43.45419" lon="6.5931">
        <ele>295.26</ele>
        <time>2012-03-11T12:53:48Z</time>
      </trkpt>
      <trkpt lat="43.45417" lon="6.59311">
        <ele>294.78</ele>
        <time>2012-03-11T12:54:00Z</time>
      </trkpt>
      <trkpt lat="43.45418" lon="6.59311">
        <ele>295.74</ele>
        <time>2012-03-11T12:54:14Z</time>
      </trkpt>
      <trkpt lat="43.45416" lon="6.5931">
        <ele>296.22</ele>
        <time>2012-03-11T12:54:26Z</time>
      </trkpt>
      <trkpt lat="43.45416" lon="6.5931">
        <ele>297.67</ele>
        <time>2012-03-11T12:54:36Z</time>
      </trkpt>
      <trkpt lat="43.45414" lon="6.59309">
        <ele>297.18</ele>
        <time>2012-03-11T12:54:47Z</time>
      </trkpt>
      <trkpt lat="43.45414" lon="6.59309">
        <ele>297.67</ele>
        <time>2012-03-11T12:54:50Z</time>
      </trkpt>
      <trkpt lat="43.45411" lon="6.59301">
        <ele>299.59</ele>
        <time>2012-03-11T12:55:01Z</time>
      </trkpt>
      <trkpt lat="43.4541" lon="6.59298">
        <ele>299.11</ele>
        <time>2012-03-11T12:55:05Z</time>
      </trkpt>
      <trkpt lat="43.45404" lon="6.59294">
        <ele>300.55</ele>
        <time>2012-03-11T12:55:16Z</time>
      </trkpt>
      <trkpt lat="43.45401" lon="6.59293">
        <ele>301.51</ele>
        <time>2012-03-11T12:55:26Z</time>
      </trkpt>
      <trkpt lat="43.454" lon="6.59292">
        <ele>301.03</ele>
        <time>2012-03-11T12:55:43Z</time>
      </trkpt>
      <trkpt lat="43.45402" lon="6.59291">
        <ele>301.03</ele>
        <time>2012-03-11T12:55:48Z</time>
      </trkpt>
      <trkpt lat="43.45405" lon="6.5929">
        <ele>300.55</ele>
        <time>2012-03-11T12:55:58Z</time>
      </trkpt>
      <trkpt lat="43.45404" lon="6.5929">
        <ele>300.55</ele>
        <time>2012-03-11T12:56:32Z</time>
      </trkpt>
      <trkpt lat="43.45404" lon="6.5929">
        <ele>300.07</ele>
        <time>2012-03-11T12:57:12Z</time>
      </trkpt>
      <trkpt lat="43.45404" lon="6.5929">
        <ele>300.55</ele>
        <time>2012-03-11T12:57:48Z</time>
      </trkpt>
      <trkpt lat="43.45404" lon="6.5929">
        <ele>300.55</ele>
        <time>2012-03-11T12:58:26Z</time>
      </trkpt>
      <trkpt lat="43.45404" lon="6.59291">
        <ele>299.11</ele>
        <time>2012-03-11T12:58:53Z</time>
      </trkpt>
      <trkpt lat="43.45404" lon="6.59291">
        <ele>299.59</ele>
        <time>2012-03-11T12:59:16Z</time>
      </trkpt>
      <trkpt lat="43.45404" lon="6.59291">
        <ele>299.59</ele>
        <time>2012-03-11T12:59:59Z</time>
      </trkpt>
      <trkpt lat="43.45404" lon="6.59291">
        <ele>300.55</ele>
        <time>2012-03-11T13:00:40Z</time>
      </trkpt>
      <trkpt lat="43.45404" lon="6.59291">
        <ele>299.59</ele>
        <time>2012-03-11T13:01:20Z</time>
      </trkpt>
      <trkpt lat="43.45404" lon="6.59291">
        <ele>301.51</ele>
        <time>2012-03-11T13:01:50Z</time>
      </trkpt>
      <trkpt lat="43.45404" lon="6.59292">
        <ele>301.03</ele>
        <time>2012-03-11T13:02:00Z</time>
      </trkpt>
      <trkpt lat="43.45404" lon="6.59292">
        <ele>301.51</ele>
        <time>2012-03-11T13:02:17Z</time>
      </trkpt>
      <trkpt lat="43.45404" lon="6.59293">
        <ele>301.03</ele>
        <time>2012-03-11T13:02:35Z</time>
      </trkpt>
      <trkpt lat="43.45405" lon="6.59294">
        <ele>301.03</ele>
        <time>2012-03-11T13:02:37Z</time>
      </trkpt>
      <trkpt lat="43.45408" lon="6.59298">
        <ele>299.59</ele>
        <time>2012-03-11T13:02:41Z</time>
      </trkpt>
      <trkpt lat="43.45412" lon="6.59301">
        <ele>299.59</ele>
        <time>2012-03-11T13:02:45Z</time>
      </trkpt>
      <trkpt lat="43.45417" lon="6.59309">
        <ele>297.67</ele>
        <time>2012-03-11T13:03:00Z</time>
      </trkpt>
      <trkpt lat="43.45418" lon="6.59308">
        <ele>297.18</ele>
        <time>2012-03-11T13:03:14Z</time>
      </trkpt>
      <trkpt lat="43.45418" lon="6.59309">
        <ele>296.22</ele>
        <time>2012-03-11T13:03:29Z</time>
      </trkpt>
      <trkpt lat="43.4542" lon="6.5931">
        <ele>295.74</ele>
        <time>2012-03-11T13:03:41Z</time>
      </trkpt>
      <trkpt lat="43.45419" lon="6.5931">
        <ele>295.26</ele>
        <time>2012-03-11T13:03:59Z</time>
      </trkpt>
      <trkpt lat="43.45421" lon="6.59308">
        <ele>293.34</ele>
        <time>2012-03-11T13:04:15Z</time>
      </trkpt>
      <trkpt lat="43.4542" lon="6.59308">
        <ele>291.42</ele>
        <time>2012-03-11T13:04:27Z</time>
      </trkpt>
      <trkpt lat="43.45421" lon="6.59309">
        <ele>290.94</ele>
        <time>2012-03-11T13:04:39Z</time>
      </trkpt>
      <trkpt lat="43.45421" lon="6.59313">
        <ele>290.46</ele>
        <time>2012-03-11T13:04:50Z</time>
      </trkpt>
      <trkpt lat="43.45421" lon="6.59313">
        <ele>289.97</ele>
        <time>2012-03-11T13:05:02Z</time>
      </trkpt>
      <trkpt lat="43.45421" lon="6.59316">
        <ele>289.01</ele>
        <time>2012-03-11T13:05:10Z</time>
      </trkpt>
      <trkpt lat="43.45421" lon="6.59316">
        <ele>290.46</ele>
        <time>2012-03-11T13:05:22Z</time>
      </trkpt>
      <trkpt lat="43.45422" lon="6.59317">
        <ele>289.01</ele>
        <time>2012-03-11T13:05:32Z</time>
      </trkpt>
      <trkpt lat="43.45423" lon="6.59317">
        <ele>289.01</ele>
        <time>2012-03-11T13:05:36Z</time>
      </trkpt>
      <trkpt lat="43.45428" lon="6.59318">
        <ele>287.09</ele>
        <time>2012-03-11T13:05:43Z</time>
      </trkpt>
      <trkpt lat="43.45429" lon="6.59322">
        <ele>285.65</ele>
        <time>2012-03-11T13:05:46Z</time>
      </trkpt>
      <trkpt lat="43.45429" lon="6.59324">
        <ele>285.65</ele>
        <time>2012-03-11T13:05:49Z</time>
      </trkpt>
      <trkpt lat="43.45429" lon="6.5933">
        <ele>284.69</ele>
        <time>2012-03-11T13:05:59Z</time>
      </trkpt>
      <trkpt lat="43.4543" lon="6.5933">
        <ele>285.17</ele>
        <time>2012-03-11T13:06:01Z</time>
      </trkpt>
      <trkpt lat="43.4543" lon="6.59332">
        <ele>282.77</ele>
        <time>2012-03-11T13:06:08Z</time>
      </trkpt>
      <trkpt lat="43.45432" lon="6.59335">
        <ele>282.77</ele>
        <time>2012-03-11T13:06:18Z</time>
      </trkpt>
      <trkpt lat="43.45433" lon="6.59336">
        <ele>281.8</ele>
        <time>2012-03-11T13:06:31Z</time>
      </trkpt>
      <trkpt lat="43.45434" lon="6.59332">
        <ele>280.36</ele>
        <time>2012-03-11T13:06:40Z</time>
      </trkpt>
      <trkpt lat="43.45435" lon="6.59338">
        <ele>279.4</ele>
        <time>2012-03-11T13:06:54Z</time>
      </trkpt>
      <trkpt lat="43.45435" lon="6.5934">
        <ele>277.48</ele>
        <time>2012-03-11T13:07:07Z</time>
      </trkpt>
      <trkpt lat="43.45436" lon="6.59343">
        <ele>275.56</ele>
        <time>2012-03-11T13:07:18Z</time>
      </trkpt>
      <trkpt lat="43.45436" lon="6.59343">
        <ele>275.07</ele>
        <time>2012-03-11T13:07:30Z</time>
      </trkpt>
      <trkpt lat="43.45438" lon="6.59346">
        <ele>273.63</ele>
        <time>2012-03-11T13:07:44Z</time>
      </trkpt>
      <trkpt lat="43.45441" lon="6.5935">
        <ele>273.15</ele>
        <time>2012-03-11T13:07:56Z</time>
      </trkpt>
      <trkpt lat="43.4544" lon="6.59352">
        <ele>271.71</ele>
        <time>2012-03-11T13:08:07Z</time>
      </trkpt>
      <trkpt lat="43.45441" lon="6.59358">
        <ele>270.27</ele>
        <time>2012-03-11T13:08:16Z</time>
      </trkpt>
      <trkpt lat="43.45441" lon="6.59364">
        <ele>268.83</ele>
        <time>2012-03-11T13:08:23Z</time>
      </trkpt>
      <trkpt lat="43.45442" lon="6.59371">
        <ele>267.86</ele>
        <time>2012-03-11T13:08:32Z</time>
      </trkpt>
      <trkpt lat="43.45446" lon="6.59378">
        <ele>266.9</ele>
        <time>2012-03-11T13:08:43Z</time>
      </trkpt>
      <trkpt lat="43.45446" lon="6.59377">
        <ele>267.38</ele>
        <time>2012-03-11T13:08:55Z</time>
      </trkpt>
      <trkpt lat="43.45447" lon="6.59378">
        <ele>267.38</ele>
        <time>2012-03-11T13:09:15Z</time>
      </trkpt>
      <trkpt lat="43.45446" lon="6.59377">
        <ele>266.9</ele>
        <time>2012-03-11T13:09:28Z</time>
      </trkpt>
      <trkpt lat="43.45446" lon="6.59377">
        <ele>266.9</ele>
        <time>2012-03-11T13:09:57Z</time>
      </trkpt>
      <trkpt lat="43.45449" lon="6.5938">
        <ele>265.46</ele>
        <time>2012-03-11T13:10:12Z</time>
      </trkpt>
      <trkpt lat="43.45451" lon="6.59383">
        <ele>265.94</ele>
        <time>2012-03-11T13:10:15Z</time>
      </trkpt>
      <trkpt lat="43.45453" lon="6.59388">
        <ele>265.46</ele>
        <time>2012-03-11T13:10:19Z</time>
      </trkpt>
      <trkpt lat="43.4546" lon="6.59392">
        <ele>263.54</ele>
        <time>2012-03-11T13:10:28Z</time>
      </trkpt>
      <trkpt lat="43.45464" lon="6.59402">
        <ele>262.58</ele>
        <time>2012-03-11T13:10:38Z</time>
      </trkpt>
      <trkpt lat="43.45468" lon="6.59408">
        <ele>262.1</ele>
        <time>2012-03-11T13:10:45Z</time>
      </trkpt>
      <trkpt lat="43.45472" lon="6.5941">
        <ele>262.58</ele>
        <time>2012-03-11T13:10:56Z</time>
      </trkpt>
      <trkpt lat="43.45472" lon="6.59411">
        <ele>259.21</ele>
        <time>2012-03-11T13:11:00Z</time>
      </trkpt>
      <trkpt lat="43.45472" lon="6.59411">
        <ele>261.14</ele>
        <time>2012-03-11T13:11:16Z</time>
      </trkpt>
      <trkpt lat="43.45472" lon="6.59406">
        <ele>260.65</ele>
        <time>2012-03-11T13:11:22Z</time>
      </trkpt>
      <trkpt lat="43.45477" lon="6.59402">
        <ele>259.21</ele>
        <time>2012-03-11T13:11:31Z</time>
      </trkpt>
      <trkpt lat="43.45479" lon="6.59406">
        <ele>257.29</ele>
        <time>2012-03-11T13:11:42Z</time>
      </trkpt>
      <trkpt lat="43.4548" lon="6.59407">
        <ele>255.85</ele>
        <time>2012-03-11T13:11:57Z</time>
      </trkpt>
      <trkpt lat="43.45481" lon="6.5941">
        <ele>253.44</ele>
        <time>2012-03-11T13:12:08Z</time>
      </trkpt>
      <trkpt lat="43.45483" lon="6.59412">
        <ele>252.96</ele>
        <time>2012-03-11T13:12:11Z</time>
      </trkpt>
      <trkpt lat="43.45485" lon="6.59415">
        <ele>252.48</ele>
        <time>2012-03-11T13:12:19Z</time>
      </trkpt>
      <trkpt lat="43.45484" lon="6.59418">
        <ele>252</ele>
        <time>2012-03-11T13:12:22Z</time>
      </trkpt>
      <trkpt lat="43.45485" lon="6.59421">
        <ele>252.48</ele>
        <time>2012-03-11T13:12:24Z</time>
      </trkpt>
      <trkpt lat="43.45487" lon="6.59422">
        <ele>252.48</ele>
        <time>2012-03-11T13:12:26Z</time>
      </trkpt>
      <trkpt lat="43.45489" lon="6.59423">
        <ele>252</ele>
        <time>2012-03-11T13:12:28Z</time>
      </trkpt>
      <trkpt lat="43.45493" lon="6.59432">
        <ele>250.56</ele>
        <time>2012-03-11T13:12:41Z</time>
      </trkpt>
      <trkpt lat="43.45492" lon="6.59432">
        <ele>251.04</ele>
        <time>2012-03-11T13:12:57Z</time>
      </trkpt>
      <trkpt lat="43.45493" lon="6.59432">
        <ele>251.04</ele>
        <time>2012-03-11T13:13:12Z</time>
      </trkpt>
      <trkpt lat="43.45493" lon="6.59432">
        <ele>250.56</ele>
        <time>2012-03-11T13:13:18Z</time>
      </trkpt>
      <trkpt lat="43.45493" lon="6.59437">
        <ele>250.56</ele>
        <time>2012-03-11T13:13:21Z</time>
      </trkpt>
      <trkpt lat="43.45493" lon="6.59442">
        <ele>250.56</ele>
        <time>2012-03-11T13:13:24Z</time>
      </trkpt>
      <trkpt lat="43.45491" lon="6.59449">
        <ele>250.08</ele>
        <time>2012-03-11T13:13:29Z</time>
      </trkpt>
      <trkpt lat="43.45497" lon="6.59462">
        <ele>248.64</ele>
        <time>2012-03-11T13:13:40Z</time>
      </trkpt>
      <trkpt lat="43.45498" lon="6.59464">
        <ele>248.16</ele>
        <time>2012-03-11T13:13:44Z</time>
      </trkpt>
      <trkpt lat="43.45496" lon="6.59469">
        <ele>248.64</ele>
        <time>2012-03-11T13:13:50Z</time>
      </trkpt>
      <trkpt lat="43.45495" lon="6.59469">
        <ele>248.16</ele>
        <time>2012-03-11T13:13:58Z</time>
      </trkpt>
      <trkpt lat="43.45493" lon="6.59467">
        <ele>248.64</ele>
        <time>2012-03-11T13:14:11Z</time>
      </trkpt>
      <trkpt lat="43.45492" lon="6.59466">
        <ele>247.2</ele>
        <time>2012-03-11T13:14:18Z</time>
      </trkpt>
      <trkpt lat="43.45496" lon="6.59474">
        <ele>245.75</ele>
        <time>2012-03-11T13:14:29Z</time>
      </trkpt>
      <trkpt lat="43.45497" lon="6.59474">
        <ele>244.31</ele>
        <time>2012-03-11T13:14:41Z</time>
      </trkpt>
      <trkpt lat="43.45497" lon="6.59478">
        <ele>241.91</ele>
        <time>2012-03-11T13:14:52Z</time>
      </trkpt>
      <trkpt lat="43.45491" lon="6.59482">
        <ele>241.91</ele>
        <time>2012-03-11T13:15:04Z</time>
      </trkpt>
      <trkpt lat="43.45491" lon="6.59482">
        <ele>241.43</ele>
        <time>2012-03-11T13:15:22Z</time>
      </trkpt>
      <trkpt lat="43.45491" lon="6.59483">
        <ele>241.91</ele>
        <time>2012-03-11T13:15:53Z</time>
      </trkpt>
      <trkpt lat="43.4549" lon="6.59478">
        <ele>241.91</ele>
        <time>2012-03-11T13:16:07Z</time>
      </trkpt>
      <trkpt lat="43.45489" lon="6.59478">
        <ele>241.91</ele>
        <time>2012-03-11T13:16:08Z</time>
      </trkpt>
      <trkpt lat="43.45488" lon="6.59476">
        <ele>242.39</ele>
        <time>2012-03-11T13:16:10Z</time>
      </trkpt>
      <trkpt lat="43.45486" lon="6.59476">
        <ele>241.43</ele>
        <time>2012-03-11T13:16:12Z</time>
      </trkpt>
      <trkpt lat="43.45484" lon="6.59473">
        <ele>242.39</ele>
        <time>2012-03-11T13:16:16Z</time>
      </trkpt>
      <trkpt lat="43.45481" lon="6.59471">
        <ele>241.43</ele>
        <time>2012-03-11T13:16:20Z</time>
      </trkpt>
      <trkpt lat="43.45475" lon="6.59467">
        <ele>239.02</ele>
        <time>2012-03-11T13:16:30Z</time>
      </trkpt>
      <trkpt lat="43.45474" lon="6.59462">
        <ele>238.54</ele>
        <time>2012-03-11T13:16:40Z</time>
      </trkpt>
      <trkpt lat="43.45471" lon="6.59462">
        <ele>237.58</ele>
        <time>2012-03-11T13:16:54Z</time>
      </trkpt>
      <trkpt lat="43.45471" lon="6.59461">
        <ele>238.06</ele>
        <time>2012-03-11T13:16:56Z</time>
      </trkpt>
      <trkpt lat="43.45468" lon="6.5946">
        <ele>237.1</ele>
        <time>2012-03-11T13:16:59Z</time>
      </trkpt>
      <trkpt lat="43.45467" lon="6.59459">
        <ele>237.1</ele>
        <time>2012-03-11T13:17:02Z</time>
      </trkpt>
      <trkpt lat="43.45464" lon="6.59458">
        <ele>237.1</ele>
        <time>2012-03-11T13:17:05Z</time>
      </trkpt>
      <trkpt lat="43.45462" lon="6.59457">
        <ele>236.14</ele>
        <time>2012-03-11T13:17:07Z</time>
      </trkpt>
      <trkpt lat="43.45458" lon="6.59457">
        <ele>235.66</ele>
        <time>2012-03-11T13:17:11Z</time>
      </trkpt>
      <trkpt lat="43.45455" lon="6.59457">
        <ele>234.22</ele>
        <time>2012-03-11T13:17:15Z</time>
      </trkpt>
      <trkpt lat="43.45455" lon="6.59457">
        <ele>234.22</ele>
        <time>2012-03-11T13:17:16Z</time>
      </trkpt>
      <trkpt lat="43.45453" lon="6.59457">
        <ele>233.26</ele>
        <time>2012-03-11T13:17:18Z</time>
      </trkpt>
      <trkpt lat="43.45452" lon="6.59457">
        <ele>232.78</ele>
        <time>2012-03-11T13:17:20Z</time>
      </trkpt>
      <trkpt lat="43.45452" lon="6.59457">
        <ele>232.3</ele>
        <time>2012-03-11T13:17:21Z</time>
      </trkpt>
      <trkpt lat="43.45443" lon="6.59455">
        <ele>229.41</ele>
        <time>2012-03-11T13:17:33Z</time>
      </trkpt>
      <trkpt lat="43.45439" lon="6.59456">
        <ele>227.97</ele>
        <time>2012-03-11T13:17:45Z</time>
      </trkpt>
      <trkpt lat="43.45437" lon="6.59455">
        <ele>227.49</ele>
        <time>2012-03-11T13:17:50Z</time>
      </trkpt>
      <trkpt lat="43.45435" lon="6.59451">
        <ele>227.97</ele>
        <time>2012-03-11T13:17:58Z</time>
      </trkpt>
      <trkpt lat="43.45433" lon="6.59451">
        <ele>227.01</ele>
        <time>2012-03-11T13:18:01Z</time>
      </trkpt>
      <trkpt lat="43.45428" lon="6.59447">
        <ele>226.05</ele>
        <time>2012-03-11T13:18:12Z</time>
      </trkpt>
      <trkpt lat="43.45425" lon="6.59445">
        <ele>225.09</ele>
        <time>2012-03-11T13:18:20Z</time>
      </trkpt>
      <trkpt lat="43.45419" lon="6.59447">
        <ele>223.16</ele>
        <time>2012-03-11T13:18:27Z</time>
      </trkpt>
      <trkpt lat="43.45419" lon="6.59447">
        <ele>221.72</ele>
        <time>2012-03-11T13:18:40Z</time>
      </trkpt>
      <trkpt lat="43.45419" lon="6.59447">
        <ele>220.28</ele>
        <time>2012-03-11T13:18:56Z</time>
      </trkpt>
      <trkpt lat="43.45416" lon="6.59447">
        <ele>220.28</ele>
        <time>2012-03-11T13:19:17Z</time>
      </trkpt>
      <trkpt lat="43.45416" lon="6.59448">
        <ele>220.28</ele>
        <time>2012-03-11T13:19:44Z</time>
      </trkpt>
      <trkpt lat="43.4541" lon="6.59451">
        <ele>217.88</ele>
        <time>2012-03-11T13:20:01Z</time>
      </trkpt>
      <trkpt lat="43.45409" lon="6.59452">
        <ele>217.4</ele>
        <time>2012-03-11T13:20:15Z</time>
      </trkpt>
      <trkpt lat="43.45409" lon="6.59451">
        <ele>217.4</ele>
        <time>2012-03-11T13:20:21Z</time>
      </trkpt>
      <trkpt lat="43.45413" lon="6.59445">
        <ele>220.28</ele>
        <time>2012-03-11T13:20:31Z</time>
      </trkpt>
      <trkpt lat="43.45413" lon="6.59444">
        <ele>221.24</ele>
        <time>2012-03-11T13:20:50Z</time>
      </trkpt>
      <trkpt lat="43.45413" lon="6.59444">
        <ele>220.28</ele>
        <time>2012-03-11T13:21:10Z</time>
      </trkpt>
      <trkpt lat="43.45412" lon="6.59448">
        <ele>219.8</ele>
        <time>2012-03-11T13:21:29Z</time>
      </trkpt>
      <trkpt lat="43.45409" lon="6.59453">
        <ele>217.4</ele>
        <time>2012-03-11T13:21:41Z</time>
      </trkpt>
      <trkpt lat="43.45409" lon="6.59453">
        <ele>216.91</ele>
        <time>2012-03-11T13:21:54Z</time>
      </trkpt>
      <trkpt lat="43.45402" lon="6.59455">
        <ele>215.47</ele>
        <time>2012-03-11T13:22:05Z</time>
      </trkpt>
      <trkpt lat="43.45402" lon="6.59455">
        <ele>215.47</ele>
        <time>2012-03-11T13:22:06Z</time>
      </trkpt>
      <trkpt lat="43.45397" lon="6.59455">
        <ele>214.99</ele>
        <time>2012-03-11T13:22:10Z</time>
      </trkpt>
      <trkpt lat="43.45393" lon="6.59454">
        <ele>213.55</ele>
        <time>2012-03-11T13:22:14Z</time>
      </trkpt>
      <trkpt lat="43.4539" lon="6.59451">
        <ele>213.07</ele>
        <time>2012-03-11T13:22:18Z</time>
      </trkpt>
      <trkpt lat="43.45385" lon="6.59442">
        <ele>213.55</ele>
        <time>2012-03-11T13:22:26Z</time>
      </trkpt>
      <trkpt lat="43.45381" lon="6.5944">
        <ele>214.51</ele>
        <time>2012-03-11T13:22:39Z</time>
      </trkpt>
      <trkpt lat="43.45381" lon="6.5944">
        <ele>214.51</ele>
        <time>2012-03-11T13:22:40Z</time>
      </trkpt>
      <trkpt lat="43.45377" lon="6.59437">
        <ele>214.99</ele>
        <time>2012-03-11T13:22:45Z</time>
      </trkpt>
      <trkpt lat="43.45368" lon="6.5943">
        <ele>215.95</ele>
        <time>2012-03-11T13:22:56Z</time>
      </trkpt>
      <trkpt lat="43.45365" lon="6.59428">
        <ele>215.95</ele>
        <time>2012-03-11T13:23:08Z</time>
      </trkpt>
      <trkpt lat="43.4536" lon="6.59428">
        <ele>214.03</ele>
        <time>2012-03-11T13:23:17Z</time>
      </trkpt>
      <trkpt lat="43.45354" lon="6.59426">
        <ele>214.03</ele>
        <time>2012-03-11T13:23:31Z</time>
      </trkpt>
      <trkpt lat="43.45346" lon="6.59423">
        <ele>214.99</ele>
        <time>2012-03-11T13:23:45Z</time>
      </trkpt>
      <trkpt lat="43.45334" lon="6.59419">
        <ele>215.47</ele>
        <time>2012-03-11T13:23:59Z</time>
      </trkpt>
      <trkpt lat="43.45325" lon="6.5942">
        <ele>214.99</ele>
        <time>2012-03-11T13:24:09Z</time>
      </trkpt>
      <trkpt lat="43.45314" lon="6.59432">
        <ele>215.95</ele>
        <time>2012-03-11T13:24:24Z</time>
      </trkpt>
      <trkpt lat="43.45315" lon="6.59441">
        <ele>215.47</ele>
        <time>2012-03-11T13:24:41Z</time>
      </trkpt>
      <trkpt lat="43.45317" lon="6.59448">
        <ele>213.55</ele>
        <time>2012-03-11T13:24:49Z</time>
      </trkpt>
      <trkpt lat="43.4532" lon="6.59454">
        <ele>211.63</ele>
        <time>2012-03-11T13:25:01Z</time>
      </trkpt>
      <trkpt lat="43.45323" lon="6.59456">
        <ele>210.67</ele>
        <time>2012-03-11T13:25:13Z</time>
      </trkpt>
      <trkpt lat="43.45323" lon="6.59456">
        <ele>210.19</ele>
        <time>2012-03-11T13:25:42Z</time>
      </trkpt>
      <trkpt lat="43.45324" lon="6.59458">
        <ele>209.22</ele>
        <time>2012-03-11T13:26:00Z</time>
      </trkpt>
      <trkpt lat="43.45338" lon="6.59473">
        <ele>206.82</ele>
        <time>2012-03-11T13:26:12Z</time>
      </trkpt>
      <trkpt lat="43.45344" lon="6.59485">
        <ele>204.9</ele>
        <time>2012-03-11T13:26:26Z</time>
      </trkpt>
      <trkpt lat="43.45345" lon="6.59489">
        <ele>203.46</ele>
        <time>2012-03-11T13:26:38Z</time>
      </trkpt>
      <trkpt lat="43.45347" lon="6.59501">
        <ele>201.53</ele>
        <time>2012-03-11T13:26:50Z</time>
      </trkpt>
      <trkpt lat="43.45362" lon="6.59516">
        <ele>199.61</ele>
        <time>2012-03-11T13:27:04Z</time>
      </trkpt>
      <trkpt lat="43.4537" lon="6.59525">
        <ele>197.21</ele>
        <time>2012-03-11T13:27:14Z</time>
      </trkpt>
      <trkpt lat="43.45374" lon="6.59537">
        <ele>194.8</ele>
        <time>2012-03-11T13:27:27Z</time>
      </trkpt>
      <trkpt lat="43.45378" lon="6.5954">
        <ele>193.36</ele>
        <time>2012-03-11T13:27:39Z</time>
      </trkpt>
      <trkpt lat="43.45382" lon="6.59547">
        <ele>190.96</ele>
        <time>2012-03-11T13:27:50Z</time>
      </trkpt>
      <trkpt lat="43.45385" lon="6.59552">
        <ele>190.96</ele>
        <time>2012-03-11T13:28:01Z</time>
      </trkpt>
      <trkpt lat="43.45385" lon="6.59553">
        <ele>190.96</ele>
        <time>2012-03-11T13:28:26Z</time>
      </trkpt>
      <trkpt lat="43.45388" lon="6.5956">
        <ele>190.96</ele>
        <time>2012-03-11T13:28:31Z</time>
      </trkpt>
      <trkpt lat="43.45389" lon="6.59563">
        <ele>189.52</ele>
        <time>2012-03-11T13:28:34Z</time>
      </trkpt>
      <trkpt lat="43.45394" lon="6.59574">
        <ele>186.63</ele>
        <time>2012-03-11T13:28:48Z</time>
      </trkpt>
      <trkpt lat="43.45399" lon="6.59584">
        <ele>185.19</ele>
        <time>2012-03-11T13:29:00Z</time>
      </trkpt>
      <trkpt lat="43.454" lon="6.59587">
        <ele>183.75</ele>
        <time>2012-03-11T13:29:04Z</time>
      </trkpt>
      <trkpt lat="43.45405" lon="6.59602">
        <ele>181.35</ele>
        <time>2012-03-11T13:29:19Z</time>
      </trkpt>
      <trkpt lat="43.4541" lon="6.5961">
        <ele>177.98</ele>
        <time>2012-03-11T13:29:33Z</time>
      </trkpt>
      <trkpt lat="43.45413" lon="6.59617">
        <ele>176.54</ele>
        <time>2012-03-11T13:29:47Z</time>
      </trkpt>
      <trkpt lat="43.45417" lon="6.59621">
        <ele>175.1</ele>
        <time>2012-03-11T13:30:03Z</time>
      </trkpt>
      <trkpt lat="43.45425" lon="6.59633">
        <ele>172.69</ele>
        <time>2012-03-11T13:30:15Z</time>
      </trkpt>
      <trkpt lat="43.45427" lon="6.59638">
        <ele>170.29</ele>
        <time>2012-03-11T13:30:29Z</time>
      </trkpt>
      <trkpt lat="43.45431" lon="6.59641">
        <ele>167.89</ele>
        <time>2012-03-11T13:30:39Z</time>
      </trkpt>
      <trkpt lat="43.45438" lon="6.59642">
        <ele>165</ele>
        <time>2012-03-11T13:30:50Z</time>
      </trkpt>
      <trkpt lat="43.45448" lon="6.59642">
        <ele>164.04</ele>
        <time>2012-03-11T13:31:02Z</time>
      </trkpt>
      <trkpt lat="43.45452" lon="6.59643">
        <ele>162.6</ele>
        <time>2012-03-11T13:31:12Z</time>
      </trkpt>
      <trkpt lat="43.45457" lon="6.59648">
        <ele>161.16</ele>
        <time>2012-03-11T13:31:33Z</time>
      </trkpt>
      <trkpt lat="43.45462" lon="6.59655">
        <ele>159.72</ele>
        <time>2012-03-11T13:31:44Z</time>
      </trkpt>
      <trkpt lat="43.45471" lon="6.59661">
        <ele>156.83</ele>
        <time>2012-03-11T13:31:55Z</time>
      </trkpt>
      <trkpt lat="43.45471" lon="6.59667">
        <ele>155.39</ele>
        <time>2012-03-11T13:32:09Z</time>
      </trkpt>
      <trkpt lat="43.4547" lon="6.59664">
        <ele>156.83</ele>
        <time>2012-03-11T13:32:20Z</time>
      </trkpt>
      <trkpt lat="43.45469" lon="6.59663">
        <ele>156.83</ele>
        <time>2012-03-11T13:32:28Z</time>
      </trkpt>
      <trkpt lat="43.4547" lon="6.59671">
        <ele>153.95</ele>
        <time>2012-03-11T13:32:40Z</time>
      </trkpt>
      <trkpt lat="43.45473" lon="6.59678">
        <ele>150.58</ele>
        <time>2012-03-11T13:32:53Z</time>
      </trkpt>
      <trkpt lat="43.45481" lon="6.59691">
        <ele>147.7</ele>
        <time>2012-03-11T13:33:07Z</time>
      </trkpt>
      <trkpt lat="43.45484" lon="6.59697">
        <ele>145.3</ele>
        <time>2012-03-11T13:33:18Z</time>
      </trkpt>
      <trkpt lat="43.45484" lon="6.59699">
        <ele>145.3</ele>
        <time>2012-03-11T13:33:30Z</time>
      </trkpt>
      <trkpt lat="43.45484" lon="6.59699">
        <ele>144.82</ele>
        <time>2012-03-11T13:33:55Z</time>
      </trkpt>
      <trkpt lat="43.45485" lon="6.59699">
        <ele>145.3</ele>
        <time>2012-03-11T13:34:22Z</time>
      </trkpt>
      <trkpt lat="43.45485" lon="6.59699">
        <ele>145.78</ele>
        <time>2012-03-11T13:34:50Z</time>
      </trkpt>
      <trkpt lat="43.45485" lon="6.59699">
        <ele>145.3</ele>
        <time>2012-03-11T13:35:17Z</time>
      </trkpt>
      <trkpt lat="43.45485" lon="6.59699">
        <ele>144.82</ele>
        <time>2012-03-11T13:35:49Z</time>
      </trkpt>
      <trkpt lat="43.45486" lon="6.59702">
        <ele>143.85</ele>
        <time>2012-03-11T13:36:21Z</time>
      </trkpt>
      <trkpt lat="43.45493" lon="6.5971">
        <ele>140.97</ele>
        <time>2012-03-11T13:36:33Z</time>
      </trkpt>
      <trkpt lat="43.45499" lon="6.59713">
        <ele>137.61</ele>
        <time>2012-03-11T13:36:45Z</time>
      </trkpt>
      <trkpt lat="43.45503" lon="6.59721">
        <ele>135.68</ele>
        <time>2012-03-11T13:36:59Z</time>
      </trkpt>
      <trkpt lat="43.45505" lon="6.59726">
        <ele>134.24</ele>
        <time>2012-03-11T13:37:14Z</time>
      </trkpt>
      <trkpt lat="43.45506" lon="6.59733">
        <ele>133.28</ele>
        <time>2012-03-11T13:37:44Z</time>
      </trkpt>
      <trkpt lat="43.45508" lon="6.59737">
        <ele>131.84</ele>
        <time>2012-03-11T13:38:01Z</time>
      </trkpt>
      <trkpt lat="43.45514" lon="6.59743">
        <ele>129.43</ele>
        <time>2012-03-11T13:38:14Z</time>
      </trkpt>
      <trkpt lat="43.45516" lon="6.59747">
        <ele>127.51</ele>
        <time>2012-03-11T13:38:23Z</time>
      </trkpt>
      <trkpt lat="43.45518" lon="6.59753">
        <ele>125.11</ele>
        <time>2012-03-11T13:38:35Z</time>
      </trkpt>
      <trkpt lat="43.45525" lon="6.59758">
        <ele>123.19</ele>
        <time>2012-03-11T13:38:46Z</time>
      </trkpt>
      <trkpt lat="43.45528" lon="6.59763">
        <ele>120.3</ele>
        <time>2012-03-11T13:38:57Z</time>
      </trkpt>
      <trkpt lat="43.45531" lon="6.59766">
        <ele>119.82</ele>
        <time>2012-03-11T13:39:01Z</time>
      </trkpt>
      <trkpt lat="43.45532" lon="6.59769">
        <ele>119.34</ele>
        <time>2012-03-11T13:39:12Z</time>
      </trkpt>
      <trkpt lat="43.45533" lon="6.5977">
        <ele>117.9</ele>
        <time>2012-03-11T13:39:26Z</time>
      </trkpt>
      <trkpt lat="43.45534" lon="6.5977">
        <ele>118.38</ele>
        <time>2012-03-11T13:39:27Z</time>
      </trkpt>
      <trkpt lat="43.45543" lon="6.59771">
        <ele>115.5</ele>
        <time>2012-03-11T13:39:40Z</time>
      </trkpt>
      <trkpt lat="43.45553" lon="6.59769">
        <ele>111.65</ele>
        <time>2012-03-11T13:39:54Z</time>
      </trkpt>
      <trkpt lat="43.45556" lon="6.59774">
        <ele>110.69</ele>
        <time>2012-03-11T13:40:01Z</time>
      </trkpt>
      <trkpt lat="43.45558" lon="6.59784">
        <ele>107.81</ele>
        <time>2012-03-11T13:40:15Z</time>
      </trkpt>
      <trkpt lat="43.45562" lon="6.59783">
        <ele>106.36</ele>
        <time>2012-03-11T13:40:23Z</time>
      </trkpt>
      <trkpt lat="43.45571" lon="6.59789">
        <ele>103.48</ele>
        <time>2012-03-11T13:40:36Z</time>
      </trkpt>
      <trkpt lat="43.45573" lon="6.59789">
        <ele>102.52</ele>
        <time>2012-03-11T13:40:57Z</time>
      </trkpt>
      <trkpt lat="43.45576" lon="6.59792">
        <ele>102.04</ele>
        <time>2012-03-11T13:41:01Z</time>
      </trkpt>
      <trkpt lat="43.45585" lon="6.59798">
        <ele>99.63</ele>
        <time>2012-03-11T13:41:15Z</time>
      </trkpt>
      <trkpt lat="43.45585" lon="6.59798">
        <ele>99.15</ele>
        <time>2012-03-11T13:41:38Z</time>
      </trkpt>
      <trkpt lat="43.45585" lon="6.59798">
        <ele>99.15</ele>
        <time>2012-03-11T13:41:39Z</time>
      </trkpt>
      <trkpt lat="43.45589" lon="6.598">
        <ele>98.19</ele>
        <time>2012-03-11T13:41:43Z</time>
      </trkpt>
      <trkpt lat="43.45594" lon="6.59798">
        <ele>97.71</ele>
        <time>2012-03-11T13:41:48Z</time>
      </trkpt>
      <trkpt lat="43.45596" lon="6.59796">
        <ele>97.23</ele>
        <time>2012-03-11T13:41:50Z</time>
      </trkpt>
      <trkpt lat="43.45603" lon="6.59796">
        <ele>96.27</ele>
        <time>2012-03-11T13:41:56Z</time>
      </trkpt>
      <trkpt lat="43.4561" lon="6.59799">
        <ele>94.35</ele>
        <time>2012-03-11T13:42:08Z</time>
      </trkpt>
      <trkpt lat="43.45611" lon="6.59798">
        <ele>94.35</ele>
        <time>2012-03-11T13:42:09Z</time>
      </trkpt>
      <trkpt lat="43.45621" lon="6.59796">
        <ele>91.94</ele>
        <time>2012-03-11T13:42:21Z</time>
      </trkpt>
      <trkpt lat="43.45633" lon="6.59791">
        <ele>92.9</ele>
        <time>2012-03-11T13:42:33Z</time>
      </trkpt>
      <trkpt lat="43.4564" lon="6.59786">
        <ele>91.94</ele>
        <time>2012-03-11T13:42:45Z</time>
      </trkpt>
      <trkpt lat="43.4564" lon="6.59786">
        <ele>92.9</ele>
        <time>2012-03-11T13:42:48Z</time>
      </trkpt>
      <trkpt lat="43.4565" lon="6.59787">
        <ele>90.98</ele>
        <time>2012-03-11T13:42:57Z</time>
      </trkpt>
      <trkpt lat="43.45656" lon="6.59789">
        <ele>90.02</ele>
        <time>2012-03-11T13:43:04Z</time>
      </trkpt>
      <trkpt lat="43.45658" lon="6.59789">
        <ele>90.02</ele>
        <time>2012-03-11T13:43:16Z</time>
      </trkpt>
      <trkpt lat="43.45658" lon="6.59789">
        <ele>90.02</ele>
        <time>2012-03-11T13:43:34Z</time>
      </trkpt>
      <trkpt lat="43.45658" lon="6.59789">
        <ele>90.02</ele>
        <time>2012-03-11T13:44:08Z</time>
      </trkpt>
      <trkpt lat="43.45658" lon="6.59789">
        <ele>89.54</ele>
        <time>2012-03-11T13:44:24Z</time>
      </trkpt>
      <trkpt lat="43.45664" lon="6.59791">
        <ele>86.18</ele>
        <time>2012-03-11T13:44:37Z</time>
      </trkpt>
      <trkpt lat="43.45666" lon="6.59792">
        <ele>87.62</ele>
        <time>2012-03-11T13:44:45Z</time>
      </trkpt>
      <trkpt lat="43.45678" lon="6.59797">
        <ele>84.25</ele>
        <time>2012-03-11T13:44:58Z</time>
      </trkpt>
      <trkpt lat="43.4568" lon="6.59798">
        <ele>84.73</ele>
        <time>2012-03-11T13:45:00Z</time>
      </trkpt>
      <trkpt lat="43.45686" lon="6.59799">
        <ele>83.29</ele>
        <time>2012-03-11T13:45:04Z</time>
      </trkpt>
      <trkpt lat="43.45698" lon="6.59798">
        <ele>81.37</ele>
        <time>2012-03-11T13:45:15Z</time>
      </trkpt>
      <trkpt lat="43.45704" lon="6.59789">
        <ele>81.37</ele>
        <time>2012-03-11T13:45:24Z</time>
      </trkpt>
      <trkpt lat="43.45707" lon="6.59791">
        <ele>80.41</ele>
        <time>2012-03-11T13:45:28Z</time>
      </trkpt>
      <trkpt lat="43.45714" lon="6.5979">
        <ele>78</ele>
        <time>2012-03-11T13:45:38Z</time>
      </trkpt>
      <trkpt lat="43.4572" lon="6.59819">
        <ele>61.16796875</ele>
      </trkpt>
      <trkpt lat="43.45729" lon="6.59841">
        <ele>55.7734375</ele>
      </trkpt>
      <trkpt lat="43.45756" lon="6.59847">
        <ele>50.421875</ele>
      </trkpt>
      <trkpt lat="43.45782" lon="6.59851">
        <ele>44.9296875</ele>
      </trkpt>
      <trkpt lat="43.45803" lon="6.5984">
        <ele>41.3203125</ele>
      </trkpt>
      <trkpt lat="43.45823" lon="6.59821">
        <ele>39.12109375</ele>
      </trkpt>
      <trkpt lat="43.4585" lon="6.59834">
        <ele>32.33984375</ele>
      </trkpt>
      <trkpt lat="43.45875" lon="6.59841">
        <ele>27.51171875</ele>
      </trkpt>
      <trkpt lat="43.45895" lon="6.59849">
        <ele>23.76171875</ele>
      </trkpt>
      <trkpt lat="43.45911" lon="6.5986">
        <ele>20.8671875</ele>
      </trkpt>
      <trkpt lat="43.4592" lon="6.59881">
        <ele>19.5390625</ele>
      </trkpt>
      <trkpt lat="43.45918" lon="6.59882">
        <ele>15.52</ele>
        <time>2012-03-11T14:31:25Z</time>
      </trkpt>
      <trkpt lat="43.45915" lon="6.59888">
        <ele>14.56</ele>
        <time>2012-03-11T14:31:29Z</time>
      </trkpt>
      <trkpt lat="43.45914" lon="6.59895">
        <ele>15.04</ele>
        <time>2012-03-11T14:31:36Z</time>
      </trkpt>
      <trkpt lat="43.45913" lon="6.59899">
        <ele>15.04</ele>
        <time>2012-03-11T14:31:39Z</time>
      </trkpt>
      <trkpt lat="43.45909" lon="6.59916">
        <ele>14.08</ele>
        <time>2012-03-11T14:31:49Z</time>
      </trkpt>
      <trkpt lat="43.45906" lon="6.59935">
        <ele>13.12</ele>
        <time>2012-03-11T14:31:59Z</time>
      </trkpt>
      <trkpt lat="43.45904" lon="6.59946">
        <ele>12.15</ele>
        <time>2012-03-11T14:32:06Z</time>
      </trkpt>
      <trkpt lat="43.45903" lon="6.59952">
        <ele>12.15</ele>
        <time>2012-03-11T14:32:09Z</time>
      </trkpt>
      <trkpt lat="43.45902" lon="6.5996">
        <ele>12.15</ele>
        <time>2012-03-11T14:32:14Z</time>
      </trkpt>
      <trkpt lat="43.45899" lon="6.59972">
        <ele>11.67</ele>
        <time>2012-03-11T14:32:21Z</time>
      </trkpt>
      <trkpt lat="43.45895" lon="6.59988">
        <ele>11.19</ele>
        <time>2012-03-11T14:32:30Z</time>
      </trkpt>
      <trkpt lat="43.45894" lon="6.59994">
        <ele>10.71</ele>
        <time>2012-03-11T14:32:34Z</time>
      </trkpt>
      <trkpt lat="43.4589" lon="6.60015">
        <ele>10.23</ele>
        <time>2012-03-11T14:32:45Z</time>
      </trkpt>
      <trkpt lat="43.4589" lon="6.60024">
        <ele>10.23</ele>
        <time>2012-03-11T14:32:49Z</time>
      </trkpt>
      <trkpt lat="43.45884" lon="6.60045">
        <ele>10.23</ele>
        <time>2012-03-11T14:33:00Z</time>
      </trkpt>
      <trkpt lat="43.45882" lon="6.60057">
        <ele>9.75</ele>
        <time>2012-03-11T14:33:07Z</time>
      </trkpt>
      <trkpt lat="43.4588" lon="6.60078">
        <ele>9.75</ele>
        <time>2012-03-11T14:33:19Z</time>
      </trkpt>
      <trkpt lat="43.45878" lon="6.60081">
        <ele>10.23</ele>
        <time>2012-03-11T14:33:21Z</time>
      </trkpt>
      <trkpt lat="43.45876" lon="6.60098">
        <ele>10.71</ele>
        <time>2012-03-11T14:33:30Z</time>
      </trkpt>
      <trkpt lat="43.45873" lon="6.60107">
        <ele>10.71</ele>
        <time>2012-03-11T14:33:43Z</time>
      </trkpt>
      <trkpt lat="43.45873" lon="6.60113">
        <ele>10.71</ele>
        <time>2012-03-11T14:33:47Z</time>
      </trkpt>
      <trkpt lat="43.4587" lon="6.6014">
        <ele>11.67</ele>
        <time>2012-03-11T14:34:01Z</time>
      </trkpt>
      <trkpt lat="43.45867" lon="6.60149">
        <ele>12.15</ele>
        <time>2012-03-11T14:34:06Z</time>
      </trkpt>
      <trkpt lat="43.45866" lon="6.60171">
        <ele>12.15</ele>
        <time>2012-03-11T14:34:18Z</time>
      </trkpt>
      <trkpt lat="43.45866" lon="6.60172">
        <ele>12.15</ele>
        <time>2012-03-11T14:34:19Z</time>
      </trkpt>
      <trkpt lat="43.45865" lon="6.60183">
        <ele>12.15</ele>
        <time>2012-03-11T14:34:26Z</time>
      </trkpt>
      <trkpt lat="43.45865" lon="6.60191">
        <ele>12.63</ele>
        <time>2012-03-11T14:34:31Z</time>
      </trkpt>
      <trkpt lat="43.45864" lon="6.60194">
        <ele>13.12</ele>
        <time>2012-03-11T14:34:33Z</time>
      </trkpt>
      <trkpt lat="43.45862" lon="6.60218">
        <ele>13.6</ele>
        <time>2012-03-11T14:34:46Z</time>
      </trkpt>
      <trkpt lat="43.45861" lon="6.60223">
        <ele>14.08</ele>
        <time>2012-03-11T14:34:50Z</time>
      </trkpt>
      <trkpt lat="43.45861" lon="6.60238">
        <ele>14.08</ele>
        <time>2012-03-11T14:34:57Z</time>
      </trkpt>
      <trkpt lat="43.45859" lon="6.60266">
        <ele>14.56</ele>
        <time>2012-03-11T14:35:12Z</time>
      </trkpt>
      <trkpt lat="43.45858" lon="6.60268">
        <ele>14.56</ele>
        <time>2012-03-11T14:35:13Z</time>
      </trkpt>
      <trkpt lat="43.45857" lon="6.60278">
        <ele>15.04</ele>
        <time>2012-03-11T14:35:19Z</time>
      </trkpt>
      <trkpt lat="43.45856" lon="6.60294">
        <ele>15.04</ele>
        <time>2012-03-11T14:35:27Z</time>
      </trkpt>
      <trkpt lat="43.45847" lon="6.60299">
        <ele>16</ele>
        <time>2012-03-11T14:35:35Z</time>
      </trkpt>
      <trkpt lat="43.45843" lon="6.60302">
        <ele>16</ele>
        <time>2012-03-11T14:35:50Z</time>
      </trkpt>
      <trkpt lat="43.45843" lon="6.60302">
        <ele>15.52</ele>
        <time>2012-03-11T14:36:15Z</time>
      </trkpt>
      <trkpt lat="43.45843" lon="6.60302">
        <ele>16</ele>
        <time>2012-03-11T14:36:43Z</time>
      </trkpt>
      <trkpt lat="43.45843" lon="6.60302">
        <ele>15.52</ele>
        <time>2012-03-11T14:37:12Z</time>
      </trkpt>
      <trkpt lat="43.45844" lon="6.60301">
        <ele>15.04</ele>
        <time>2012-03-11T14:37:34Z</time>
      </trkpt>
      <trkpt lat="43.45844" lon="6.60301">
        <ele>15.52</ele>
        <time>2012-03-11T14:37:38Z</time>
      </trkpt>
      <trkpt lat="43.45847" lon="6.60306">
        <ele>15.52</ele>
        <time>2012-03-11T14:37:46Z</time>
      </trkpt>
      <trkpt lat="43.45848" lon="6.60308">
        <ele>15.52</ele>
        <time>2012-03-11T14:37:48Z</time>
      </trkpt>
      <trkpt lat="43.4585" lon="6.60317">
        <ele>15.52</ele>
        <time>2012-03-11T14:37:54Z</time>
      </trkpt>
      <trkpt lat="43.45854" lon="6.60316">
        <ele>15.52</ele>
        <time>2012-03-11T14:37:57Z</time>
      </trkpt>
      <trkpt lat="43.45855" lon="6.60325">
        <ele>15.04</ele>
        <time>2012-03-11T14:38:03Z</time>
      </trkpt>
      <trkpt lat="43.45855" lon="6.6033">
        <ele>15.04</ele>
        <time>2012-03-11T14:38:07Z</time>
      </trkpt>
      <trkpt lat="43.45856" lon="6.60361">
        <ele>14.56</ele>
        <time>2012-03-11T14:38:25Z</time>
      </trkpt>
      <trkpt lat="43.45856" lon="6.60384">
        <ele>14.56</ele>
        <time>2012-03-11T14:38:38Z</time>
      </trkpt>
      <trkpt lat="43.45855" lon="6.60393">
        <ele>14.56</ele>
        <time>2012-03-11T14:38:43Z</time>
      </trkpt>
      <trkpt lat="43.45855" lon="6.6042">
        <ele>13.6</ele>
        <time>2012-03-11T14:38:57Z</time>
      </trkpt>
      <trkpt lat="43.45855" lon="6.60425">
        <ele>13.12</ele>
        <time>2012-03-11T14:39:00Z</time>
      </trkpt>
      <trkpt lat="43.45856" lon="6.60443">
        <ele>13.12</ele>
        <time>2012-03-11T14:39:10Z</time>
      </trkpt>
      <trkpt lat="43.45856" lon="6.60455">
        <ele>12.63</ele>
        <time>2012-03-11T14:39:16Z</time>
      </trkpt>
      <trkpt lat="43.45857" lon="6.60476">
        <ele>11.67</ele>
        <time>2012-03-11T14:39:28Z</time>
      </trkpt>
      <trkpt lat="43.45858" lon="6.60481">
        <ele>11.19</ele>
        <time>2012-03-11T14:39:31Z</time>
      </trkpt>
      <trkpt lat="43.4586" lon="6.60506">
        <ele>10.23</ele>
        <time>2012-03-11T14:39:44Z</time>
      </trkpt>
      <trkpt lat="43.45861" lon="6.60508">
        <ele>11.19</ele>
        <time>2012-03-11T14:39:45Z</time>
      </trkpt>
      <trkpt lat="43.45863" lon="6.60529">
        <ele>10.71</ele>
        <time>2012-03-11T14:39:57Z</time>
      </trkpt>
      <trkpt lat="43.45863" lon="6.60533">
        <ele>10.71</ele>
        <time>2012-03-11T14:39:59Z</time>
      </trkpt>
      <trkpt lat="43.45866" lon="6.60559">
        <ele>11.19</ele>
        <time>2012-03-11T14:40:13Z</time>
      </trkpt>
      <trkpt lat="43.45866" lon="6.60583">
        <ele>11.19</ele>
        <time>2012-03-11T14:40:25Z</time>
      </trkpt>
      <trkpt lat="43.45867" lon="6.60605">
        <ele>10.71</ele>
        <time>2012-03-11T14:40:36Z</time>
      </trkpt>
      <trkpt lat="43.45869" lon="6.60615">
        <ele>11.67</ele>
        <time>2012-03-11T14:40:41Z</time>
      </trkpt>
      <trkpt lat="43.45871" lon="6.60626">
        <ele>12.15</ele>
        <time>2012-03-11T14:40:47Z</time>
      </trkpt>
      <trkpt lat="43.45874" lon="6.60636">
        <ele>12.15</ele>
        <time>2012-03-11T14:40:54Z</time>
      </trkpt>
      <trkpt lat="43.45876" lon="6.60642">
        <ele>12.15</ele>
        <time>2012-03-11T14:40:58Z</time>
      </trkpt>
      <trkpt lat="43.45878" lon="6.60666">
        <ele>12.15</ele>
        <time>2012-03-11T14:41:10Z</time>
      </trkpt>
      <trkpt lat="43.45882" lon="6.60685">
        <ele>12.63</ele>
        <time>2012-03-11T14:41:21Z</time>
      </trkpt>
      <trkpt lat="43.45887" lon="6.60703">
        <ele>12.63</ele>
        <time>2012-03-11T14:41:32Z</time>
      </trkpt>
      <trkpt lat="43.45887" lon="6.60709">
        <ele>12.63</ele>
        <time>2012-03-11T14:41:35Z</time>
      </trkpt>
      <trkpt lat="43.45891" lon="6.60728">
        <ele>12.15</ele>
        <time>2012-03-11T14:41:45Z</time>
      </trkpt>
      <trkpt lat="43.45896" lon="6.60746">
        <ele>11.67</ele>
        <time>2012-03-11T14:41:57Z</time>
      </trkpt>
      <trkpt lat="43.45899" lon="6.60757">
        <ele>11.67</ele>
        <time>2012-03-11T14:42:03Z</time>
      </trkpt>
      <trkpt lat="43.45903" lon="6.60769">
        <ele>10.71</ele>
        <time>2012-03-11T14:42:10Z</time>
      </trkpt>
      <trkpt lat="43.45904" lon="6.60777">
        <ele>10.71</ele>
        <time>2012-03-11T14:42:14Z</time>
      </trkpt>
      <trkpt lat="43.45911" lon="6.60801">
        <ele>10.71</ele>
        <time>2012-03-11T14:42:29Z</time>
      </trkpt>
      <trkpt lat="43.45913" lon="6.60808">
        <ele>10.23</ele>
        <time>2012-03-11T14:42:33Z</time>
      </trkpt>
      <trkpt lat="43.45919" lon="6.60833">
        <ele>10.23</ele>
        <time>2012-03-11T14:42:47Z</time>
      </trkpt>
      <trkpt lat="43.45919" lon="6.60835">
        <ele>10.23</ele>
        <time>2012-03-11T14:42:48Z</time>
      </trkpt>
      <trkpt lat="43.45923" lon="6.60844">
        <ele>10.23</ele>
        <time>2012-03-11T14:42:54Z</time>
      </trkpt>
      <trkpt lat="43.45925" lon="6.60852">
        <ele>10.23</ele>
        <time>2012-03-11T14:43:00Z</time>
      </trkpt>
      <trkpt lat="43.45931" lon="6.60875">
        <ele>11.19</ele>
        <time>2012-03-11T14:43:14Z</time>
      </trkpt>
      <trkpt lat="43.45931" lon="6.60877">
        <ele>11.19</ele>
        <time>2012-03-11T14:43:15Z</time>
      </trkpt>
      <trkpt lat="43.45932" lon="6.60883">
        <ele>11.67</ele>
        <time>2012-03-11T14:43:19Z</time>
      </trkpt>
      <trkpt lat="43.45936" lon="6.60895">
        <ele>12.15</ele>
        <time>2012-03-11T14:43:28Z</time>
      </trkpt>
      <trkpt lat="43.45939" lon="6.60912">
        <ele>12.63</ele>
        <time>2012-03-11T14:43:38Z</time>
      </trkpt>
      <trkpt lat="43.45941" lon="6.60917">
        <ele>12.63</ele>
        <time>2012-03-11T14:43:41Z</time>
      </trkpt>
      <trkpt lat="43.45943" lon="6.60929">
        <ele>13.12</ele>
        <time>2012-03-11T14:43:48Z</time>
      </trkpt>
      <trkpt lat="43.45944" lon="6.60942">
        <ele>14.08</ele>
        <time>2012-03-11T14:43:57Z</time>
      </trkpt>
      <trkpt lat="43.45945" lon="6.60948">
        <ele>14.08</ele>
        <time>2012-03-11T14:44:01Z</time>
      </trkpt>
      <trkpt lat="43.45942" lon="6.60971">
        <ele>14.08</ele>
        <time>2012-03-11T14:44:16Z</time>
      </trkpt>
      <trkpt lat="43.4593" lon="6.60978">
        <ele>14.56</ele>
        <time>2012-03-11T14:44:26Z</time>
      </trkpt>
      <trkpt lat="43.45915" lon="6.60987">
        <ele>12.63</ele>
        <time>2012-03-11T14:44:41Z</time>
      </trkpt>
      <trkpt lat="43.45896" lon="6.60997">
        <ele>11.67</ele>
        <time>2012-03-11T14:44:57Z</time>
      </trkpt>
      <trkpt lat="43.45894" lon="6.60998">
        <ele>11.67</ele>
        <time>2012-03-11T14:44:58Z</time>
      </trkpt>
      <trkpt lat="43.45874" lon="6.61009">
        <ele>9.27</ele>
        <time>2012-03-11T14:45:14Z</time>
      </trkpt>
      <trkpt lat="43.45859" lon="6.6101">
        <ele>8.31</ele>
        <time>2012-03-11T14:45:27Z</time>
      </trkpt>
      <trkpt lat="43.45857" lon="6.6101">
        <ele>8.79</ele>
        <time>2012-03-11T14:45:29Z</time>
      </trkpt>
      <trkpt lat="43.45851" lon="6.61007">
        <ele>7.83</ele>
        <time>2012-03-11T14:45:33Z</time>
      </trkpt>
      <trkpt lat="43.45834" lon="6.60999">
        <ele>6.87</ele>
        <time>2012-03-11T14:45:46Z</time>
      </trkpt>
      <trkpt lat="43.45815" lon="6.60996">
        <ele>5.42</ele>
        <time>2012-03-11T14:46:00Z</time>
      </trkpt>
      <trkpt lat="43.45812" lon="6.60996">
        <ele>5.42</ele>
        <time>2012-03-11T14:46:02Z</time>
      </trkpt>
      <trkpt lat="43.45791" lon="6.61004">
        <ele>4.94</ele>
        <time>2012-03-11T14:46:16Z</time>
      </trkpt>
      <trkpt lat="43.45777" lon="6.61019">
        <ele>4.94</ele>
        <time>2012-03-11T14:46:30Z</time>
      </trkpt>
      <trkpt lat="43.45764" lon="6.61036">
        <ele>5.91</ele>
        <time>2012-03-11T14:46:43Z</time>
      </trkpt>
      <trkpt lat="43.45749" lon="6.61054">
        <ele>5.42</ele>
        <time>2012-03-11T14:46:58Z</time>
      </trkpt>
      <trkpt lat="43.45745" lon="6.61059">
        <ele>5.42</ele>
        <time>2012-03-11T14:47:02Z</time>
      </trkpt>
      <trkpt lat="43.4573" lon="6.61069">
        <ele>4.94</ele>
        <time>2012-03-11T14:47:15Z</time>
      </trkpt>
      <trkpt lat="43.45724" lon="6.6107">
        <ele>4.94</ele>
        <time>2012-03-11T14:47:19Z</time>
      </trkpt>
      <trkpt lat="43.45703" lon="6.61074">
        <ele>4.94</ele>
        <time>2012-03-11T14:47:34Z</time>
      </trkpt>
      <trkpt lat="43.45684" lon="6.61072">
        <ele>4.94</ele>
        <time>2012-03-11T14:47:50Z</time>
      </trkpt>
      <trkpt lat="43.45665" lon="6.6107">
        <ele>4.94</ele>
        <time>2012-03-11T14:48:03Z</time>
      </trkpt>
      <trkpt lat="43.45662" lon="6.61071">
        <ele>4.94</ele>
        <time>2012-03-11T14:48:05Z</time>
      </trkpt>
      <trkpt lat="43.45653" lon="6.61074">
        <ele>4.94</ele>
        <time>2012-03-11T14:48:11Z</time>
      </trkpt>
      <trkpt lat="43.45638" lon="6.61084">
        <ele>5.42</ele>
        <time>2012-03-11T14:48:23Z</time>
      </trkpt>
      <trkpt lat="43.45627" lon="6.61101">
        <ele>4.94</ele>
        <time>2012-03-11T14:48:35Z</time>
      </trkpt>
      <trkpt lat="43.45616" lon="6.61113">
        <ele>4.46</ele>
        <time>2012-03-11T14:48:45Z</time>
      </trkpt>
      <trkpt lat="43.45609" lon="6.61119">
        <ele>5.42</ele>
        <time>2012-03-11T14:48:52Z</time>
      </trkpt>
      <trkpt lat="43.456" lon="6.61142">
        <ele>5.42</ele>
        <time>2012-03-11T14:49:04Z</time>
      </trkpt>
      <trkpt lat="43.456" lon="6.61146">
        <ele>4.94</ele>
        <time>2012-03-11T14:49:06Z</time>
      </trkpt>
      <trkpt lat="43.45596" lon="6.61155">
        <ele>5.91</ele>
        <time>2012-03-11T14:49:12Z</time>
      </trkpt>
      <trkpt lat="43.45587" lon="6.6117">
        <ele>4.94</ele>
        <time>2012-03-11T14:49:23Z</time>
      </trkpt>
      <trkpt lat="43.45585" lon="6.61173">
        <ele>5.42</ele>
        <time>2012-03-11T14:49:25Z</time>
      </trkpt>
      <trkpt lat="43.45566" lon="6.61185">
        <ele>4.94</ele>
        <time>2012-03-11T14:49:39Z</time>
      </trkpt>
      <trkpt lat="43.45559" lon="6.61188">
        <ele>4.94</ele>
        <time>2012-03-11T14:49:44Z</time>
      </trkpt>
      <trkpt lat="43.45541" lon="6.6119">
        <ele>4.46</ele>
        <time>2012-03-11T14:49:57Z</time>
      </trkpt>
      <trkpt lat="43.45523" lon="6.6119">
        <ele>4.46</ele>
        <time>2012-03-11T14:50:10Z</time>
      </trkpt>
      <trkpt lat="43.45509" lon="6.61194">
        <ele>4.46</ele>
        <time>2012-03-11T14:50:20Z</time>
      </trkpt>
      <trkpt lat="43.45501" lon="6.612">
        <ele>4.46</ele>
        <time>2012-03-11T14:50:27Z</time>
      </trkpt>
      <trkpt lat="43.4548" lon="6.61198">
        <ele>4.94</ele>
        <time>2012-03-11T14:50:42Z</time>
      </trkpt>
      <trkpt lat="43.45475" lon="6.61201">
        <ele>4.46</ele>
        <time>2012-03-11T14:50:46Z</time>
      </trkpt>
      <trkpt lat="43.45464" lon="6.61213">
        <ele>3.5</ele>
        <time>2012-03-11T14:50:56Z</time>
      </trkpt>
      <trkpt lat="43.45453" lon="6.6122">
        <ele>3.5</ele>
        <time>2012-03-11T14:51:04Z</time>
      </trkpt>
      <trkpt lat="43.45449" lon="6.61224">
        <ele>3.5</ele>
        <time>2012-03-11T14:51:07Z</time>
      </trkpt>
      <trkpt lat="43.4544" lon="6.61235">
        <ele>3.98</ele>
        <time>2012-03-11T14:51:17Z</time>
      </trkpt>
      <trkpt lat="43.45438" lon="6.61238">
        <ele>3.98</ele>
        <time>2012-03-11T14:51:19Z</time>
      </trkpt>
      <trkpt lat="43.45433" lon="6.61242">
        <ele>3.98</ele>
        <time>2012-03-11T14:51:24Z</time>
      </trkpt>
      <trkpt lat="43.45431" lon="6.61245">
        <ele>3.98</ele>
        <time>2012-03-11T14:51:26Z</time>
      </trkpt>
      <trkpt lat="43.45417" lon="6.61258">
        <ele>3.98</ele>
        <time>2012-03-11T14:51:38Z</time>
      </trkpt>
      <trkpt lat="43.45416" lon="6.61262">
        <ele>3.5</ele>
        <time>2012-03-11T14:51:40Z</time>
      </trkpt>
      <trkpt lat="43.45412" lon="6.61267">
        <ele>3.98</ele>
        <time>2012-03-11T14:51:44Z</time>
      </trkpt>
      <trkpt lat="43.45399" lon="6.61276">
        <ele>4.46</ele>
        <time>2012-03-11T14:51:57Z</time>
      </trkpt>
      <trkpt lat="43.45395" lon="6.61286">
        <ele>3.5</ele>
        <time>2012-03-11T14:52:09Z</time>
      </trkpt>
      <trkpt lat="43.45393" lon="6.61288">
        <ele>4.46</ele>
        <time>2012-03-11T14:52:13Z</time>
      </trkpt>
      <trkpt lat="43.45387" lon="6.61292">
        <ele>3.98</ele>
        <time>2012-03-11T14:52:19Z</time>
      </trkpt>
      <trkpt lat="43.45381" lon="6.61292">
        <ele>4.46</ele>
        <time>2012-03-11T14:52:23Z</time>
      </trkpt>
      <trkpt lat="43.45364" lon="6.6129">
        <ele>4.46</ele>
        <time>2012-03-11T14:52:37Z</time>
      </trkpt>
      <trkpt lat="43.4535" lon="6.61286">
        <ele>4.46</ele>
        <time>2012-03-11T14:52:49Z</time>
      </trkpt>
      <trkpt lat="43.45333" lon="6.61285">
        <ele>5.42</ele>
        <time>2012-03-11T14:53:03Z</time>
      </trkpt>
      <trkpt lat="43.45323" lon="6.6129">
        <ele>4.94</ele>
        <time>2012-03-11T14:53:09Z</time>
      </trkpt>
      <trkpt lat="43.4531" lon="6.61309">
        <ele>5.42</ele>
        <time>2012-03-11T14:53:23Z</time>
      </trkpt>
      <trkpt lat="43.45302" lon="6.61318">
        <ele>5.91</ele>
        <time>2012-03-11T14:53:31Z</time>
      </trkpt>
      <trkpt lat="43.45297" lon="6.61326">
        <ele>5.91</ele>
        <time>2012-03-11T14:53:37Z</time>
      </trkpt>
      <trkpt lat="43.45295" lon="6.61331">
        <ele>5.42</ele>
        <time>2012-03-11T14:53:41Z</time>
      </trkpt>
      <trkpt lat="43.45292" lon="6.61339">
        <ele>5.91</ele>
        <time>2012-03-11T14:53:46Z</time>
      </trkpt>
      <trkpt lat="43.45288" lon="6.61349">
        <ele>5.91</ele>
        <time>2012-03-11T14:53:52Z</time>
      </trkpt>
      <trkpt lat="43.45287" lon="6.61356">
        <ele>5.91</ele>
        <time>2012-03-11T14:53:56Z</time>
      </trkpt>
      <trkpt lat="43.45281" lon="6.61369">
        <ele>5.91</ele>
        <time>2012-03-11T14:54:05Z</time>
      </trkpt>
      <trkpt lat="43.45268" lon="6.61376">
        <ele>5.91</ele>
        <time>2012-03-11T14:54:17Z</time>
      </trkpt>
      <trkpt lat="43.45262" lon="6.61376">
        <ele>5.91</ele>
        <time>2012-03-11T14:54:21Z</time>
      </trkpt>
      <trkpt lat="43.45249" lon="6.61387">
        <ele>5.91</ele>
        <time>2012-03-11T14:54:33Z</time>
      </trkpt>
      <trkpt lat="43.45244" lon="6.61407">
        <ele>5.91</ele>
        <time>2012-03-11T14:54:44Z</time>
      </trkpt>
      <trkpt lat="43.45243" lon="6.61419">
        <ele>5.91</ele>
        <time>2012-03-11T14:54:51Z</time>
      </trkpt>
      <trkpt lat="43.45241" lon="6.61435">
        <ele>5.91</ele>
        <time>2012-03-11T14:55:00Z</time>
      </trkpt>
      <trkpt lat="43.4524" lon="6.61444">
        <ele>5.42</ele>
        <time>2012-03-11T14:55:06Z</time>
      </trkpt>
      <trkpt lat="43.45223" lon="6.61467">
        <ele>4.94</ele>
        <time>2012-03-11T14:55:23Z</time>
      </trkpt>
      <trkpt lat="43.45212" lon="6.61471">
        <ele>4.46</ele>
        <time>2012-03-11T14:55:31Z</time>
      </trkpt>
      <trkpt lat="43.45207" lon="6.61475">
        <ele>4.94</ele>
        <time>2012-03-11T14:55:35Z</time>
      </trkpt>
      <trkpt lat="43.45205" lon="6.61476">
        <ele>4.46</ele>
        <time>2012-03-11T14:55:37Z</time>
      </trkpt>
      <trkpt lat="43.45201" lon="6.61477">
        <ele>4.94</ele>
        <time>2012-03-11T14:55:41Z</time>
      </trkpt>
      <trkpt lat="43.45197" lon="6.61479">
        <ele>4.94</ele>
        <time>2012-03-11T14:55:44Z</time>
      </trkpt>
      <trkpt lat="43.45183" lon="6.61492">
        <ele>4.46</ele>
        <time>2012-03-11T14:55:55Z</time>
      </trkpt>
      <trkpt lat="43.45168" lon="6.61494">
        <ele>4.94</ele>
        <time>2012-03-11T14:56:07Z</time>
      </trkpt>
      <trkpt lat="43.45152" lon="6.61487">
        <ele>4.94</ele>
        <time>2012-03-11T14:56:20Z</time>
      </trkpt>
      <trkpt lat="43.45132" lon="6.61487">
        <ele>4.94</ele>
        <time>2012-03-11T14:56:35Z</time>
      </trkpt>
      <trkpt lat="43.45129" lon="6.61492">
        <ele>5.42</ele>
        <time>2012-03-11T14:56:39Z</time>
      </trkpt>
      <trkpt lat="43.45121" lon="6.61508">
        <ele>5.91</ele>
        <time>2012-03-11T14:56:51Z</time>
      </trkpt>
      <trkpt lat="43.45119" lon="6.61511">
        <ele>5.42</ele>
        <time>2012-03-11T14:56:53Z</time>
      </trkpt>
      <trkpt lat="43.45102" lon="6.61524">
        <ele>6.39</ele>
        <time>2012-03-11T14:57:08Z</time>
      </trkpt>
      <trkpt lat="43.45097" lon="6.61523">
        <ele>6.39</ele>
        <time>2012-03-11T14:57:12Z</time>
      </trkpt>
      <trkpt lat="43.45082" lon="6.61516">
        <ele>5.42</ele>
        <time>2012-03-11T14:57:23Z</time>
      </trkpt>
      <trkpt lat="43.45078" lon="6.61514">
        <ele>4.94</ele>
        <time>2012-03-11T14:57:26Z</time>
      </trkpt>
      <trkpt lat="43.45071" lon="6.61514">
        <ele>5.42</ele>
        <time>2012-03-11T14:57:32Z</time>
      </trkpt>
      <trkpt lat="43.45064" lon="6.61516">
        <ele>4.46</ele>
        <time>2012-03-11T14:57:37Z</time>
      </trkpt>
      <trkpt lat="43.4505" lon="6.61524">
        <ele>4.46</ele>
        <time>2012-03-11T14:57:48Z</time>
      </trkpt>
      <trkpt lat="43.45049" lon="6.61541">
        <ele>4.46</ele>
        <time>2012-03-11T14:57:58Z</time>
      </trkpt>
      <trkpt lat="43.45049" lon="6.61562">
        <ele>4.94</ele>
        <time>2012-03-11T14:58:13Z</time>
      </trkpt>
      <trkpt lat="43.45048" lon="6.61567">
        <ele>4.94</ele>
        <time>2012-03-11T14:58:15Z</time>
      </trkpt>
      <trkpt lat="43.45045" lon="6.61581">
        <ele>4.94</ele>
        <time>2012-03-11T14:58:22Z</time>
      </trkpt>
      <trkpt lat="43.45046" lon="6.61588">
        <ele>5.42</ele>
        <time>2012-03-11T14:58:27Z</time>
      </trkpt>
      <trkpt lat="43.45051" lon="6.61605">
        <ele>5.42</ele>
        <time>2012-03-11T14:58:39Z</time>
      </trkpt>
      <trkpt lat="43.45052" lon="6.61609">
        <ele>4.94</ele>
        <time>2012-03-11T14:58:47Z</time>
      </trkpt>
      <trkpt lat="43.45055" lon="6.61611">
        <ele>3.98</ele>
        <time>2012-03-11T14:59:00Z</time>
      </trkpt>
      <trkpt lat="43.45055" lon="6.61611">
        <ele>5.42</ele>
        <time>2012-03-11T14:59:29Z</time>
      </trkpt>
      <trkpt lat="43.45054" lon="6.61611">
        <ele>5.42</ele>
        <time>2012-03-11T14:59:46Z</time>
      </trkpt>
      <trkpt lat="43.45054" lon="6.61611">
        <ele>2.06</ele>
        <time>2012-03-11T14:59:51Z</time>
      </trkpt>
      <trkpt lat="43.45054" lon="6.61611">
        <ele>5.42</ele>
        <time>2012-03-11T14:59:52Z</time>
      </trkpt>
    </trkseg>
  </trk>
</gpx>